<?xml version="1.0" encoding="UTF-8" standalone="no" ?>
<gpx xmlns="http://www.topografix.com/GPX/1/1" xmlns:xsi="http://www.w3.org/2001/XMLSchema-instance" xsi:schemaLocation="http://www.topografix.com/GPX/1/1 http://www.topografix.com/GPX/1/1/gpx.xsd" version="1.1" creator="VisuGPX - https://www.visugpx.com">
  <metadata>
    <name>20090201_V77LARCHANT_LHivernale on AllTrails</name>
  </metadata>
  <trk>
    <name><![CDATA[20090201_V77LARCHANT_LHivernale on AllTrails]]></name>
    <trkseg>
      <trkpt lat="48.28322" lon="2.59785">
        <ele>75</ele>
        <time>2009-02-01T07:19:52Z</time>
      </trkpt>
      <trkpt lat="48.28327" lon="2.59782">
        <ele>75</ele>
        <time>2009-02-01T07:21:43Z</time>
      </trkpt>
      <trkpt lat="48.28327" lon="2.59782">
        <ele>75</ele>
        <time>2009-02-01T07:21:44Z</time>
      </trkpt>
      <trkpt lat="48.28318" lon="2.59794">
        <ele>75</ele>
        <time>2009-02-01T07:21:58Z</time>
      </trkpt>
      <trkpt lat="48.28283" lon="2.59823">
        <ele>77</ele>
        <time>2009-02-01T07:22:15Z</time>
      </trkpt>
      <trkpt lat="48.28241" lon="2.59848">
        <ele>79</ele>
        <time>2009-02-01T07:22:33Z</time>
      </trkpt>
      <trkpt lat="48.28181" lon="2.59885">
        <ele>83</ele>
        <time>2009-02-01T07:22:56Z</time>
      </trkpt>
      <trkpt lat="48.2814" lon="2.59912">
        <ele>84</ele>
        <time>2009-02-01T07:23:13Z</time>
      </trkpt>
      <trkpt lat="48.2809" lon="2.59972">
        <ele>84</ele>
        <time>2009-02-01T07:23:33Z</time>
      </trkpt>
      <trkpt lat="48.28042" lon="2.60033">
        <ele>90</ele>
        <time>2009-02-01T07:23:52Z</time>
      </trkpt>
      <trkpt lat="48.27978" lon="2.60106">
        <ele>94</ele>
        <time>2009-02-01T07:24:16Z</time>
      </trkpt>
      <trkpt lat="48.27935" lon="2.60153">
        <ele>99</ele>
        <time>2009-02-01T07:24:30Z</time>
      </trkpt>
      <trkpt lat="48.27913" lon="2.60165">
        <ele>101</ele>
        <time>2009-02-01T07:24:35Z</time>
      </trkpt>
      <trkpt lat="48.27859" lon="2.60175">
        <ele>105</ele>
        <time>2009-02-01T07:24:49Z</time>
      </trkpt>
      <trkpt lat="48.27821" lon="2.60187">
        <ele>107</ele>
        <time>2009-02-01T07:25:02Z</time>
      </trkpt>
      <trkpt lat="48.27796" lon="2.60197">
        <ele>108</ele>
        <time>2009-02-01T07:25:12Z</time>
      </trkpt>
      <trkpt lat="48.27784" lon="2.602">
        <ele>110</ele>
        <time>2009-02-01T07:25:17Z</time>
      </trkpt>
      <trkpt lat="48.27759" lon="2.60203">
        <ele>113</ele>
        <time>2009-02-01T07:25:29Z</time>
      </trkpt>
      <trkpt lat="48.27748" lon="2.60205">
        <ele>114</ele>
        <time>2009-02-01T07:25:34Z</time>
      </trkpt>
      <trkpt lat="48.2771" lon="2.60212">
        <ele>117</ele>
        <time>2009-02-01T07:25:50Z</time>
      </trkpt>
      <trkpt lat="48.27679" lon="2.60222">
        <ele>118</ele>
        <time>2009-02-01T07:26:04Z</time>
      </trkpt>
      <trkpt lat="48.27675" lon="2.60221">
        <ele>118</ele>
        <time>2009-02-01T07:26:06Z</time>
      </trkpt>
      <trkpt lat="48.27643" lon="2.60243">
        <ele>118</ele>
        <time>2009-02-01T07:26:22Z</time>
      </trkpt>
      <trkpt lat="48.27592" lon="2.60282">
        <ele>117</ele>
        <time>2009-02-01T07:26:41Z</time>
      </trkpt>
      <trkpt lat="48.27521" lon="2.60335">
        <ele>118</ele>
        <time>2009-02-01T07:27:02Z</time>
      </trkpt>
      <trkpt lat="48.27443" lon="2.60392">
        <ele>117</ele>
        <time>2009-02-01T07:27:23Z</time>
      </trkpt>
      <trkpt lat="48.27389" lon="2.60434">
        <ele>114</ele>
        <time>2009-02-01T07:27:38Z</time>
      </trkpt>
      <trkpt lat="48.27314" lon="2.6049">
        <ele>111</ele>
        <time>2009-02-01T07:27:55Z</time>
      </trkpt>
      <trkpt lat="48.27251" lon="2.60532">
        <ele>114</ele>
        <time>2009-02-01T07:28:11Z</time>
      </trkpt>
      <trkpt lat="48.27207" lon="2.60582">
        <ele>114</ele>
        <time>2009-02-01T07:28:27Z</time>
      </trkpt>
      <trkpt lat="48.27196" lon="2.60592">
        <ele>113</ele>
        <time>2009-02-01T07:28:31Z</time>
      </trkpt>
      <trkpt lat="48.27147" lon="2.60614">
        <ele>109</ele>
        <time>2009-02-01T07:28:40Z</time>
      </trkpt>
      <trkpt lat="48.27115" lon="2.60653">
        <ele>105</ele>
        <time>2009-02-01T07:28:47Z</time>
      </trkpt>
      <trkpt lat="48.27102" lon="2.60675">
        <ele>103</ele>
        <time>2009-02-01T07:28:50Z</time>
      </trkpt>
      <trkpt lat="48.27093" lon="2.6069">
        <ele>102</ele>
        <time>2009-02-01T07:28:52Z</time>
      </trkpt>
      <trkpt lat="48.27058" lon="2.60743">
        <ele>98</ele>
        <time>2009-02-01T07:28:59Z</time>
      </trkpt>
      <trkpt lat="48.27039" lon="2.60765">
        <ele>94</ele>
        <time>2009-02-01T07:29:03Z</time>
      </trkpt>
      <trkpt lat="48.27031" lon="2.60774">
        <ele>93</ele>
        <time>2009-02-01T07:29:05Z</time>
      </trkpt>
      <trkpt lat="48.26989" lon="2.60796">
        <ele>91</ele>
        <time>2009-02-01T07:29:13Z</time>
      </trkpt>
      <trkpt lat="48.26971" lon="2.60805">
        <ele>90</ele>
        <time>2009-02-01T07:29:16Z</time>
      </trkpt>
      <trkpt lat="48.26905" lon="2.60857">
        <ele>81</ele>
        <time>2009-02-01T07:29:29Z</time>
      </trkpt>
      <trkpt lat="48.26889" lon="2.60878">
        <ele>79</ele>
        <time>2009-02-01T07:29:34Z</time>
      </trkpt>
      <trkpt lat="48.26882" lon="2.60911">
        <ele>79</ele>
        <time>2009-02-01T07:29:39Z</time>
      </trkpt>
      <trkpt lat="48.26882" lon="2.6093">
        <ele>79</ele>
        <time>2009-02-01T07:29:42Z</time>
      </trkpt>
      <trkpt lat="48.26872" lon="2.60919">
        <ele>78</ele>
        <time>2009-02-01T07:29:48Z</time>
      </trkpt>
      <trkpt lat="48.2686" lon="2.60881">
        <ele>79</ele>
        <time>2009-02-01T07:29:58Z</time>
      </trkpt>
      <trkpt lat="48.26858" lon="2.6087">
        <ele>79</ele>
        <time>2009-02-01T07:30:03Z</time>
      </trkpt>
      <trkpt lat="48.26837" lon="2.60823">
        <ele>80</ele>
        <time>2009-02-01T07:32:29Z</time>
      </trkpt>
      <trkpt lat="48.26808" lon="2.60738">
        <ele>81</ele>
        <time>2009-02-01T07:32:45Z</time>
      </trkpt>
      <trkpt lat="48.26775" lon="2.60633">
        <ele>82</ele>
        <time>2009-02-01T07:33:01Z</time>
      </trkpt>
      <trkpt lat="48.26765" lon="2.60579">
        <ele>84</ele>
        <time>2009-02-01T07:33:09Z</time>
      </trkpt>
      <trkpt lat="48.26759" lon="2.60548">
        <ele>85</ele>
        <time>2009-02-01T07:33:14Z</time>
      </trkpt>
      <trkpt lat="48.26738" lon="2.60552">
        <ele>84</ele>
        <time>2009-02-01T07:33:21Z</time>
      </trkpt>
      <trkpt lat="48.26734" lon="2.60554">
        <ele>84</ele>
        <time>2009-02-01T07:33:22Z</time>
      </trkpt>
      <trkpt lat="48.26677" lon="2.60566">
        <ele>86</ele>
        <time>2009-02-01T07:33:37Z</time>
      </trkpt>
      <trkpt lat="48.26624" lon="2.60567">
        <ele>93</ele>
        <time>2009-02-01T07:33:51Z</time>
      </trkpt>
      <trkpt lat="48.26588" lon="2.60577">
        <ele>98</ele>
        <time>2009-02-01T07:34:02Z</time>
      </trkpt>
      <trkpt lat="48.26561" lon="2.60615">
        <ele>102</ele>
        <time>2009-02-01T07:34:16Z</time>
      </trkpt>
      <trkpt lat="48.26541" lon="2.60654">
        <ele>104</ele>
        <time>2009-02-01T07:34:30Z</time>
      </trkpt>
      <trkpt lat="48.26497" lon="2.60656">
        <ele>103</ele>
        <time>2009-02-01T07:34:44Z</time>
      </trkpt>
      <trkpt lat="48.26464" lon="2.60618">
        <ele>103</ele>
        <time>2009-02-01T07:34:58Z</time>
      </trkpt>
      <trkpt lat="48.26455" lon="2.60628">
        <ele>103</ele>
        <time>2009-02-01T07:35:04Z</time>
      </trkpt>
      <trkpt lat="48.26454" lon="2.60685">
        <ele>102</ele>
        <time>2009-02-01T07:35:14Z</time>
      </trkpt>
      <trkpt lat="48.26453" lon="2.60709">
        <ele>103</ele>
        <time>2009-02-01T07:35:18Z</time>
      </trkpt>
      <trkpt lat="48.26456" lon="2.60773">
        <ele>107</ele>
        <time>2009-02-01T07:35:30Z</time>
      </trkpt>
      <trkpt lat="48.26467" lon="2.60807">
        <ele>109</ele>
        <time>2009-02-01T07:35:36Z</time>
      </trkpt>
      <trkpt lat="48.26489" lon="2.60902">
        <ele>114</ele>
        <time>2009-02-01T07:35:52Z</time>
      </trkpt>
      <trkpt lat="48.26516" lon="2.6099">
        <ele>113</ele>
        <time>2009-02-01T07:36:08Z</time>
      </trkpt>
      <trkpt lat="48.26541" lon="2.61109">
        <ele>109</ele>
        <time>2009-02-01T07:36:27Z</time>
      </trkpt>
      <trkpt lat="48.26577" lon="2.61128">
        <ele>106</ele>
        <time>2009-02-01T07:36:35Z</time>
      </trkpt>
      <trkpt lat="48.26605" lon="2.61116">
        <ele>103</ele>
        <time>2009-02-01T07:36:40Z</time>
      </trkpt>
      <trkpt lat="48.26622" lon="2.61118">
        <ele>102</ele>
        <time>2009-02-01T07:36:44Z</time>
      </trkpt>
      <trkpt lat="48.26626" lon="2.6113">
        <ele>102</ele>
        <time>2009-02-01T07:36:46Z</time>
      </trkpt>
      <trkpt lat="48.26618" lon="2.61158">
        <ele>103</ele>
        <time>2009-02-01T07:36:54Z</time>
      </trkpt>
      <trkpt lat="48.26605" lon="2.61215">
        <ele>106</ele>
        <time>2009-02-01T07:37:08Z</time>
      </trkpt>
      <trkpt lat="48.26607" lon="2.61282">
        <ele>105</ele>
        <time>2009-02-01T07:37:21Z</time>
      </trkpt>
      <trkpt lat="48.26617" lon="2.61328">
        <ele>104</ele>
        <time>2009-02-01T07:37:29Z</time>
      </trkpt>
      <trkpt lat="48.26629" lon="2.6135">
        <ele>104</ele>
        <time>2009-02-01T07:37:34Z</time>
      </trkpt>
      <trkpt lat="48.26673" lon="2.61393">
        <ele>104</ele>
        <time>2009-02-01T07:37:45Z</time>
      </trkpt>
      <trkpt lat="48.26693" lon="2.61432">
        <ele>105</ele>
        <time>2009-02-01T07:37:51Z</time>
      </trkpt>
      <trkpt lat="48.26701" lon="2.61471">
        <ele>104</ele>
        <time>2009-02-01T07:37:55Z</time>
      </trkpt>
      <trkpt lat="48.26706" lon="2.61507">
        <ele>104</ele>
        <time>2009-02-01T07:37:59Z</time>
      </trkpt>
      <trkpt lat="48.26702" lon="2.61536">
        <ele>104</ele>
        <time>2009-02-01T07:38:03Z</time>
      </trkpt>
      <trkpt lat="48.26687" lon="2.616">
        <ele>104</ele>
        <time>2009-02-01T07:38:14Z</time>
      </trkpt>
      <trkpt lat="48.26664" lon="2.61668">
        <ele>102</ele>
        <time>2009-02-01T07:38:33Z</time>
      </trkpt>
      <trkpt lat="48.26655" lon="2.6174">
        <ele>105</ele>
        <time>2009-02-01T07:38:49Z</time>
      </trkpt>
      <trkpt lat="48.26651" lon="2.61768">
        <ele>105</ele>
        <time>2009-02-01T07:38:54Z</time>
      </trkpt>
      <trkpt lat="48.26648" lon="2.6181">
        <ele>102</ele>
        <time>2009-02-01T07:39:01Z</time>
      </trkpt>
      <trkpt lat="48.2667" lon="2.61849">
        <ele>103</ele>
        <time>2009-02-01T07:39:09Z</time>
      </trkpt>
      <trkpt lat="48.26678" lon="2.61854">
        <ele>104</ele>
        <time>2009-02-01T07:39:11Z</time>
      </trkpt>
      <trkpt lat="48.26723" lon="2.619">
        <ele>105</ele>
        <time>2009-02-01T07:39:25Z</time>
      </trkpt>
      <trkpt lat="48.26759" lon="2.61943">
        <ele>99</ele>
        <time>2009-02-01T07:39:34Z</time>
      </trkpt>
      <trkpt lat="48.26761" lon="2.61947">
        <ele>99</ele>
        <time>2009-02-01T07:39:35Z</time>
      </trkpt>
      <trkpt lat="48.26767" lon="2.61954">
        <ele>98</ele>
        <time>2009-02-01T07:39:38Z</time>
      </trkpt>
      <trkpt lat="48.26794" lon="2.6197">
        <ele>100</ele>
        <time>2009-02-01T07:39:50Z</time>
      </trkpt>
      <trkpt lat="48.26799" lon="2.61974">
        <ele>100</ele>
        <time>2009-02-01T07:39:53Z</time>
      </trkpt>
      <trkpt lat="48.26813" lon="2.61997">
        <ele>101</ele>
        <time>2009-02-01T07:40:04Z</time>
      </trkpt>
      <trkpt lat="48.26819" lon="2.62018">
        <ele>101</ele>
        <time>2009-02-01T07:40:13Z</time>
      </trkpt>
      <trkpt lat="48.26831" lon="2.6204">
        <ele>103</ele>
        <time>2009-02-01T07:40:29Z</time>
      </trkpt>
      <trkpt lat="48.2684" lon="2.62061">
        <ele>103</ele>
        <time>2009-02-01T07:40:40Z</time>
      </trkpt>
      <trkpt lat="48.26841" lon="2.62062">
        <ele>103</ele>
        <time>2009-02-01T07:40:42Z</time>
      </trkpt>
      <trkpt lat="48.26842" lon="2.62069">
        <ele>103</ele>
        <time>2009-02-01T07:40:49Z</time>
      </trkpt>
      <trkpt lat="48.26852" lon="2.62096">
        <ele>103</ele>
        <time>2009-02-01T07:41:00Z</time>
      </trkpt>
      <trkpt lat="48.26857" lon="2.62099">
        <ele>104</ele>
        <time>2009-02-01T07:41:03Z</time>
      </trkpt>
      <trkpt lat="48.26863" lon="2.62107">
        <ele>105</ele>
        <time>2009-02-01T07:41:09Z</time>
      </trkpt>
      <trkpt lat="48.26869" lon="2.62122">
        <ele>106</ele>
        <time>2009-02-01T07:41:14Z</time>
      </trkpt>
      <trkpt lat="48.26879" lon="2.62156">
        <ele>107</ele>
        <time>2009-02-01T07:41:25Z</time>
      </trkpt>
      <trkpt lat="48.26883" lon="2.6216">
        <ele>108</ele>
        <time>2009-02-01T07:41:28Z</time>
      </trkpt>
      <trkpt lat="48.26887" lon="2.62191">
        <ele>108</ele>
        <time>2009-02-01T07:41:39Z</time>
      </trkpt>
      <trkpt lat="48.26877" lon="2.62212">
        <ele>106</ele>
        <time>2009-02-01T07:41:50Z</time>
      </trkpt>
      <trkpt lat="48.26875" lon="2.62222">
        <ele>106</ele>
        <time>2009-02-01T07:41:53Z</time>
      </trkpt>
      <trkpt lat="48.26878" lon="2.62228">
        <ele>106</ele>
        <time>2009-02-01T07:41:56Z</time>
      </trkpt>
      <trkpt lat="48.26884" lon="2.62251">
        <ele>106</ele>
        <time>2009-02-01T07:42:06Z</time>
      </trkpt>
      <trkpt lat="48.26899" lon="2.6226">
        <ele>106</ele>
        <time>2009-02-01T07:42:17Z</time>
      </trkpt>
      <trkpt lat="48.269" lon="2.62265">
        <ele>106</ele>
        <time>2009-02-01T07:42:19Z</time>
      </trkpt>
      <trkpt lat="48.26901" lon="2.62281">
        <ele>105</ele>
        <time>2009-02-01T07:42:24Z</time>
      </trkpt>
      <trkpt lat="48.26903" lon="2.62307">
        <ele>103</ele>
        <time>2009-02-01T07:42:31Z</time>
      </trkpt>
      <trkpt lat="48.26904" lon="2.62339">
        <ele>102</ele>
        <time>2009-02-01T07:42:40Z</time>
      </trkpt>
      <trkpt lat="48.26922" lon="2.62348">
        <ele>103</ele>
        <time>2009-02-01T07:42:49Z</time>
      </trkpt>
      <trkpt lat="48.26923" lon="2.62344">
        <ele>103</ele>
        <time>2009-02-01T07:42:50Z</time>
      </trkpt>
      <trkpt lat="48.26926" lon="2.6232">
        <ele>104</ele>
        <time>2009-02-01T07:42:54Z</time>
      </trkpt>
      <trkpt lat="48.26924" lon="2.62313">
        <ele>104</ele>
        <time>2009-02-01T07:42:59Z</time>
      </trkpt>
      <trkpt lat="48.26922" lon="2.62303">
        <ele>105</ele>
        <time>2009-02-01T07:43:07Z</time>
      </trkpt>
      <trkpt lat="48.26923" lon="2.62298">
        <ele>105</ele>
        <time>2009-02-01T07:43:09Z</time>
      </trkpt>
      <trkpt lat="48.26922" lon="2.62292">
        <ele>106</ele>
        <time>2009-02-01T07:43:13Z</time>
      </trkpt>
      <trkpt lat="48.26923" lon="2.62291">
        <ele>106</ele>
        <time>2009-02-01T07:43:15Z</time>
      </trkpt>
      <trkpt lat="48.26935" lon="2.62274">
        <ele>108</ele>
        <time>2009-02-01T07:43:26Z</time>
      </trkpt>
      <trkpt lat="48.26936" lon="2.62253">
        <ele>108</ele>
        <time>2009-02-01T07:43:35Z</time>
      </trkpt>
      <trkpt lat="48.26934" lon="2.62246">
        <ele>108</ele>
        <time>2009-02-01T07:43:38Z</time>
      </trkpt>
      <trkpt lat="48.26933" lon="2.62237">
        <ele>108</ele>
        <time>2009-02-01T07:43:41Z</time>
      </trkpt>
      <trkpt lat="48.26929" lon="2.62194">
        <ele>109</ele>
        <time>2009-02-01T07:43:53Z</time>
      </trkpt>
      <trkpt lat="48.26928" lon="2.62179">
        <ele>109</ele>
        <time>2009-02-01T07:43:58Z</time>
      </trkpt>
      <trkpt lat="48.26917" lon="2.62164">
        <ele>110</ele>
        <time>2009-02-01T07:44:06Z</time>
      </trkpt>
      <trkpt lat="48.26911" lon="2.62148">
        <ele>110</ele>
        <time>2009-02-01T07:44:10Z</time>
      </trkpt>
      <trkpt lat="48.26914" lon="2.62137">
        <ele>110</ele>
        <time>2009-02-01T07:44:17Z</time>
      </trkpt>
      <trkpt lat="48.26921" lon="2.6213">
        <ele>110</ele>
        <time>2009-02-01T07:44:21Z</time>
      </trkpt>
      <trkpt lat="48.26921" lon="2.62116">
        <ele>109</ele>
        <time>2009-02-01T07:44:26Z</time>
      </trkpt>
      <trkpt lat="48.26914" lon="2.62084">
        <ele>110</ele>
        <time>2009-02-01T07:44:36Z</time>
      </trkpt>
      <trkpt lat="48.2691" lon="2.62074">
        <ele>110</ele>
        <time>2009-02-01T07:44:40Z</time>
      </trkpt>
      <trkpt lat="48.26911" lon="2.62055">
        <ele>110</ele>
        <time>2009-02-01T07:44:49Z</time>
      </trkpt>
      <trkpt lat="48.26909" lon="2.62048">
        <ele>110</ele>
        <time>2009-02-01T07:44:54Z</time>
      </trkpt>
      <trkpt lat="48.26898" lon="2.6204">
        <ele>110</ele>
        <time>2009-02-01T07:45:16Z</time>
      </trkpt>
      <trkpt lat="48.26894" lon="2.62032">
        <ele>110</ele>
        <time>2009-02-01T07:45:20Z</time>
      </trkpt>
      <trkpt lat="48.26883" lon="2.62027">
        <ele>110</ele>
        <time>2009-02-01T07:45:25Z</time>
      </trkpt>
      <trkpt lat="48.26873" lon="2.6202">
        <ele>109</ele>
        <time>2009-02-01T07:45:31Z</time>
      </trkpt>
      <trkpt lat="48.26876" lon="2.62008">
        <ele>109</ele>
        <time>2009-02-01T07:45:41Z</time>
      </trkpt>
      <trkpt lat="48.26883" lon="2.62022">
        <ele>110</ele>
        <time>2009-02-01T07:45:47Z</time>
      </trkpt>
      <trkpt lat="48.26885" lon="2.62026">
        <ele>110</ele>
        <time>2009-02-01T07:45:51Z</time>
      </trkpt>
      <trkpt lat="48.26893" lon="2.62024">
        <ele>110</ele>
        <time>2009-02-01T07:45:59Z</time>
      </trkpt>
      <trkpt lat="48.26896" lon="2.62017">
        <ele>110</ele>
        <time>2009-02-01T07:46:03Z</time>
      </trkpt>
      <trkpt lat="48.26898" lon="2.62001">
        <ele>110</ele>
        <time>2009-02-01T07:46:16Z</time>
      </trkpt>
      <trkpt lat="48.26898" lon="2.62">
        <ele>110</ele>
        <time>2009-02-01T07:46:18Z</time>
      </trkpt>
      <trkpt lat="48.26895" lon="2.62">
        <ele>110</ele>
        <time>2009-02-01T07:46:46Z</time>
      </trkpt>
      <trkpt lat="48.26893" lon="2.61998">
        <ele>110</ele>
        <time>2009-02-01T07:47:04Z</time>
      </trkpt>
      <trkpt lat="48.269" lon="2.6199">
        <ele>110</ele>
        <time>2009-02-01T07:47:14Z</time>
      </trkpt>
      <trkpt lat="48.269" lon="2.61989">
        <ele>110</ele>
        <time>2009-02-01T07:47:15Z</time>
      </trkpt>
      <trkpt lat="48.26899" lon="2.61976">
        <ele>109</ele>
        <time>2009-02-01T07:47:22Z</time>
      </trkpt>
      <trkpt lat="48.26899" lon="2.61976">
        <ele>109</ele>
        <time>2009-02-01T07:47:23Z</time>
      </trkpt>
      <trkpt lat="48.26898" lon="2.6197">
        <ele>109</ele>
        <time>2009-02-01T07:47:28Z</time>
      </trkpt>
      <trkpt lat="48.26886" lon="2.61949">
        <ele>108</ele>
        <time>2009-02-01T07:47:37Z</time>
      </trkpt>
      <trkpt lat="48.2688" lon="2.61915">
        <ele>107</ele>
        <time>2009-02-01T07:47:46Z</time>
      </trkpt>
      <trkpt lat="48.26869" lon="2.61881">
        <ele>108</ele>
        <time>2009-02-01T07:47:57Z</time>
      </trkpt>
      <trkpt lat="48.26862" lon="2.61862">
        <ele>108</ele>
        <time>2009-02-01T07:48:04Z</time>
      </trkpt>
      <trkpt lat="48.26858" lon="2.61817">
        <ele>110</ele>
        <time>2009-02-01T07:48:20Z</time>
      </trkpt>
      <trkpt lat="48.26855" lon="2.6178">
        <ele>112</ele>
        <time>2009-02-01T07:48:33Z</time>
      </trkpt>
      <trkpt lat="48.26852" lon="2.6175">
        <ele>114</ele>
        <time>2009-02-01T07:48:40Z</time>
      </trkpt>
      <trkpt lat="48.2685" lon="2.61736">
        <ele>114</ele>
        <time>2009-02-01T07:48:42Z</time>
      </trkpt>
      <trkpt lat="48.26844" lon="2.61709">
        <ele>114</ele>
        <time>2009-02-01T07:48:46Z</time>
      </trkpt>
      <trkpt lat="48.26836" lon="2.61683">
        <ele>114</ele>
        <time>2009-02-01T07:48:50Z</time>
      </trkpt>
      <trkpt lat="48.26809" lon="2.61601">
        <ele>113</ele>
        <time>2009-02-01T07:49:02Z</time>
      </trkpt>
      <trkpt lat="48.26804" lon="2.61578">
        <ele>113</ele>
        <time>2009-02-01T07:49:05Z</time>
      </trkpt>
      <trkpt lat="48.26798" lon="2.61545">
        <ele>113</ele>
        <time>2009-02-01T07:49:09Z</time>
      </trkpt>
      <trkpt lat="48.26795" lon="2.61529">
        <ele>113</ele>
        <time>2009-02-01T07:49:11Z</time>
      </trkpt>
      <trkpt lat="48.26794" lon="2.61497">
        <ele>112</ele>
        <time>2009-02-01T07:49:15Z</time>
      </trkpt>
      <trkpt lat="48.26791" lon="2.61473">
        <ele>112</ele>
        <time>2009-02-01T07:49:18Z</time>
      </trkpt>
      <trkpt lat="48.26783" lon="2.61412">
        <ele>112</ele>
        <time>2009-02-01T07:49:27Z</time>
      </trkpt>
      <trkpt lat="48.26779" lon="2.61363">
        <ele>113</ele>
        <time>2009-02-01T07:49:34Z</time>
      </trkpt>
      <trkpt lat="48.26773" lon="2.61302">
        <ele>114</ele>
        <time>2009-02-01T07:49:43Z</time>
      </trkpt>
      <trkpt lat="48.26781" lon="2.61261">
        <ele>114</ele>
        <time>2009-02-01T07:49:49Z</time>
      </trkpt>
      <trkpt lat="48.2682" lon="2.61202">
        <ele>110</ele>
        <time>2009-02-01T07:50:00Z</time>
      </trkpt>
      <trkpt lat="48.26832" lon="2.61176">
        <ele>108</ele>
        <time>2009-02-01T07:50:05Z</time>
      </trkpt>
      <trkpt lat="48.26844" lon="2.61177">
        <ele>102</ele>
        <time>2009-02-01T07:50:13Z</time>
      </trkpt>
      <trkpt lat="48.26844" lon="2.61179">
        <ele>102</ele>
        <time>2009-02-01T07:50:14Z</time>
      </trkpt>
      <trkpt lat="48.26845" lon="2.61182">
        <ele>102</ele>
        <time>2009-02-01T07:50:18Z</time>
      </trkpt>
      <trkpt lat="48.26846" lon="2.61187">
        <ele>102</ele>
        <time>2009-02-01T07:50:24Z</time>
      </trkpt>
      <trkpt lat="48.26841" lon="2.61209">
        <ele>103</ele>
        <time>2009-02-01T07:50:37Z</time>
      </trkpt>
      <trkpt lat="48.26834" lon="2.61226">
        <ele>104</ele>
        <time>2009-02-01T07:50:51Z</time>
      </trkpt>
      <trkpt lat="48.26827" lon="2.6124">
        <ele>104</ele>
        <time>2009-02-01T07:51:04Z</time>
      </trkpt>
      <trkpt lat="48.2682" lon="2.61257">
        <ele>104</ele>
        <time>2009-02-01T07:51:16Z</time>
      </trkpt>
      <trkpt lat="48.26819" lon="2.61262">
        <ele>104</ele>
        <time>2009-02-01T07:51:19Z</time>
      </trkpt>
      <trkpt lat="48.26818" lon="2.61268">
        <ele>104</ele>
        <time>2009-02-01T07:51:23Z</time>
      </trkpt>
      <trkpt lat="48.26817" lon="2.6127">
        <ele>104</ele>
        <time>2009-02-01T07:51:24Z</time>
      </trkpt>
      <trkpt lat="48.26817" lon="2.61284">
        <ele>104</ele>
        <time>2009-02-01T07:51:29Z</time>
      </trkpt>
      <trkpt lat="48.26817" lon="2.61293">
        <ele>103</ele>
        <time>2009-02-01T07:51:32Z</time>
      </trkpt>
      <trkpt lat="48.26822" lon="2.61301">
        <ele>101</ele>
        <time>2009-02-01T07:51:37Z</time>
      </trkpt>
      <trkpt lat="48.26824" lon="2.61304">
        <ele>100</ele>
        <time>2009-02-01T07:51:40Z</time>
      </trkpt>
      <trkpt lat="48.26828" lon="2.61307">
        <ele>98</ele>
        <time>2009-02-01T07:51:44Z</time>
      </trkpt>
      <trkpt lat="48.26831" lon="2.61308">
        <ele>96</ele>
        <time>2009-02-01T07:51:49Z</time>
      </trkpt>
      <trkpt lat="48.26841" lon="2.61292">
        <ele>92</ele>
        <time>2009-02-01T07:52:37Z</time>
      </trkpt>
      <trkpt lat="48.26842" lon="2.61294">
        <ele>92</ele>
        <time>2009-02-01T07:52:46Z</time>
      </trkpt>
      <trkpt lat="48.26843" lon="2.61299">
        <ele>91</ele>
        <time>2009-02-01T07:52:52Z</time>
      </trkpt>
      <trkpt lat="48.26847" lon="2.6131">
        <ele>89</ele>
        <time>2009-02-01T07:53:03Z</time>
      </trkpt>
      <trkpt lat="48.26847" lon="2.61314">
        <ele>89</ele>
        <time>2009-02-01T07:53:05Z</time>
      </trkpt>
      <trkpt lat="48.26848" lon="2.61318">
        <ele>89</ele>
        <time>2009-02-01T07:53:07Z</time>
      </trkpt>
      <trkpt lat="48.2685" lon="2.61329">
        <ele>88</ele>
        <time>2009-02-01T07:53:14Z</time>
      </trkpt>
      <trkpt lat="48.26853" lon="2.61334">
        <ele>87</ele>
        <time>2009-02-01T07:53:19Z</time>
      </trkpt>
      <trkpt lat="48.26853" lon="2.6134">
        <ele>88</ele>
        <time>2009-02-01T07:53:23Z</time>
      </trkpt>
      <trkpt lat="48.26857" lon="2.61361">
        <ele>88</ele>
        <time>2009-02-01T07:53:34Z</time>
      </trkpt>
      <trkpt lat="48.2686" lon="2.6137">
        <ele>87</ele>
        <time>2009-02-01T07:53:37Z</time>
      </trkpt>
      <trkpt lat="48.26871" lon="2.614">
        <ele>87</ele>
        <time>2009-02-01T07:53:48Z</time>
      </trkpt>
      <trkpt lat="48.2689" lon="2.61427">
        <ele>87</ele>
        <time>2009-02-01T07:54:00Z</time>
      </trkpt>
      <trkpt lat="48.26907" lon="2.61446">
        <ele>85</ele>
        <time>2009-02-01T07:54:06Z</time>
      </trkpt>
      <trkpt lat="48.26918" lon="2.61471">
        <ele>84</ele>
        <time>2009-02-01T07:54:14Z</time>
      </trkpt>
      <trkpt lat="48.26922" lon="2.61483">
        <ele>85</ele>
        <time>2009-02-01T07:54:17Z</time>
      </trkpt>
      <trkpt lat="48.26941" lon="2.61519">
        <ele>84</ele>
        <time>2009-02-01T07:54:27Z</time>
      </trkpt>
      <trkpt lat="48.26936" lon="2.61525">
        <ele>85</ele>
        <time>2009-02-01T07:54:29Z</time>
      </trkpt>
      <trkpt lat="48.26936" lon="2.6154">
        <ele>86</ele>
        <time>2009-02-01T07:54:34Z</time>
      </trkpt>
      <trkpt lat="48.26921" lon="2.61558">
        <ele>91</ele>
        <time>2009-02-01T07:54:41Z</time>
      </trkpt>
      <trkpt lat="48.26893" lon="2.61576">
        <ele>98</ele>
        <time>2009-02-01T07:54:56Z</time>
      </trkpt>
      <trkpt lat="48.26891" lon="2.61578">
        <ele>99</ele>
        <time>2009-02-01T07:54:57Z</time>
      </trkpt>
      <trkpt lat="48.2689" lon="2.61581">
        <ele>99</ele>
        <time>2009-02-01T07:54:59Z</time>
      </trkpt>
      <trkpt lat="48.26897" lon="2.6162">
        <ele>99</ele>
        <time>2009-02-01T07:55:11Z</time>
      </trkpt>
      <trkpt lat="48.26905" lon="2.6164">
        <ele>99</ele>
        <time>2009-02-01T07:55:17Z</time>
      </trkpt>
      <trkpt lat="48.26916" lon="2.61667">
        <ele>100</ele>
        <time>2009-02-01T07:55:27Z</time>
      </trkpt>
      <trkpt lat="48.26921" lon="2.61692">
        <ele>101</ele>
        <time>2009-02-01T07:55:37Z</time>
      </trkpt>
      <trkpt lat="48.26923" lon="2.61695">
        <ele>101</ele>
        <time>2009-02-01T07:55:38Z</time>
      </trkpt>
      <trkpt lat="48.26944" lon="2.61731">
        <ele>97</ele>
        <time>2009-02-01T07:55:49Z</time>
      </trkpt>
      <trkpt lat="48.2695" lon="2.61751">
        <ele>98</ele>
        <time>2009-02-01T07:55:54Z</time>
      </trkpt>
      <trkpt lat="48.26922" lon="2.61784">
        <ele>104</ele>
        <time>2009-02-01T07:56:05Z</time>
      </trkpt>
      <trkpt lat="48.2692" lon="2.61797">
        <ele>105</ele>
        <time>2009-02-01T07:56:09Z</time>
      </trkpt>
      <trkpt lat="48.26911" lon="2.61812">
        <ele>106</ele>
        <time>2009-02-01T07:56:15Z</time>
      </trkpt>
      <trkpt lat="48.26911" lon="2.61817">
        <ele>106</ele>
        <time>2009-02-01T07:56:18Z</time>
      </trkpt>
      <trkpt lat="48.26921" lon="2.61813">
        <ele>105</ele>
        <time>2009-02-01T07:56:27Z</time>
      </trkpt>
      <trkpt lat="48.2692" lon="2.61824">
        <ele>106</ele>
        <time>2009-02-01T07:56:32Z</time>
      </trkpt>
      <trkpt lat="48.26917" lon="2.61846">
        <ele>107</ele>
        <time>2009-02-01T07:56:41Z</time>
      </trkpt>
      <trkpt lat="48.26917" lon="2.61848">
        <ele>107</ele>
        <time>2009-02-01T07:56:42Z</time>
      </trkpt>
      <trkpt lat="48.26917" lon="2.61862">
        <ele>108</ele>
        <time>2009-02-01T07:56:46Z</time>
      </trkpt>
      <trkpt lat="48.26911" lon="2.6188">
        <ele>108</ele>
        <time>2009-02-01T07:56:52Z</time>
      </trkpt>
      <trkpt lat="48.26903" lon="2.61888">
        <ele>108</ele>
        <time>2009-02-01T07:57:01Z</time>
      </trkpt>
      <trkpt lat="48.26904" lon="2.61893">
        <ele>108</ele>
        <time>2009-02-01T07:57:05Z</time>
      </trkpt>
      <trkpt lat="48.26906" lon="2.61897">
        <ele>108</ele>
        <time>2009-02-01T07:57:12Z</time>
      </trkpt>
      <trkpt lat="48.26913" lon="2.61899">
        <ele>108</ele>
        <time>2009-02-01T07:57:18Z</time>
      </trkpt>
      <trkpt lat="48.2692" lon="2.61896">
        <ele>109</ele>
        <time>2009-02-01T07:57:22Z</time>
      </trkpt>
      <trkpt lat="48.26935" lon="2.61884">
        <ele>108</ele>
        <time>2009-02-01T07:57:31Z</time>
      </trkpt>
      <trkpt lat="48.26948" lon="2.61877">
        <ele>108</ele>
        <time>2009-02-01T07:57:37Z</time>
      </trkpt>
      <trkpt lat="48.26955" lon="2.61875">
        <ele>107</ele>
        <time>2009-02-01T07:57:41Z</time>
      </trkpt>
      <trkpt lat="48.26969" lon="2.61866">
        <ele>106</ele>
        <time>2009-02-01T07:57:48Z</time>
      </trkpt>
      <trkpt lat="48.26979" lon="2.61858">
        <ele>105</ele>
        <time>2009-02-01T07:57:53Z</time>
      </trkpt>
      <trkpt lat="48.27003" lon="2.61846">
        <ele>101</ele>
        <time>2009-02-01T07:58:02Z</time>
      </trkpt>
      <trkpt lat="48.27012" lon="2.61857">
        <ele>101</ele>
        <time>2009-02-01T07:58:07Z</time>
      </trkpt>
      <trkpt lat="48.27013" lon="2.61864">
        <ele>102</ele>
        <time>2009-02-01T07:58:09Z</time>
      </trkpt>
      <trkpt lat="48.27031" lon="2.61899">
        <ele>104</ele>
        <time>2009-02-01T07:58:21Z</time>
      </trkpt>
      <trkpt lat="48.27032" lon="2.61929">
        <ele>106</ele>
        <time>2009-02-01T07:58:29Z</time>
      </trkpt>
      <trkpt lat="48.27031" lon="2.61935">
        <ele>107</ele>
        <time>2009-02-01T07:58:31Z</time>
      </trkpt>
      <trkpt lat="48.27027" lon="2.61942">
        <ele>107</ele>
        <time>2009-02-01T07:58:35Z</time>
      </trkpt>
      <trkpt lat="48.27029" lon="2.61946">
        <ele>107</ele>
        <time>2009-02-01T07:58:37Z</time>
      </trkpt>
      <trkpt lat="48.27041" lon="2.61957">
        <ele>107</ele>
        <time>2009-02-01T07:58:44Z</time>
      </trkpt>
      <trkpt lat="48.27044" lon="2.61961">
        <ele>107</ele>
        <time>2009-02-01T07:58:46Z</time>
      </trkpt>
      <trkpt lat="48.27046" lon="2.61966">
        <ele>108</ele>
        <time>2009-02-01T07:58:48Z</time>
      </trkpt>
      <trkpt lat="48.27041" lon="2.61979">
        <ele>109</ele>
        <time>2009-02-01T07:58:54Z</time>
      </trkpt>
      <trkpt lat="48.27042" lon="2.61989">
        <ele>108</ele>
        <time>2009-02-01T07:58:57Z</time>
      </trkpt>
      <trkpt lat="48.27032" lon="2.61986">
        <ele>109</ele>
        <time>2009-02-01T07:59:04Z</time>
      </trkpt>
      <trkpt lat="48.27029" lon="2.61974">
        <ele>109</ele>
        <time>2009-02-01T07:59:07Z</time>
      </trkpt>
      <trkpt lat="48.27009" lon="2.61962">
        <ele>109</ele>
        <time>2009-02-01T07:59:15Z</time>
      </trkpt>
      <trkpt lat="48.27" lon="2.6195">
        <ele>108</ele>
        <time>2009-02-01T07:59:21Z</time>
      </trkpt>
      <trkpt lat="48.26987" lon="2.61941">
        <ele>108</ele>
        <time>2009-02-01T07:59:27Z</time>
      </trkpt>
      <trkpt lat="48.2698" lon="2.61937">
        <ele>108</ele>
        <time>2009-02-01T07:59:31Z</time>
      </trkpt>
      <trkpt lat="48.26957" lon="2.6193">
        <ele>108</ele>
        <time>2009-02-01T07:59:41Z</time>
      </trkpt>
      <trkpt lat="48.26948" lon="2.61949">
        <ele>108</ele>
        <time>2009-02-01T07:59:49Z</time>
      </trkpt>
      <trkpt lat="48.26948" lon="2.6196">
        <ele>108</ele>
        <time>2009-02-01T07:59:51Z</time>
      </trkpt>
      <trkpt lat="48.26949" lon="2.61965">
        <ele>108</ele>
        <time>2009-02-01T07:59:52Z</time>
      </trkpt>
      <trkpt lat="48.26955" lon="2.61976">
        <ele>108</ele>
        <time>2009-02-01T07:59:56Z</time>
      </trkpt>
      <trkpt lat="48.26961" lon="2.61983">
        <ele>108</ele>
        <time>2009-02-01T08:00:01Z</time>
      </trkpt>
      <trkpt lat="48.26972" lon="2.61991">
        <ele>108</ele>
        <time>2009-02-01T08:00:10Z</time>
      </trkpt>
      <trkpt lat="48.26978" lon="2.61992">
        <ele>108</ele>
        <time>2009-02-01T08:00:12Z</time>
      </trkpt>
      <trkpt lat="48.27005" lon="2.62005">
        <ele>109</ele>
        <time>2009-02-01T08:00:21Z</time>
      </trkpt>
      <trkpt lat="48.27013" lon="2.62018">
        <ele>109</ele>
        <time>2009-02-01T08:00:25Z</time>
      </trkpt>
      <trkpt lat="48.27025" lon="2.62061">
        <ele>108</ele>
        <time>2009-02-01T08:00:36Z</time>
      </trkpt>
      <trkpt lat="48.27029" lon="2.62069">
        <ele>108</ele>
        <time>2009-02-01T08:00:39Z</time>
      </trkpt>
      <trkpt lat="48.27043" lon="2.62081">
        <ele>108</ele>
        <time>2009-02-01T08:00:48Z</time>
      </trkpt>
      <trkpt lat="48.27048" lon="2.62073">
        <ele>108</ele>
        <time>2009-02-01T08:00:52Z</time>
      </trkpt>
      <trkpt lat="48.27058" lon="2.62054">
        <ele>109</ele>
        <time>2009-02-01T08:00:59Z</time>
      </trkpt>
      <trkpt lat="48.27066" lon="2.62056">
        <ele>109</ele>
        <time>2009-02-01T08:01:02Z</time>
      </trkpt>
      <trkpt lat="48.27095" lon="2.62072">
        <ele>110</ele>
        <time>2009-02-01T08:01:12Z</time>
      </trkpt>
      <trkpt lat="48.27105" lon="2.62091">
        <ele>110</ele>
        <time>2009-02-01T08:01:17Z</time>
      </trkpt>
      <trkpt lat="48.2711" lon="2.62174">
        <ele>109</ele>
        <time>2009-02-01T08:01:33Z</time>
      </trkpt>
      <trkpt lat="48.27102" lon="2.62213">
        <ele>109</ele>
        <time>2009-02-01T08:01:42Z</time>
      </trkpt>
      <trkpt lat="48.27102" lon="2.62217">
        <ele>109</ele>
        <time>2009-02-01T08:01:43Z</time>
      </trkpt>
      <trkpt lat="48.271" lon="2.62225">
        <ele>108</ele>
        <time>2009-02-01T08:01:45Z</time>
      </trkpt>
      <trkpt lat="48.27096" lon="2.6223">
        <ele>108</ele>
        <time>2009-02-01T08:01:49Z</time>
      </trkpt>
      <trkpt lat="48.27081" lon="2.62208">
        <ele>109</ele>
        <time>2009-02-01T08:01:59Z</time>
      </trkpt>
      <trkpt lat="48.27073" lon="2.62177">
        <ele>109</ele>
        <time>2009-02-01T08:02:08Z</time>
      </trkpt>
      <trkpt lat="48.27067" lon="2.62167">
        <ele>109</ele>
        <time>2009-02-01T08:02:14Z</time>
      </trkpt>
      <trkpt lat="48.27046" lon="2.62133">
        <ele>108</ele>
        <time>2009-02-01T08:02:25Z</time>
      </trkpt>
      <trkpt lat="48.2704" lon="2.62123">
        <ele>108</ele>
        <time>2009-02-01T08:02:28Z</time>
      </trkpt>
      <trkpt lat="48.27028" lon="2.62124">
        <ele>108</ele>
        <time>2009-02-01T08:02:37Z</time>
      </trkpt>
      <trkpt lat="48.2702" lon="2.62127">
        <ele>108</ele>
        <time>2009-02-01T08:02:43Z</time>
      </trkpt>
      <trkpt lat="48.27009" lon="2.62133">
        <ele>109</ele>
        <time>2009-02-01T08:02:49Z</time>
      </trkpt>
      <trkpt lat="48.27003" lon="2.62167">
        <ele>109</ele>
        <time>2009-02-01T08:02:57Z</time>
      </trkpt>
      <trkpt lat="48.27002" lon="2.62176">
        <ele>109</ele>
        <time>2009-02-01T08:02:59Z</time>
      </trkpt>
      <trkpt lat="48.26996" lon="2.62188">
        <ele>109</ele>
        <time>2009-02-01T08:03:06Z</time>
      </trkpt>
      <trkpt lat="48.2699" lon="2.62205">
        <ele>109</ele>
        <time>2009-02-01T08:03:14Z</time>
      </trkpt>
      <trkpt lat="48.26991" lon="2.62216">
        <ele>109</ele>
        <time>2009-02-01T08:03:19Z</time>
      </trkpt>
      <trkpt lat="48.26998" lon="2.62238">
        <ele>109</ele>
        <time>2009-02-01T08:03:28Z</time>
      </trkpt>
      <trkpt lat="48.26999" lon="2.62241">
        <ele>109</ele>
        <time>2009-02-01T08:03:29Z</time>
      </trkpt>
      <trkpt lat="48.26998" lon="2.62251">
        <ele>109</ele>
        <time>2009-02-01T08:03:33Z</time>
      </trkpt>
      <trkpt lat="48.27007" lon="2.62295">
        <ele>108</ele>
        <time>2009-02-01T08:03:46Z</time>
      </trkpt>
      <trkpt lat="48.27009" lon="2.62298">
        <ele>108</ele>
        <time>2009-02-01T08:03:47Z</time>
      </trkpt>
      <trkpt lat="48.2701" lon="2.62319">
        <ele>108</ele>
        <time>2009-02-01T08:03:55Z</time>
      </trkpt>
      <trkpt lat="48.27004" lon="2.62335">
        <ele>108</ele>
        <time>2009-02-01T08:04:01Z</time>
      </trkpt>
      <trkpt lat="48.26988" lon="2.62355">
        <ele>107</ele>
        <time>2009-02-01T08:04:10Z</time>
      </trkpt>
      <trkpt lat="48.26991" lon="2.62362">
        <ele>107</ele>
        <time>2009-02-01T08:04:14Z</time>
      </trkpt>
      <trkpt lat="48.27028" lon="2.62357">
        <ele>108</ele>
        <time>2009-02-01T08:04:27Z</time>
      </trkpt>
      <trkpt lat="48.27077" lon="2.62347">
        <ele>109</ele>
        <time>2009-02-01T08:04:39Z</time>
      </trkpt>
      <trkpt lat="48.27091" lon="2.62339">
        <ele>108</ele>
        <time>2009-02-01T08:04:43Z</time>
      </trkpt>
      <trkpt lat="48.27095" lon="2.62311">
        <ele>108</ele>
        <time>2009-02-01T08:04:49Z</time>
      </trkpt>
      <trkpt lat="48.27115" lon="2.62302">
        <ele>106</ele>
        <time>2009-02-01T08:04:57Z</time>
      </trkpt>
      <trkpt lat="48.27123" lon="2.62305">
        <ele>104</ele>
        <time>2009-02-01T08:04:59Z</time>
      </trkpt>
      <trkpt lat="48.27137" lon="2.62311">
        <ele>101</ele>
        <time>2009-02-01T08:05:02Z</time>
      </trkpt>
      <trkpt lat="48.27166" lon="2.62354">
        <ele>94</ele>
        <time>2009-02-01T08:05:09Z</time>
      </trkpt>
      <trkpt lat="48.27166" lon="2.62405">
        <ele>90</ele>
        <time>2009-02-01T08:05:14Z</time>
      </trkpt>
      <trkpt lat="48.27166" lon="2.62428">
        <ele>89</ele>
        <time>2009-02-01T08:05:16Z</time>
      </trkpt>
      <trkpt lat="48.27166" lon="2.62464">
        <ele>86</ele>
        <time>2009-02-01T08:05:20Z</time>
      </trkpt>
      <trkpt lat="48.2717" lon="2.62493">
        <ele>85</ele>
        <time>2009-02-01T08:05:25Z</time>
      </trkpt>
      <trkpt lat="48.2718" lon="2.62518">
        <ele>85</ele>
        <time>2009-02-01T08:05:30Z</time>
      </trkpt>
      <trkpt lat="48.27177" lon="2.62566">
        <ele>87</ele>
        <time>2009-02-01T08:05:38Z</time>
      </trkpt>
      <trkpt lat="48.27177" lon="2.62582">
        <ele>87</ele>
        <time>2009-02-01T08:05:41Z</time>
      </trkpt>
      <trkpt lat="48.27183" lon="2.62598">
        <ele>87</ele>
        <time>2009-02-01T08:05:46Z</time>
      </trkpt>
      <trkpt lat="48.27186" lon="2.62624">
        <ele>86</ele>
        <time>2009-02-01T08:05:51Z</time>
      </trkpt>
      <trkpt lat="48.27192" lon="2.62653">
        <ele>86</ele>
        <time>2009-02-01T08:05:56Z</time>
      </trkpt>
      <trkpt lat="48.27191" lon="2.6271">
        <ele>86</ele>
        <time>2009-02-01T08:06:06Z</time>
      </trkpt>
      <trkpt lat="48.27182" lon="2.62731">
        <ele>86</ele>
        <time>2009-02-01T08:06:10Z</time>
      </trkpt>
      <trkpt lat="48.27172" lon="2.62746">
        <ele>85</ele>
        <time>2009-02-01T08:06:15Z</time>
      </trkpt>
      <trkpt lat="48.27166" lon="2.62752">
        <ele>86</ele>
        <time>2009-02-01T08:06:18Z</time>
      </trkpt>
      <trkpt lat="48.27144" lon="2.62759">
        <ele>88</ele>
        <time>2009-02-01T08:06:27Z</time>
      </trkpt>
      <trkpt lat="48.27142" lon="2.62758">
        <ele>88</ele>
        <time>2009-02-01T08:06:29Z</time>
      </trkpt>
      <trkpt lat="48.27129" lon="2.62764">
        <ele>89</ele>
        <time>2009-02-01T08:06:36Z</time>
      </trkpt>
      <trkpt lat="48.2712" lon="2.62773">
        <ele>89</ele>
        <time>2009-02-01T08:06:42Z</time>
      </trkpt>
      <trkpt lat="48.27106" lon="2.62774">
        <ele>89</ele>
        <time>2009-02-01T08:06:47Z</time>
      </trkpt>
      <trkpt lat="48.27108" lon="2.62799">
        <ele>87</ele>
        <time>2009-02-01T08:06:55Z</time>
      </trkpt>
      <trkpt lat="48.27102" lon="2.6281">
        <ele>86</ele>
        <time>2009-02-01T08:06:59Z</time>
      </trkpt>
      <trkpt lat="48.2706" lon="2.62833">
        <ele>85</ele>
        <time>2009-02-01T08:07:11Z</time>
      </trkpt>
      <trkpt lat="48.27031" lon="2.62835">
        <ele>87</ele>
        <time>2009-02-01T08:07:17Z</time>
      </trkpt>
      <trkpt lat="48.26972" lon="2.62788">
        <ele>93</ele>
        <time>2009-02-01T08:07:30Z</time>
      </trkpt>
      <trkpt lat="48.26969" lon="2.62784">
        <ele>93</ele>
        <time>2009-02-01T08:07:31Z</time>
      </trkpt>
      <trkpt lat="48.26956" lon="2.62775">
        <ele>94</ele>
        <time>2009-02-01T08:07:38Z</time>
      </trkpt>
      <trkpt lat="48.2693" lon="2.62725">
        <ele>95</ele>
        <time>2009-02-01T08:07:50Z</time>
      </trkpt>
      <trkpt lat="48.26896" lon="2.62742">
        <ele>97</ele>
        <time>2009-02-01T08:08:00Z</time>
      </trkpt>
      <trkpt lat="48.26847" lon="2.62796">
        <ele>97</ele>
        <time>2009-02-01T08:08:17Z</time>
      </trkpt>
      <trkpt lat="48.26845" lon="2.62798">
        <ele>97</ele>
        <time>2009-02-01T08:08:18Z</time>
      </trkpt>
      <trkpt lat="48.2683" lon="2.62822">
        <ele>99</ele>
        <time>2009-02-01T08:08:28Z</time>
      </trkpt>
      <trkpt lat="48.26816" lon="2.6282">
        <ele>100</ele>
        <time>2009-02-01T08:08:34Z</time>
      </trkpt>
      <trkpt lat="48.26811" lon="2.62828">
        <ele>101</ele>
        <time>2009-02-01T08:08:39Z</time>
      </trkpt>
      <trkpt lat="48.26802" lon="2.62855">
        <ele>102</ele>
        <time>2009-02-01T08:08:49Z</time>
      </trkpt>
      <trkpt lat="48.26813" lon="2.62887">
        <ele>103</ele>
        <time>2009-02-01T08:09:02Z</time>
      </trkpt>
      <trkpt lat="48.26824" lon="2.62899">
        <ele>103</ele>
        <time>2009-02-01T08:09:07Z</time>
      </trkpt>
      <trkpt lat="48.26828" lon="2.62906">
        <ele>104</ele>
        <time>2009-02-01T08:09:10Z</time>
      </trkpt>
      <trkpt lat="48.26823" lon="2.62909">
        <ele>103</ele>
        <time>2009-02-01T08:09:16Z</time>
      </trkpt>
      <trkpt lat="48.26804" lon="2.62896">
        <ele>102</ele>
        <time>2009-02-01T08:09:25Z</time>
      </trkpt>
      <trkpt lat="48.26768" lon="2.62874">
        <ele>102</ele>
        <time>2009-02-01T08:09:34Z</time>
      </trkpt>
      <trkpt lat="48.26756" lon="2.62869">
        <ele>103</ele>
        <time>2009-02-01T08:09:36Z</time>
      </trkpt>
      <trkpt lat="48.26728" lon="2.6287">
        <ele>103</ele>
        <time>2009-02-01T08:09:45Z</time>
      </trkpt>
      <trkpt lat="48.26724" lon="2.62887">
        <ele>103</ele>
        <time>2009-02-01T08:09:49Z</time>
      </trkpt>
      <trkpt lat="48.26724" lon="2.62917">
        <ele>102</ele>
        <time>2009-02-01T08:09:52Z</time>
      </trkpt>
      <trkpt lat="48.2672" lon="2.6296">
        <ele>105</ele>
        <time>2009-02-01T08:10:00Z</time>
      </trkpt>
      <trkpt lat="48.26722" lon="2.62982">
        <ele>107</ele>
        <time>2009-02-01T08:10:03Z</time>
      </trkpt>
      <trkpt lat="48.26734" lon="2.62963">
        <ele>104</ele>
        <time>2009-02-01T08:10:08Z</time>
      </trkpt>
      <trkpt lat="48.26733" lon="2.62957">
        <ele>104</ele>
        <time>2009-02-01T08:10:09Z</time>
      </trkpt>
      <trkpt lat="48.26732" lon="2.62929">
        <ele>102</ele>
        <time>2009-02-01T08:10:14Z</time>
      </trkpt>
      <trkpt lat="48.26729" lon="2.62891">
        <ele>102</ele>
        <time>2009-02-01T08:10:18Z</time>
      </trkpt>
      <trkpt lat="48.2673" lon="2.62875">
        <ele>103</ele>
        <time>2009-02-01T08:10:21Z</time>
      </trkpt>
      <trkpt lat="48.26753" lon="2.6289">
        <ele>101</ele>
        <time>2009-02-01T08:10:27Z</time>
      </trkpt>
      <trkpt lat="48.26763" lon="2.62905">
        <ele>101</ele>
        <time>2009-02-01T08:10:29Z</time>
      </trkpt>
      <trkpt lat="48.26801" lon="2.62977">
        <ele>99</ele>
        <time>2009-02-01T08:10:43Z</time>
      </trkpt>
      <trkpt lat="48.26834" lon="2.6301">
        <ele>101</ele>
        <time>2009-02-01T08:10:55Z</time>
      </trkpt>
      <trkpt lat="48.26847" lon="2.62993">
        <ele>102</ele>
        <time>2009-02-01T08:11:02Z</time>
      </trkpt>
      <trkpt lat="48.26838" lon="2.62975">
        <ele>102</ele>
        <time>2009-02-01T08:11:07Z</time>
      </trkpt>
      <trkpt lat="48.26795" lon="2.62944">
        <ele>100</ele>
        <time>2009-02-01T08:11:21Z</time>
      </trkpt>
      <trkpt lat="48.26762" lon="2.62892">
        <ele>101</ele>
        <time>2009-02-01T08:11:35Z</time>
      </trkpt>
      <trkpt lat="48.26755" lon="2.62884">
        <ele>102</ele>
        <time>2009-02-01T08:11:37Z</time>
      </trkpt>
      <trkpt lat="48.26765" lon="2.62878">
        <ele>102</ele>
        <time>2009-02-01T08:11:43Z</time>
      </trkpt>
      <trkpt lat="48.26779" lon="2.62893">
        <ele>101</ele>
        <time>2009-02-01T08:11:51Z</time>
      </trkpt>
      <trkpt lat="48.26789" lon="2.62903">
        <ele>101</ele>
        <time>2009-02-01T08:11:58Z</time>
      </trkpt>
      <trkpt lat="48.26811" lon="2.62921">
        <ele>102</ele>
        <time>2009-02-01T08:12:06Z</time>
      </trkpt>
      <trkpt lat="48.26841" lon="2.62944">
        <ele>103</ele>
        <time>2009-02-01T08:12:14Z</time>
      </trkpt>
      <trkpt lat="48.26857" lon="2.62932">
        <ele>105</ele>
        <time>2009-02-01T08:12:22Z</time>
      </trkpt>
      <trkpt lat="48.26863" lon="2.62934">
        <ele>105</ele>
        <time>2009-02-01T08:12:24Z</time>
      </trkpt>
      <trkpt lat="48.2689" lon="2.62983">
        <ele>103</ele>
        <time>2009-02-01T08:12:37Z</time>
      </trkpt>
      <trkpt lat="48.26891" lon="2.63019">
        <ele>101</ele>
        <time>2009-02-01T08:12:44Z</time>
      </trkpt>
      <trkpt lat="48.26874" lon="2.63013">
        <ele>102</ele>
        <time>2009-02-01T08:12:50Z</time>
      </trkpt>
      <trkpt lat="48.26861" lon="2.63027">
        <ele>101</ele>
        <time>2009-02-01T08:12:57Z</time>
      </trkpt>
      <trkpt lat="48.26869" lon="2.63052">
        <ele>101</ele>
        <time>2009-02-01T08:13:02Z</time>
      </trkpt>
      <trkpt lat="48.26881" lon="2.63055">
        <ele>100</ele>
        <time>2009-02-01T08:13:06Z</time>
      </trkpt>
      <trkpt lat="48.26895" lon="2.6305">
        <ele>99</ele>
        <time>2009-02-01T08:13:12Z</time>
      </trkpt>
      <trkpt lat="48.26895" lon="2.63058">
        <ele>99</ele>
        <time>2009-02-01T08:13:13Z</time>
      </trkpt>
      <trkpt lat="48.26897" lon="2.63114">
        <ele>96</ele>
        <time>2009-02-01T08:13:20Z</time>
      </trkpt>
      <trkpt lat="48.26901" lon="2.63133">
        <ele>95</ele>
        <time>2009-02-01T08:13:22Z</time>
      </trkpt>
      <trkpt lat="48.26917" lon="2.63153">
        <ele>93</ele>
        <time>2009-02-01T08:13:28Z</time>
      </trkpt>
      <trkpt lat="48.26912" lon="2.63169">
        <ele>94</ele>
        <time>2009-02-01T08:13:32Z</time>
      </trkpt>
      <trkpt lat="48.26905" lon="2.63217">
        <ele>95</ele>
        <time>2009-02-01T08:13:41Z</time>
      </trkpt>
      <trkpt lat="48.26901" lon="2.63226">
        <ele>95</ele>
        <time>2009-02-01T08:13:43Z</time>
      </trkpt>
      <trkpt lat="48.26891" lon="2.63236">
        <ele>96</ele>
        <time>2009-02-01T08:13:46Z</time>
      </trkpt>
      <trkpt lat="48.26862" lon="2.63222">
        <ele>100</ele>
        <time>2009-02-01T08:13:55Z</time>
      </trkpt>
      <trkpt lat="48.26851" lon="2.63244">
        <ele>102</ele>
        <time>2009-02-01T08:14:01Z</time>
      </trkpt>
      <trkpt lat="48.26859" lon="2.63262">
        <ele>101</ele>
        <time>2009-02-01T08:14:08Z</time>
      </trkpt>
      <trkpt lat="48.2686" lon="2.63278">
        <ele>102</ele>
        <time>2009-02-01T08:14:13Z</time>
      </trkpt>
      <trkpt lat="48.26858" lon="2.63305">
        <ele>102</ele>
        <time>2009-02-01T08:14:21Z</time>
      </trkpt>
      <trkpt lat="48.26862" lon="2.63324">
        <ele>101</ele>
        <time>2009-02-01T08:14:28Z</time>
      </trkpt>
      <trkpt lat="48.26849" lon="2.63341">
        <ele>103</ele>
        <time>2009-02-01T08:14:41Z</time>
      </trkpt>
      <trkpt lat="48.26847" lon="2.63342">
        <ele>103</ele>
        <time>2009-02-01T08:14:43Z</time>
      </trkpt>
      <trkpt lat="48.26836" lon="2.63358">
        <ele>105</ele>
        <time>2009-02-01T08:14:51Z</time>
      </trkpt>
      <trkpt lat="48.26833" lon="2.63374">
        <ele>105</ele>
        <time>2009-02-01T08:14:54Z</time>
      </trkpt>
      <trkpt lat="48.26848" lon="2.63384">
        <ele>103</ele>
        <time>2009-02-01T08:14:58Z</time>
      </trkpt>
      <trkpt lat="48.26867" lon="2.63392">
        <ele>99</ele>
        <time>2009-02-01T08:15:01Z</time>
      </trkpt>
      <trkpt lat="48.2689" lon="2.63403">
        <ele>95</ele>
        <time>2009-02-01T08:15:07Z</time>
      </trkpt>
      <trkpt lat="48.26898" lon="2.63423">
        <ele>93</ele>
        <time>2009-02-01T08:15:11Z</time>
      </trkpt>
      <trkpt lat="48.26902" lon="2.63427">
        <ele>92</ele>
        <time>2009-02-01T08:15:12Z</time>
      </trkpt>
      <trkpt lat="48.26923" lon="2.63432">
        <ele>89</ele>
        <time>2009-02-01T08:15:17Z</time>
      </trkpt>
      <trkpt lat="48.26935" lon="2.6343">
        <ele>88</ele>
        <time>2009-02-01T08:15:19Z</time>
      </trkpt>
      <trkpt lat="48.26973" lon="2.63457">
        <ele>83</ele>
        <time>2009-02-01T08:15:26Z</time>
      </trkpt>
      <trkpt lat="48.27002" lon="2.63498">
        <ele>79</ele>
        <time>2009-02-01T08:15:32Z</time>
      </trkpt>
      <trkpt lat="48.27018" lon="2.63526">
        <ele>79</ele>
        <time>2009-02-01T08:15:36Z</time>
      </trkpt>
      <trkpt lat="48.27031" lon="2.63563">
        <ele>80</ele>
        <time>2009-02-01T08:15:41Z</time>
      </trkpt>
      <trkpt lat="48.27035" lon="2.63577">
        <ele>80</ele>
        <time>2009-02-01T08:15:43Z</time>
      </trkpt>
      <trkpt lat="48.27042" lon="2.63604">
        <ele>79</ele>
        <time>2009-02-01T08:15:47Z</time>
      </trkpt>
      <trkpt lat="48.27061" lon="2.63634">
        <ele>79</ele>
        <time>2009-02-01T08:15:55Z</time>
      </trkpt>
      <trkpt lat="48.27062" lon="2.63636">
        <ele>79</ele>
        <time>2009-02-01T08:15:56Z</time>
      </trkpt>
      <trkpt lat="48.2706" lon="2.63645">
        <ele>79</ele>
        <time>2009-02-01T08:16:02Z</time>
      </trkpt>
      <trkpt lat="48.27057" lon="2.63669">
        <ele>79</ele>
        <time>2009-02-01T08:16:12Z</time>
      </trkpt>
      <trkpt lat="48.27052" lon="2.63739">
        <ele>80</ele>
        <time>2009-02-01T08:16:25Z</time>
      </trkpt>
      <trkpt lat="48.27046" lon="2.63806">
        <ele>79</ele>
        <time>2009-02-01T08:16:36Z</time>
      </trkpt>
      <trkpt lat="48.27047" lon="2.63867">
        <ele>78</ele>
        <time>2009-02-01T08:16:45Z</time>
      </trkpt>
      <trkpt lat="48.27028" lon="2.63882">
        <ele>78</ele>
        <time>2009-02-01T08:16:52Z</time>
      </trkpt>
      <trkpt lat="48.26996" lon="2.63874">
        <ele>79</ele>
        <time>2009-02-01T08:17:02Z</time>
      </trkpt>
      <trkpt lat="48.26988" lon="2.63878">
        <ele>80</ele>
        <time>2009-02-01T08:17:05Z</time>
      </trkpt>
      <trkpt lat="48.26957" lon="2.6392">
        <ele>83</ele>
        <time>2009-02-01T08:17:18Z</time>
      </trkpt>
      <trkpt lat="48.26925" lon="2.63922">
        <ele>85</ele>
        <time>2009-02-01T08:17:29Z</time>
      </trkpt>
      <trkpt lat="48.269" lon="2.63921">
        <ele>87</ele>
        <time>2009-02-01T08:17:39Z</time>
      </trkpt>
      <trkpt lat="48.26874" lon="2.63908">
        <ele>90</ele>
        <time>2009-02-01T08:17:51Z</time>
      </trkpt>
      <trkpt lat="48.26853" lon="2.63896">
        <ele>93</ele>
        <time>2009-02-01T08:18:03Z</time>
      </trkpt>
      <trkpt lat="48.2685" lon="2.63897">
        <ele>94</ele>
        <time>2009-02-01T08:18:06Z</time>
      </trkpt>
      <trkpt lat="48.26845" lon="2.639">
        <ele>95</ele>
        <time>2009-02-01T08:18:10Z</time>
      </trkpt>
      <trkpt lat="48.26835" lon="2.63895">
        <ele>97</ele>
        <time>2009-02-01T08:18:16Z</time>
      </trkpt>
      <trkpt lat="48.26828" lon="2.63884">
        <ele>99</ele>
        <time>2009-02-01T08:18:25Z</time>
      </trkpt>
      <trkpt lat="48.26824" lon="2.63875">
        <ele>100</ele>
        <time>2009-02-01T08:18:34Z</time>
      </trkpt>
      <trkpt lat="48.2682" lon="2.63868">
        <ele>101</ele>
        <time>2009-02-01T08:18:47Z</time>
      </trkpt>
      <trkpt lat="48.26811" lon="2.63855">
        <ele>103</ele>
        <time>2009-02-01T08:19:02Z</time>
      </trkpt>
      <trkpt lat="48.26811" lon="2.63855">
        <ele>104</ele>
        <time>2009-02-01T08:19:03Z</time>
      </trkpt>
      <trkpt lat="48.26809" lon="2.63851">
        <ele>104</ele>
        <time>2009-02-01T08:19:09Z</time>
      </trkpt>
      <trkpt lat="48.26795" lon="2.63826">
        <ele>106</ele>
        <time>2009-02-01T08:19:27Z</time>
      </trkpt>
      <trkpt lat="48.26788" lon="2.63819">
        <ele>106</ele>
        <time>2009-02-01T08:19:33Z</time>
      </trkpt>
      <trkpt lat="48.2678" lon="2.63818">
        <ele>107</ele>
        <time>2009-02-01T08:19:37Z</time>
      </trkpt>
      <trkpt lat="48.26765" lon="2.6382">
        <ele>107</ele>
        <time>2009-02-01T08:19:48Z</time>
      </trkpt>
      <trkpt lat="48.26748" lon="2.63842">
        <ele>105</ele>
        <time>2009-02-01T08:20:02Z</time>
      </trkpt>
      <trkpt lat="48.26747" lon="2.63845">
        <ele>105</ele>
        <time>2009-02-01T08:20:05Z</time>
      </trkpt>
      <trkpt lat="48.26748" lon="2.63877">
        <ele>105</ele>
        <time>2009-02-01T08:20:45Z</time>
      </trkpt>
      <trkpt lat="48.26746" lon="2.63964">
        <ele>106</ele>
        <time>2009-02-01T08:20:59Z</time>
      </trkpt>
      <trkpt lat="48.26744" lon="2.64015">
        <ele>108</ele>
        <time>2009-02-01T08:21:08Z</time>
      </trkpt>
      <trkpt lat="48.26765" lon="2.64029">
        <ele>107</ele>
        <time>2009-02-01T08:21:17Z</time>
      </trkpt>
      <trkpt lat="48.26776" lon="2.64019">
        <ele>106</ele>
        <time>2009-02-01T08:21:22Z</time>
      </trkpt>
      <trkpt lat="48.26776" lon="2.64014">
        <ele>106</ele>
        <time>2009-02-01T08:21:24Z</time>
      </trkpt>
      <trkpt lat="48.26776" lon="2.64013">
        <ele>106</ele>
        <time>2009-02-01T08:21:26Z</time>
      </trkpt>
      <trkpt lat="48.26793" lon="2.64014">
        <ele>103</ele>
        <time>2009-02-01T08:21:35Z</time>
      </trkpt>
      <trkpt lat="48.26796" lon="2.64012">
        <ele>102</ele>
        <time>2009-02-01T08:21:36Z</time>
      </trkpt>
      <trkpt lat="48.268" lon="2.64008">
        <ele>102</ele>
        <time>2009-02-01T08:21:38Z</time>
      </trkpt>
      <trkpt lat="48.26802" lon="2.6401">
        <ele>101</ele>
        <time>2009-02-01T08:21:40Z</time>
      </trkpt>
      <trkpt lat="48.26809" lon="2.64008">
        <ele>100</ele>
        <time>2009-02-01T08:21:45Z</time>
      </trkpt>
      <trkpt lat="48.2681" lon="2.64004">
        <ele>100</ele>
        <time>2009-02-01T08:21:46Z</time>
      </trkpt>
      <trkpt lat="48.26822" lon="2.64017">
        <ele>98</ele>
        <time>2009-02-01T08:21:55Z</time>
      </trkpt>
      <trkpt lat="48.26824" lon="2.64023">
        <ele>98</ele>
        <time>2009-02-01T08:21:57Z</time>
      </trkpt>
      <trkpt lat="48.26834" lon="2.64037">
        <ele>97</ele>
        <time>2009-02-01T08:22:03Z</time>
      </trkpt>
      <trkpt lat="48.26836" lon="2.64039">
        <ele>97</ele>
        <time>2009-02-01T08:22:04Z</time>
      </trkpt>
      <trkpt lat="48.26843" lon="2.64056">
        <ele>96</ele>
        <time>2009-02-01T08:22:11Z</time>
      </trkpt>
      <trkpt lat="48.26858" lon="2.64058">
        <ele>94</ele>
        <time>2009-02-01T08:22:15Z</time>
      </trkpt>
      <trkpt lat="48.2688" lon="2.64072">
        <ele>93</ele>
        <time>2009-02-01T08:22:23Z</time>
      </trkpt>
      <trkpt lat="48.26892" lon="2.64082">
        <ele>92</ele>
        <time>2009-02-01T08:22:31Z</time>
      </trkpt>
      <trkpt lat="48.26901" lon="2.64097">
        <ele>91</ele>
        <time>2009-02-01T08:22:37Z</time>
      </trkpt>
      <trkpt lat="48.26902" lon="2.64116">
        <ele>91</ele>
        <time>2009-02-01T08:22:44Z</time>
      </trkpt>
      <trkpt lat="48.26904" lon="2.64127">
        <ele>91</ele>
        <time>2009-02-01T08:22:47Z</time>
      </trkpt>
      <trkpt lat="48.26916" lon="2.6414">
        <ele>89</ele>
        <time>2009-02-01T08:22:57Z</time>
      </trkpt>
      <trkpt lat="48.26919" lon="2.64136">
        <ele>88</ele>
        <time>2009-02-01T08:22:59Z</time>
      </trkpt>
      <trkpt lat="48.26928" lon="2.64142">
        <ele>86</ele>
        <time>2009-02-01T08:23:03Z</time>
      </trkpt>
      <trkpt lat="48.26936" lon="2.64156">
        <ele>84</ele>
        <time>2009-02-01T08:23:09Z</time>
      </trkpt>
      <trkpt lat="48.26945" lon="2.64167">
        <ele>81</ele>
        <time>2009-02-01T08:23:13Z</time>
      </trkpt>
      <trkpt lat="48.2696" lon="2.64195">
        <ele>78</ele>
        <time>2009-02-01T08:23:19Z</time>
      </trkpt>
      <trkpt lat="48.2696" lon="2.64199">
        <ele>78</ele>
        <time>2009-02-01T08:23:22Z</time>
      </trkpt>
      <trkpt lat="48.26952" lon="2.64224">
        <ele>78</ele>
        <time>2009-02-01T08:24:32Z</time>
      </trkpt>
      <trkpt lat="48.26927" lon="2.64278">
        <ele>82</ele>
        <time>2009-02-01T08:24:46Z</time>
      </trkpt>
      <trkpt lat="48.269" lon="2.6433">
        <ele>82</ele>
        <time>2009-02-01T08:25:00Z</time>
      </trkpt>
      <trkpt lat="48.26875" lon="2.64368">
        <ele>82</ele>
        <time>2009-02-01T08:25:13Z</time>
      </trkpt>
      <trkpt lat="48.2686" lon="2.64389">
        <ele>81</ele>
        <time>2009-02-01T08:25:19Z</time>
      </trkpt>
      <trkpt lat="48.26846" lon="2.64383">
        <ele>81</ele>
        <time>2009-02-01T08:25:25Z</time>
      </trkpt>
      <trkpt lat="48.26834" lon="2.64358">
        <ele>84</ele>
        <time>2009-02-01T08:25:35Z</time>
      </trkpt>
      <trkpt lat="48.26826" lon="2.64344">
        <ele>87</ele>
        <time>2009-02-01T08:25:42Z</time>
      </trkpt>
      <trkpt lat="48.2681" lon="2.64313">
        <ele>93</ele>
        <time>2009-02-01T08:25:59Z</time>
      </trkpt>
      <trkpt lat="48.26799" lon="2.64277">
        <ele>98</ele>
        <time>2009-02-01T08:26:13Z</time>
      </trkpt>
      <trkpt lat="48.26795" lon="2.6427">
        <ele>99</ele>
        <time>2009-02-01T08:26:16Z</time>
      </trkpt>
      <trkpt lat="48.26787" lon="2.64274">
        <ele>99</ele>
        <time>2009-02-01T08:26:21Z</time>
      </trkpt>
      <trkpt lat="48.26765" lon="2.64299">
        <ele>98</ele>
        <time>2009-02-01T08:26:34Z</time>
      </trkpt>
      <trkpt lat="48.26736" lon="2.64302">
        <ele>99</ele>
        <time>2009-02-01T08:26:45Z</time>
      </trkpt>
      <trkpt lat="48.26715" lon="2.64323">
        <ele>99</ele>
        <time>2009-02-01T08:26:55Z</time>
      </trkpt>
      <trkpt lat="48.26691" lon="2.64319">
        <ele>100</ele>
        <time>2009-02-01T08:27:06Z</time>
      </trkpt>
      <trkpt lat="48.26688" lon="2.64322">
        <ele>100</ele>
        <time>2009-02-01T08:27:08Z</time>
      </trkpt>
      <trkpt lat="48.26689" lon="2.64334">
        <ele>100</ele>
        <time>2009-02-01T08:27:13Z</time>
      </trkpt>
      <trkpt lat="48.2669" lon="2.64341">
        <ele>100</ele>
        <time>2009-02-01T08:27:16Z</time>
      </trkpt>
      <trkpt lat="48.26693" lon="2.64352">
        <ele>100</ele>
        <time>2009-02-01T08:27:20Z</time>
      </trkpt>
      <trkpt lat="48.26694" lon="2.64356">
        <ele>100</ele>
        <time>2009-02-01T08:27:22Z</time>
      </trkpt>
      <trkpt lat="48.26695" lon="2.6436">
        <ele>99</ele>
        <time>2009-02-01T08:27:25Z</time>
      </trkpt>
      <trkpt lat="48.26694" lon="2.64373">
        <ele>98</ele>
        <time>2009-02-01T08:27:32Z</time>
      </trkpt>
      <trkpt lat="48.26698" lon="2.64383">
        <ele>96</ele>
        <time>2009-02-01T08:27:39Z</time>
      </trkpt>
      <trkpt lat="48.26701" lon="2.6439">
        <ele>94</ele>
        <time>2009-02-01T08:27:44Z</time>
      </trkpt>
      <trkpt lat="48.26704" lon="2.64396">
        <ele>93</ele>
        <time>2009-02-01T08:27:49Z</time>
      </trkpt>
      <trkpt lat="48.26703" lon="2.64396">
        <ele>93</ele>
        <time>2009-02-01T08:27:50Z</time>
      </trkpt>
      <trkpt lat="48.26703" lon="2.64402">
        <ele>92</ele>
        <time>2009-02-01T08:28:16Z</time>
      </trkpt>
      <trkpt lat="48.26704" lon="2.64407">
        <ele>91</ele>
        <time>2009-02-01T08:28:21Z</time>
      </trkpt>
      <trkpt lat="48.26709" lon="2.64419">
        <ele>89</ele>
        <time>2009-02-01T08:28:29Z</time>
      </trkpt>
      <trkpt lat="48.26714" lon="2.64437">
        <ele>86</ele>
        <time>2009-02-01T08:28:36Z</time>
      </trkpt>
      <trkpt lat="48.26722" lon="2.64455">
        <ele>82</ele>
        <time>2009-02-01T08:28:40Z</time>
      </trkpt>
      <trkpt lat="48.26763" lon="2.64483">
        <ele>78</ele>
        <time>2009-02-01T08:28:54Z</time>
      </trkpt>
      <trkpt lat="48.26768" lon="2.64487">
        <ele>79</ele>
        <time>2009-02-01T08:28:58Z</time>
      </trkpt>
      <trkpt lat="48.26764" lon="2.64488">
        <ele>79</ele>
        <time>2009-02-01T08:29:21Z</time>
      </trkpt>
      <trkpt lat="48.26764" lon="2.64492">
        <ele>79</ele>
        <time>2009-02-01T08:29:26Z</time>
      </trkpt>
      <trkpt lat="48.26761" lon="2.64487">
        <ele>79</ele>
        <time>2009-02-01T08:30:01Z</time>
      </trkpt>
      <trkpt lat="48.26797" lon="2.6451">
        <ele>82</ele>
        <time>2009-02-01T08:30:15Z</time>
      </trkpt>
      <trkpt lat="48.26808" lon="2.6454">
        <ele>85</ele>
        <time>2009-02-01T08:30:23Z</time>
      </trkpt>
      <trkpt lat="48.26814" lon="2.64554">
        <ele>87</ele>
        <time>2009-02-01T08:30:28Z</time>
      </trkpt>
      <trkpt lat="48.26808" lon="2.64592">
        <ele>87</ele>
        <time>2009-02-01T08:30:38Z</time>
      </trkpt>
      <trkpt lat="48.26808" lon="2.64597">
        <ele>87</ele>
        <time>2009-02-01T08:30:41Z</time>
      </trkpt>
      <trkpt lat="48.26815" lon="2.64621">
        <ele>88</ele>
        <time>2009-02-01T08:30:48Z</time>
      </trkpt>
      <trkpt lat="48.26819" lon="2.64628">
        <ele>89</ele>
        <time>2009-02-01T08:30:50Z</time>
      </trkpt>
      <trkpt lat="48.26832" lon="2.64657">
        <ele>89</ele>
        <time>2009-02-01T08:30:59Z</time>
      </trkpt>
      <trkpt lat="48.26839" lon="2.6467">
        <ele>89</ele>
        <time>2009-02-01T08:31:03Z</time>
      </trkpt>
      <trkpt lat="48.26846" lon="2.64694">
        <ele>89</ele>
        <time>2009-02-01T08:31:09Z</time>
      </trkpt>
      <trkpt lat="48.26846" lon="2.64716">
        <ele>89</ele>
        <time>2009-02-01T08:31:13Z</time>
      </trkpt>
      <trkpt lat="48.26843" lon="2.64736">
        <ele>89</ele>
        <time>2009-02-01T08:31:16Z</time>
      </trkpt>
      <trkpt lat="48.26848" lon="2.64782">
        <ele>88</ele>
        <time>2009-02-01T08:31:24Z</time>
      </trkpt>
      <trkpt lat="48.26852" lon="2.64815">
        <ele>88</ele>
        <time>2009-02-01T08:31:31Z</time>
      </trkpt>
      <trkpt lat="48.26856" lon="2.64861">
        <ele>87</ele>
        <time>2009-02-01T08:31:44Z</time>
      </trkpt>
      <trkpt lat="48.2686" lon="2.64908">
        <ele>83</ele>
        <time>2009-02-01T08:31:56Z</time>
      </trkpt>
      <trkpt lat="48.2686" lon="2.64923">
        <ele>82</ele>
        <time>2009-02-01T08:31:59Z</time>
      </trkpt>
      <trkpt lat="48.2686" lon="2.64939">
        <ele>81</ele>
        <time>2009-02-01T08:32:01Z</time>
      </trkpt>
      <trkpt lat="48.26868" lon="2.65001">
        <ele>77</ele>
        <time>2009-02-01T08:32:07Z</time>
      </trkpt>
      <trkpt lat="48.26874" lon="2.65029">
        <ele>79</ele>
        <time>2009-02-01T08:32:10Z</time>
      </trkpt>
      <trkpt lat="48.26872" lon="2.65048">
        <ele>80</ele>
        <time>2009-02-01T08:32:13Z</time>
      </trkpt>
      <trkpt lat="48.26873" lon="2.65052">
        <ele>80</ele>
        <time>2009-02-01T08:32:14Z</time>
      </trkpt>
      <trkpt lat="48.26903" lon="2.65072">
        <ele>82</ele>
        <time>2009-02-01T08:32:22Z</time>
      </trkpt>
      <trkpt lat="48.26965" lon="2.65067">
        <ele>80</ele>
        <time>2009-02-01T08:32:35Z</time>
      </trkpt>
      <trkpt lat="48.27048" lon="2.65073">
        <ele>77</ele>
        <time>2009-02-01T08:32:52Z</time>
      </trkpt>
      <trkpt lat="48.27116" lon="2.65098">
        <ele>78</ele>
        <time>2009-02-01T08:33:06Z</time>
      </trkpt>
      <trkpt lat="48.27196" lon="2.65133">
        <ele>78</ele>
        <time>2009-02-01T08:33:24Z</time>
      </trkpt>
      <trkpt lat="48.27263" lon="2.65165">
        <ele>78</ele>
        <time>2009-02-01T08:33:40Z</time>
      </trkpt>
      <trkpt lat="48.27287" lon="2.65177">
        <ele>75</ele>
        <time>2009-02-01T08:33:46Z</time>
      </trkpt>
      <trkpt lat="48.27308" lon="2.65155">
        <ele>74</ele>
        <time>2009-02-01T08:33:53Z</time>
      </trkpt>
      <trkpt lat="48.27314" lon="2.65115">
        <ele>75</ele>
        <time>2009-02-01T08:33:58Z</time>
      </trkpt>
      <trkpt lat="48.27317" lon="2.65099">
        <ele>75</ele>
        <time>2009-02-01T08:34:00Z</time>
      </trkpt>
      <trkpt lat="48.2732" lon="2.65069">
        <ele>76</ele>
        <time>2009-02-01T08:34:04Z</time>
      </trkpt>
      <trkpt lat="48.27312" lon="2.64984">
        <ele>78</ele>
        <time>2009-02-01T08:34:15Z</time>
      </trkpt>
      <trkpt lat="48.27303" lon="2.64872">
        <ele>77</ele>
        <time>2009-02-01T08:34:29Z</time>
      </trkpt>
      <trkpt lat="48.27299" lon="2.64823">
        <ele>78</ele>
        <time>2009-02-01T08:34:35Z</time>
      </trkpt>
      <trkpt lat="48.27295" lon="2.64777">
        <ele>78</ele>
        <time>2009-02-01T08:34:41Z</time>
      </trkpt>
      <trkpt lat="48.27292" lon="2.64734">
        <ele>77</ele>
        <time>2009-02-01T08:34:46Z</time>
      </trkpt>
      <trkpt lat="48.27289" lon="2.64675">
        <ele>74</ele>
        <time>2009-02-01T08:34:53Z</time>
      </trkpt>
      <trkpt lat="48.27285" lon="2.64592">
        <ele>74</ele>
        <time>2009-02-01T08:35:03Z</time>
      </trkpt>
      <trkpt lat="48.27285" lon="2.64552">
        <ele>76</ele>
        <time>2009-02-01T08:35:08Z</time>
      </trkpt>
      <trkpt lat="48.27282" lon="2.64494">
        <ele>77</ele>
        <time>2009-02-01T08:35:15Z</time>
      </trkpt>
      <trkpt lat="48.2728" lon="2.64373">
        <ele>67</ele>
        <time>2009-02-01T08:35:30Z</time>
      </trkpt>
      <trkpt lat="48.27291" lon="2.64245">
        <ele>75</ele>
        <time>2009-02-01T08:35:46Z</time>
      </trkpt>
      <trkpt lat="48.27299" lon="2.64121">
        <ele>74</ele>
        <time>2009-02-01T08:36:01Z</time>
      </trkpt>
      <trkpt lat="48.27301" lon="2.64089">
        <ele>74</ele>
        <time>2009-02-01T08:36:05Z</time>
      </trkpt>
      <trkpt lat="48.27308" lon="2.64039">
        <ele>73</ele>
        <time>2009-02-01T08:36:11Z</time>
      </trkpt>
      <trkpt lat="48.27322" lon="2.63919">
        <ele>72</ele>
        <time>2009-02-01T08:36:26Z</time>
      </trkpt>
      <trkpt lat="48.27323" lon="2.63912">
        <ele>72</ele>
        <time>2009-02-01T08:36:27Z</time>
      </trkpt>
      <trkpt lat="48.27338" lon="2.63839">
        <ele>69</ele>
        <time>2009-02-01T08:36:37Z</time>
      </trkpt>
      <trkpt lat="48.27359" lon="2.63817">
        <ele>69</ele>
        <time>2009-02-01T08:36:43Z</time>
      </trkpt>
      <trkpt lat="48.27461" lon="2.63848">
        <ele>71</ele>
        <time>2009-02-01T08:37:02Z</time>
      </trkpt>
      <trkpt lat="48.27549" lon="2.63891">
        <ele>68</ele>
        <time>2009-02-01T08:37:19Z</time>
      </trkpt>
      <trkpt lat="48.27593" lon="2.63908">
        <ele>65</ele>
        <time>2009-02-01T08:37:30Z</time>
      </trkpt>
      <trkpt lat="48.27606" lon="2.6391">
        <ele>65</ele>
        <time>2009-02-01T08:37:33Z</time>
      </trkpt>
      <trkpt lat="48.27624" lon="2.63918">
        <ele>65</ele>
        <time>2009-02-01T08:37:37Z</time>
      </trkpt>
      <trkpt lat="48.27651" lon="2.63927">
        <ele>65</ele>
        <time>2009-02-01T08:37:43Z</time>
      </trkpt>
      <trkpt lat="48.27705" lon="2.63944">
        <ele>71</ele>
        <time>2009-02-01T08:37:55Z</time>
      </trkpt>
      <trkpt lat="48.27726" lon="2.63951">
        <ele>73</ele>
        <time>2009-02-01T08:38:00Z</time>
      </trkpt>
      <trkpt lat="48.27764" lon="2.63958">
        <ele>73</ele>
        <time>2009-02-01T08:38:08Z</time>
      </trkpt>
      <trkpt lat="48.27793" lon="2.63964">
        <ele>74</ele>
        <time>2009-02-01T08:38:14Z</time>
      </trkpt>
      <trkpt lat="48.27802" lon="2.63967">
        <ele>74</ele>
        <time>2009-02-01T08:38:16Z</time>
      </trkpt>
      <trkpt lat="48.27823" lon="2.6397">
        <ele>74</ele>
        <time>2009-02-01T08:38:20Z</time>
      </trkpt>
      <trkpt lat="48.27895" lon="2.63989">
        <ele>76</ele>
        <time>2009-02-01T08:38:35Z</time>
      </trkpt>
      <trkpt lat="48.27904" lon="2.63992">
        <ele>77</ele>
        <time>2009-02-01T08:38:37Z</time>
      </trkpt>
      <trkpt lat="48.27917" lon="2.64002">
        <ele>78</ele>
        <time>2009-02-01T08:38:40Z</time>
      </trkpt>
      <trkpt lat="48.27934" lon="2.64016">
        <ele>78</ele>
        <time>2009-02-01T08:38:44Z</time>
      </trkpt>
      <trkpt lat="48.27974" lon="2.6405">
        <ele>79</ele>
        <time>2009-02-01T08:38:54Z</time>
      </trkpt>
      <trkpt lat="48.28028" lon="2.64094">
        <ele>73</ele>
        <time>2009-02-01T08:39:06Z</time>
      </trkpt>
      <trkpt lat="48.28067" lon="2.64148">
        <ele>74</ele>
        <time>2009-02-01T08:39:17Z</time>
      </trkpt>
      <trkpt lat="48.28078" lon="2.64158">
        <ele>75</ele>
        <time>2009-02-01T08:39:20Z</time>
      </trkpt>
      <trkpt lat="48.28091" lon="2.64148">
        <ele>75</ele>
        <time>2009-02-01T08:39:24Z</time>
      </trkpt>
      <trkpt lat="48.28127" lon="2.64088">
        <ele>76</ele>
        <time>2009-02-01T08:39:37Z</time>
      </trkpt>
      <trkpt lat="48.28155" lon="2.64084">
        <ele>76</ele>
        <time>2009-02-01T08:39:45Z</time>
      </trkpt>
      <trkpt lat="48.28169" lon="2.64097">
        <ele>76</ele>
        <time>2009-02-01T08:39:49Z</time>
      </trkpt>
      <trkpt lat="48.28179" lon="2.64107">
        <ele>75</ele>
        <time>2009-02-01T08:39:52Z</time>
      </trkpt>
      <trkpt lat="48.28228" lon="2.64149">
        <ele>76</ele>
        <time>2009-02-01T08:40:05Z</time>
      </trkpt>
      <trkpt lat="48.28264" lon="2.64177">
        <ele>78</ele>
        <time>2009-02-01T08:40:15Z</time>
      </trkpt>
      <trkpt lat="48.28302" lon="2.64204">
        <ele>78</ele>
        <time>2009-02-01T08:40:26Z</time>
      </trkpt>
      <trkpt lat="48.28337" lon="2.64231">
        <ele>77</ele>
        <time>2009-02-01T08:40:37Z</time>
      </trkpt>
      <trkpt lat="48.28368" lon="2.64263">
        <ele>79</ele>
        <time>2009-02-01T08:40:47Z</time>
      </trkpt>
      <trkpt lat="48.28405" lon="2.64308">
        <ele>78</ele>
        <time>2009-02-01T08:40:59Z</time>
      </trkpt>
      <trkpt lat="48.28411" lon="2.64318">
        <ele>79</ele>
        <time>2009-02-01T08:41:01Z</time>
      </trkpt>
      <trkpt lat="48.28437" lon="2.64389">
        <ele>80</ele>
        <time>2009-02-01T08:41:14Z</time>
      </trkpt>
      <trkpt lat="48.2844" lon="2.64407">
        <ele>81</ele>
        <time>2009-02-01T08:41:17Z</time>
      </trkpt>
      <trkpt lat="48.28445" lon="2.64433">
        <ele>80</ele>
        <time>2009-02-01T08:41:21Z</time>
      </trkpt>
      <trkpt lat="48.28459" lon="2.64476">
        <ele>81</ele>
        <time>2009-02-01T08:41:28Z</time>
      </trkpt>
      <trkpt lat="48.28483" lon="2.64509">
        <ele>82</ele>
        <time>2009-02-01T08:41:35Z</time>
      </trkpt>
      <trkpt lat="48.2853" lon="2.64568">
        <ele>83</ele>
        <time>2009-02-01T08:41:49Z</time>
      </trkpt>
      <trkpt lat="48.2856" lon="2.64609">
        <ele>83</ele>
        <time>2009-02-01T08:41:59Z</time>
      </trkpt>
      <trkpt lat="48.28564" lon="2.64614">
        <ele>83</ele>
        <time>2009-02-01T08:42:00Z</time>
      </trkpt>
      <trkpt lat="48.28606" lon="2.64669">
        <ele>83</ele>
        <time>2009-02-01T08:42:12Z</time>
      </trkpt>
      <trkpt lat="48.28645" lon="2.64721">
        <ele>82</ele>
        <time>2009-02-01T08:42:25Z</time>
      </trkpt>
      <trkpt lat="48.28676" lon="2.64761">
        <ele>83</ele>
        <time>2009-02-01T08:42:36Z</time>
      </trkpt>
      <trkpt lat="48.28678" lon="2.64764">
        <ele>83</ele>
        <time>2009-02-01T08:42:37Z</time>
      </trkpt>
      <trkpt lat="48.28714" lon="2.6481">
        <ele>83</ele>
        <time>2009-02-01T08:42:48Z</time>
      </trkpt>
      <trkpt lat="48.28752" lon="2.64856">
        <ele>84</ele>
        <time>2009-02-01T08:42:59Z</time>
      </trkpt>
      <trkpt lat="48.28807" lon="2.64928">
        <ele>86</ele>
        <time>2009-02-01T08:43:15Z</time>
      </trkpt>
      <trkpt lat="48.28848" lon="2.64985">
        <ele>87</ele>
        <time>2009-02-01T08:43:29Z</time>
      </trkpt>
      <trkpt lat="48.28883" lon="2.6503">
        <ele>86</ele>
        <time>2009-02-01T08:43:40Z</time>
      </trkpt>
      <trkpt lat="48.28926" lon="2.65086">
        <ele>90</ele>
        <time>2009-02-01T08:43:54Z</time>
      </trkpt>
      <trkpt lat="48.28967" lon="2.65141">
        <ele>89</ele>
        <time>2009-02-01T08:44:08Z</time>
      </trkpt>
      <trkpt lat="48.29013" lon="2.65199">
        <ele>90</ele>
        <time>2009-02-01T08:44:22Z</time>
      </trkpt>
      <trkpt lat="48.2906" lon="2.65261">
        <ele>90</ele>
        <time>2009-02-01T08:44:35Z</time>
      </trkpt>
      <trkpt lat="48.29097" lon="2.65315">
        <ele>90</ele>
        <time>2009-02-01T08:44:46Z</time>
      </trkpt>
      <trkpt lat="48.29112" lon="2.65335">
        <ele>91</ele>
        <time>2009-02-01T08:44:50Z</time>
      </trkpt>
      <trkpt lat="48.29132" lon="2.65361">
        <ele>91</ele>
        <time>2009-02-01T08:44:55Z</time>
      </trkpt>
      <trkpt lat="48.29162" lon="2.65402">
        <ele>90</ele>
        <time>2009-02-01T08:45:03Z</time>
      </trkpt>
      <trkpt lat="48.29207" lon="2.65465">
        <ele>89</ele>
        <time>2009-02-01T08:45:15Z</time>
      </trkpt>
      <trkpt lat="48.29211" lon="2.6547">
        <ele>89</ele>
        <time>2009-02-01T08:45:16Z</time>
      </trkpt>
      <trkpt lat="48.29262" lon="2.6554">
        <ele>87</ele>
        <time>2009-02-01T08:45:29Z</time>
      </trkpt>
      <trkpt lat="48.29309" lon="2.65608">
        <ele>87</ele>
        <time>2009-02-01T08:45:41Z</time>
      </trkpt>
      <trkpt lat="48.29343" lon="2.65651">
        <ele>84</ele>
        <time>2009-02-01T08:45:49Z</time>
      </trkpt>
      <trkpt lat="48.2939" lon="2.65716">
        <ele>83</ele>
        <time>2009-02-01T08:46:01Z</time>
      </trkpt>
      <trkpt lat="48.2945" lon="2.65799">
        <ele>83</ele>
        <time>2009-02-01T08:46:17Z</time>
      </trkpt>
      <trkpt lat="48.29472" lon="2.65828">
        <ele>85</ele>
        <time>2009-02-01T08:46:23Z</time>
      </trkpt>
      <trkpt lat="48.29517" lon="2.6589">
        <ele>86</ele>
        <time>2009-02-01T08:46:36Z</time>
      </trkpt>
      <trkpt lat="48.29525" lon="2.65899">
        <ele>86</ele>
        <time>2009-02-01T08:46:38Z</time>
      </trkpt>
      <trkpt lat="48.29538" lon="2.65916">
        <ele>86</ele>
        <time>2009-02-01T08:46:42Z</time>
      </trkpt>
      <trkpt lat="48.29555" lon="2.65938">
        <ele>85</ele>
        <time>2009-02-01T08:46:47Z</time>
      </trkpt>
      <trkpt lat="48.29566" lon="2.65957">
        <ele>85</ele>
        <time>2009-02-01T08:46:51Z</time>
      </trkpt>
      <trkpt lat="48.2958" lon="2.65975">
        <ele>85</ele>
        <time>2009-02-01T08:46:55Z</time>
      </trkpt>
      <trkpt lat="48.29587" lon="2.65984">
        <ele>85</ele>
        <time>2009-02-01T08:46:57Z</time>
      </trkpt>
      <trkpt lat="48.29628" lon="2.66042">
        <ele>86</ele>
        <time>2009-02-01T08:47:10Z</time>
      </trkpt>
      <trkpt lat="48.29645" lon="2.66059">
        <ele>87</ele>
        <time>2009-02-01T08:47:15Z</time>
      </trkpt>
      <trkpt lat="48.29676" lon="2.66028">
        <ele>88</ele>
        <time>2009-02-01T08:47:25Z</time>
      </trkpt>
      <trkpt lat="48.29724" lon="2.65969">
        <ele>89</ele>
        <time>2009-02-01T08:47:40Z</time>
      </trkpt>
      <trkpt lat="48.29783" lon="2.65892">
        <ele>86</ele>
        <time>2009-02-01T08:47:58Z</time>
      </trkpt>
      <trkpt lat="48.29804" lon="2.65863">
        <ele>86</ele>
        <time>2009-02-01T08:48:04Z</time>
      </trkpt>
      <trkpt lat="48.29815" lon="2.65849">
        <ele>85</ele>
        <time>2009-02-01T08:48:07Z</time>
      </trkpt>
      <trkpt lat="48.29838" lon="2.65819">
        <ele>84</ele>
        <time>2009-02-01T08:48:13Z</time>
      </trkpt>
      <trkpt lat="48.29865" lon="2.6578">
        <ele>82</ele>
        <time>2009-02-01T08:48:20Z</time>
      </trkpt>
      <trkpt lat="48.29907" lon="2.65722">
        <ele>80</ele>
        <time>2009-02-01T08:48:29Z</time>
      </trkpt>
      <trkpt lat="48.2994" lon="2.65681">
        <ele>79</ele>
        <time>2009-02-01T08:48:36Z</time>
      </trkpt>
      <trkpt lat="48.29951" lon="2.65648">
        <ele>78</ele>
        <time>2009-02-01T08:48:43Z</time>
      </trkpt>
      <trkpt lat="48.29948" lon="2.65642">
        <ele>78</ele>
        <time>2009-02-01T08:48:44Z</time>
      </trkpt>
      <trkpt lat="48.29916" lon="2.65569">
        <ele>79</ele>
        <time>2009-02-01T08:48:57Z</time>
      </trkpt>
      <trkpt lat="48.29913" lon="2.65564">
        <ele>79</ele>
        <time>2009-02-01T08:48:58Z</time>
      </trkpt>
      <trkpt lat="48.29929" lon="2.65523">
        <ele>80</ele>
        <time>2009-02-01T08:49:06Z</time>
      </trkpt>
      <trkpt lat="48.29942" lon="2.65503">
        <ele>80</ele>
        <time>2009-02-01T08:49:11Z</time>
      </trkpt>
      <trkpt lat="48.2995" lon="2.655">
        <ele>81</ele>
        <time>2009-02-01T08:49:13Z</time>
      </trkpt>
      <trkpt lat="48.29977" lon="2.6548">
        <ele>80</ele>
        <time>2009-02-01T08:49:21Z</time>
      </trkpt>
      <trkpt lat="48.29996" lon="2.65461">
        <ele>80</ele>
        <time>2009-02-01T08:49:26Z</time>
      </trkpt>
      <trkpt lat="48.30018" lon="2.65447">
        <ele>81</ele>
        <time>2009-02-01T08:49:31Z</time>
      </trkpt>
      <trkpt lat="48.30034" lon="2.65434">
        <ele>81</ele>
        <time>2009-02-01T08:49:36Z</time>
      </trkpt>
      <trkpt lat="48.30049" lon="2.65423">
        <ele>81</ele>
        <time>2009-02-01T08:49:40Z</time>
      </trkpt>
      <trkpt lat="48.30069" lon="2.65406">
        <ele>80</ele>
        <time>2009-02-01T08:49:47Z</time>
      </trkpt>
      <trkpt lat="48.30104" lon="2.65369">
        <ele>80</ele>
        <time>2009-02-01T08:49:57Z</time>
      </trkpt>
      <trkpt lat="48.30117" lon="2.65351">
        <ele>80</ele>
        <time>2009-02-01T08:50:01Z</time>
      </trkpt>
      <trkpt lat="48.30126" lon="2.65339">
        <ele>80</ele>
        <time>2009-02-01T08:50:04Z</time>
      </trkpt>
      <trkpt lat="48.3015" lon="2.65313">
        <ele>80</ele>
        <time>2009-02-01T08:50:12Z</time>
      </trkpt>
      <trkpt lat="48.30164" lon="2.65282">
        <ele>80</ele>
        <time>2009-02-01T08:50:20Z</time>
      </trkpt>
      <trkpt lat="48.30173" lon="2.65282">
        <ele>80</ele>
        <time>2009-02-01T08:50:23Z</time>
      </trkpt>
      <trkpt lat="48.3018" lon="2.65277">
        <ele>80</ele>
        <time>2009-02-01T08:50:25Z</time>
      </trkpt>
      <trkpt lat="48.30197" lon="2.6526">
        <ele>80</ele>
        <time>2009-02-01T08:50:29Z</time>
      </trkpt>
      <trkpt lat="48.30215" lon="2.65234">
        <ele>81</ele>
        <time>2009-02-01T08:50:35Z</time>
      </trkpt>
      <trkpt lat="48.30248" lon="2.65177">
        <ele>80</ele>
        <time>2009-02-01T08:50:47Z</time>
      </trkpt>
      <trkpt lat="48.30272" lon="2.65139">
        <ele>80</ele>
        <time>2009-02-01T08:50:55Z</time>
      </trkpt>
      <trkpt lat="48.30312" lon="2.65067">
        <ele>80</ele>
        <time>2009-02-01T08:51:09Z</time>
      </trkpt>
      <trkpt lat="48.30321" lon="2.65052">
        <ele>80</ele>
        <time>2009-02-01T08:51:12Z</time>
      </trkpt>
      <trkpt lat="48.30363" lon="2.6498">
        <ele>80</ele>
        <time>2009-02-01T08:51:26Z</time>
      </trkpt>
      <trkpt lat="48.30378" lon="2.64957">
        <ele>80</ele>
        <time>2009-02-01T08:51:30Z</time>
      </trkpt>
      <trkpt lat="48.30412" lon="2.64895">
        <ele>80</ele>
        <time>2009-02-01T08:51:40Z</time>
      </trkpt>
      <trkpt lat="48.30421" lon="2.64885">
        <ele>80</ele>
        <time>2009-02-01T08:51:42Z</time>
      </trkpt>
      <trkpt lat="48.30445" lon="2.64874">
        <ele>80</ele>
        <time>2009-02-01T08:51:47Z</time>
      </trkpt>
      <trkpt lat="48.30474" lon="2.64858">
        <ele>79</ele>
        <time>2009-02-01T08:51:53Z</time>
      </trkpt>
      <trkpt lat="48.30494" lon="2.64848">
        <ele>78</ele>
        <time>2009-02-01T08:51:57Z</time>
      </trkpt>
      <trkpt lat="48.30524" lon="2.64837">
        <ele>76</ele>
        <time>2009-02-01T08:52:03Z</time>
      </trkpt>
      <trkpt lat="48.30582" lon="2.64823">
        <ele>80</ele>
        <time>2009-02-01T08:52:15Z</time>
      </trkpt>
      <trkpt lat="48.30599" lon="2.64816">
        <ele>80</ele>
        <time>2009-02-01T08:52:19Z</time>
      </trkpt>
      <trkpt lat="48.30607" lon="2.64812">
        <ele>79</ele>
        <time>2009-02-01T08:52:21Z</time>
      </trkpt>
      <trkpt lat="48.30619" lon="2.64803">
        <ele>80</ele>
        <time>2009-02-01T08:52:24Z</time>
      </trkpt>
      <trkpt lat="48.30632" lon="2.64789">
        <ele>80</ele>
        <time>2009-02-01T08:52:28Z</time>
      </trkpt>
      <trkpt lat="48.3064" lon="2.64769">
        <ele>80</ele>
        <time>2009-02-01T08:52:32Z</time>
      </trkpt>
      <trkpt lat="48.30644" lon="2.64751">
        <ele>80</ele>
        <time>2009-02-01T08:52:35Z</time>
      </trkpt>
      <trkpt lat="48.30664" lon="2.64712">
        <ele>78</ele>
        <time>2009-02-01T08:52:43Z</time>
      </trkpt>
      <trkpt lat="48.30693" lon="2.64675">
        <ele>78</ele>
        <time>2009-02-01T08:52:52Z</time>
      </trkpt>
      <trkpt lat="48.307" lon="2.64665">
        <ele>79</ele>
        <time>2009-02-01T08:52:54Z</time>
      </trkpt>
      <trkpt lat="48.30713" lon="2.64647">
        <ele>79</ele>
        <time>2009-02-01T08:52:58Z</time>
      </trkpt>
      <trkpt lat="48.30722" lon="2.64634">
        <ele>79</ele>
        <time>2009-02-01T08:53:01Z</time>
      </trkpt>
      <trkpt lat="48.30734" lon="2.64623">
        <ele>79</ele>
        <time>2009-02-01T08:53:04Z</time>
      </trkpt>
      <trkpt lat="48.30768" lon="2.64601">
        <ele>79</ele>
        <time>2009-02-01T08:53:13Z</time>
      </trkpt>
      <trkpt lat="48.30816" lon="2.64597">
        <ele>81</ele>
        <time>2009-02-01T08:53:25Z</time>
      </trkpt>
      <trkpt lat="48.30861" lon="2.64578">
        <ele>83</ele>
        <time>2009-02-01T08:53:36Z</time>
      </trkpt>
      <trkpt lat="48.30906" lon="2.6456">
        <ele>83</ele>
        <time>2009-02-01T08:53:47Z</time>
      </trkpt>
      <trkpt lat="48.30941" lon="2.64546">
        <ele>83</ele>
        <time>2009-02-01T08:53:56Z</time>
      </trkpt>
      <trkpt lat="48.31014" lon="2.64525">
        <ele>81</ele>
        <time>2009-02-01T08:54:13Z</time>
      </trkpt>
      <trkpt lat="48.31043" lon="2.6452">
        <ele>82</ele>
        <time>2009-02-01T08:54:20Z</time>
      </trkpt>
      <trkpt lat="48.31056" lon="2.64497">
        <ele>84</ele>
        <time>2009-02-01T08:54:25Z</time>
      </trkpt>
      <trkpt lat="48.31088" lon="2.64391">
        <ele>86</ele>
        <time>2009-02-01T08:54:43Z</time>
      </trkpt>
      <trkpt lat="48.31108" lon="2.64332">
        <ele>88</ele>
        <time>2009-02-01T08:54:55Z</time>
      </trkpt>
      <trkpt lat="48.31126" lon="2.64298">
        <ele>89</ele>
        <time>2009-02-01T08:55:05Z</time>
      </trkpt>
      <trkpt lat="48.31141" lon="2.64305">
        <ele>89</ele>
        <time>2009-02-01T08:55:10Z</time>
      </trkpt>
      <trkpt lat="48.31181" lon="2.64363">
        <ele>89</ele>
        <time>2009-02-01T08:55:21Z</time>
      </trkpt>
      <trkpt lat="48.31236" lon="2.64367">
        <ele>96</ele>
        <time>2009-02-01T08:55:37Z</time>
      </trkpt>
      <trkpt lat="48.31314" lon="2.64387">
        <ele>97</ele>
        <time>2009-02-01T08:55:57Z</time>
      </trkpt>
      <trkpt lat="48.31318" lon="2.64388">
        <ele>97</ele>
        <time>2009-02-01T08:55:58Z</time>
      </trkpt>
      <trkpt lat="48.31355" lon="2.64432">
        <ele>99</ele>
        <time>2009-02-01T08:56:11Z</time>
      </trkpt>
      <trkpt lat="48.31362" lon="2.64448">
        <ele>100</ele>
        <time>2009-02-01T08:56:15Z</time>
      </trkpt>
      <trkpt lat="48.31367" lon="2.64455">
        <ele>100</ele>
        <time>2009-02-01T08:56:17Z</time>
      </trkpt>
      <trkpt lat="48.31384" lon="2.64507">
        <ele>103</ele>
        <time>2009-02-01T08:56:30Z</time>
      </trkpt>
      <trkpt lat="48.31385" lon="2.64563">
        <ele>106</ele>
        <time>2009-02-01T08:56:44Z</time>
      </trkpt>
      <trkpt lat="48.31392" lon="2.64614">
        <ele>111</ele>
        <time>2009-02-01T08:56:58Z</time>
      </trkpt>
      <trkpt lat="48.31368" lon="2.64648">
        <ele>119</ele>
        <time>2009-02-01T08:57:11Z</time>
      </trkpt>
      <trkpt lat="48.31365" lon="2.64649">
        <ele>120</ele>
        <time>2009-02-01T08:57:12Z</time>
      </trkpt>
      <trkpt lat="48.31363" lon="2.64655">
        <ele>120</ele>
        <time>2009-02-01T08:57:14Z</time>
      </trkpt>
      <trkpt lat="48.31364" lon="2.64662">
        <ele>121</ele>
        <time>2009-02-01T08:57:16Z</time>
      </trkpt>
      <trkpt lat="48.31379" lon="2.64705">
        <ele>120</ele>
        <time>2009-02-01T08:57:28Z</time>
      </trkpt>
      <trkpt lat="48.31386" lon="2.6476">
        <ele>118</ele>
        <time>2009-02-01T08:57:41Z</time>
      </trkpt>
      <trkpt lat="48.31372" lon="2.64799">
        <ele>120</ele>
        <time>2009-02-01T08:57:51Z</time>
      </trkpt>
      <trkpt lat="48.31358" lon="2.64807">
        <ele>122</ele>
        <time>2009-02-01T08:57:56Z</time>
      </trkpt>
      <trkpt lat="48.3134" lon="2.64836">
        <ele>122</ele>
        <time>2009-02-01T08:58:05Z</time>
      </trkpt>
      <trkpt lat="48.31322" lon="2.6485">
        <ele>120</ele>
        <time>2009-02-01T08:58:16Z</time>
      </trkpt>
      <trkpt lat="48.31322" lon="2.64853">
        <ele>120</ele>
        <time>2009-02-01T08:58:19Z</time>
      </trkpt>
      <trkpt lat="48.31325" lon="2.64876">
        <ele>120</ele>
        <time>2009-02-01T08:58:32Z</time>
      </trkpt>
      <trkpt lat="48.31332" lon="2.64921">
        <ele>120</ele>
        <time>2009-02-01T08:58:38Z</time>
      </trkpt>
      <trkpt lat="48.31334" lon="2.64941">
        <ele>120</ele>
        <time>2009-02-01T08:58:41Z</time>
      </trkpt>
      <trkpt lat="48.31327" lon="2.64975">
        <ele>119</ele>
        <time>2009-02-01T08:58:47Z</time>
      </trkpt>
      <trkpt lat="48.31305" lon="2.65017">
        <ele>114</ele>
        <time>2009-02-01T08:58:56Z</time>
      </trkpt>
      <trkpt lat="48.31303" lon="2.65039">
        <ele>112</ele>
        <time>2009-02-01T08:58:58Z</time>
      </trkpt>
      <trkpt lat="48.31305" lon="2.65088">
        <ele>109</ele>
        <time>2009-02-01T08:59:02Z</time>
      </trkpt>
      <trkpt lat="48.31306" lon="2.65113">
        <ele>108</ele>
        <time>2009-02-01T08:59:04Z</time>
      </trkpt>
      <trkpt lat="48.31325" lon="2.65158">
        <ele>105</ele>
        <time>2009-02-01T08:59:09Z</time>
      </trkpt>
      <trkpt lat="48.31352" lon="2.65183">
        <ele>101</ele>
        <time>2009-02-01T08:59:13Z</time>
      </trkpt>
      <trkpt lat="48.31414" lon="2.65212">
        <ele>92</ele>
        <time>2009-02-01T08:59:21Z</time>
      </trkpt>
      <trkpt lat="48.31435" lon="2.65212">
        <ele>89</ele>
        <time>2009-02-01T08:59:24Z</time>
      </trkpt>
      <trkpt lat="48.31462" lon="2.65198">
        <ele>86</ele>
        <time>2009-02-01T08:59:30Z</time>
      </trkpt>
      <trkpt lat="48.31475" lon="2.65181">
        <ele>86</ele>
        <time>2009-02-01T08:59:34Z</time>
      </trkpt>
      <trkpt lat="48.31493" lon="2.65163">
        <ele>87</ele>
        <time>2009-02-01T08:59:38Z</time>
      </trkpt>
      <trkpt lat="48.31535" lon="2.65147">
        <ele>86</ele>
        <time>2009-02-01T08:59:46Z</time>
      </trkpt>
      <trkpt lat="48.31603" lon="2.65039">
        <ele>80</ele>
        <time>2009-02-01T09:00:03Z</time>
      </trkpt>
      <trkpt lat="48.31672" lon="2.6494">
        <ele>79</ele>
        <time>2009-02-01T09:00:20Z</time>
      </trkpt>
      <trkpt lat="48.31719" lon="2.64849">
        <ele>79</ele>
        <time>2009-02-01T09:00:34Z</time>
      </trkpt>
      <trkpt lat="48.31723" lon="2.64839">
        <ele>79</ele>
        <time>2009-02-01T09:00:36Z</time>
      </trkpt>
      <trkpt lat="48.3172" lon="2.64827">
        <ele>80</ele>
        <time>2009-02-01T09:00:40Z</time>
      </trkpt>
      <trkpt lat="48.31697" lon="2.64808">
        <ele>80</ele>
        <time>2009-02-01T09:00:48Z</time>
      </trkpt>
      <trkpt lat="48.31671" lon="2.64821">
        <ele>80</ele>
        <time>2009-02-01T09:00:57Z</time>
      </trkpt>
      <trkpt lat="48.31663" lon="2.64837">
        <ele>80</ele>
        <time>2009-02-01T09:01:01Z</time>
      </trkpt>
      <trkpt lat="48.31656" lon="2.6484">
        <ele>80</ele>
        <time>2009-02-01T09:01:06Z</time>
      </trkpt>
      <trkpt lat="48.3166" lon="2.64839">
        <ele>80</ele>
        <time>2009-02-01T09:05:22Z</time>
      </trkpt>
      <trkpt lat="48.31659" lon="2.64841">
        <ele>80</ele>
        <time>2009-02-01T09:05:26Z</time>
      </trkpt>
      <trkpt lat="48.31658" lon="2.64848">
        <ele>79</ele>
        <time>2009-02-01T09:06:41Z</time>
      </trkpt>
      <trkpt lat="48.31658" lon="2.64848">
        <ele>79</ele>
        <time>2009-02-01T09:06:42Z</time>
      </trkpt>
      <trkpt lat="48.31662" lon="2.64839">
        <ele>80</ele>
        <time>2009-02-01T09:07:19Z</time>
      </trkpt>
      <trkpt lat="48.31667" lon="2.64833">
        <ele>80</ele>
        <time>2009-02-01T09:07:24Z</time>
      </trkpt>
      <trkpt lat="48.31683" lon="2.6481">
        <ele>80</ele>
        <time>2009-02-01T09:07:33Z</time>
      </trkpt>
      <trkpt lat="48.31721" lon="2.64836">
        <ele>79</ele>
        <time>2009-02-01T09:07:46Z</time>
      </trkpt>
      <trkpt lat="48.31724" lon="2.64851">
        <ele>79</ele>
        <time>2009-02-01T09:07:57Z</time>
      </trkpt>
      <trkpt lat="48.31725" lon="2.64852">
        <ele>79</ele>
        <time>2009-02-01T09:07:58Z</time>
      </trkpt>
      <trkpt lat="48.31759" lon="2.64874">
        <ele>77</ele>
        <time>2009-02-01T09:08:11Z</time>
      </trkpt>
      <trkpt lat="48.31817" lon="2.64916">
        <ele>76</ele>
        <time>2009-02-01T09:08:25Z</time>
      </trkpt>
      <trkpt lat="48.31882" lon="2.64944">
        <ele>75</ele>
        <time>2009-02-01T09:08:41Z</time>
      </trkpt>
      <trkpt lat="48.31977" lon="2.64956">
        <ele>77</ele>
        <time>2009-02-01T09:09:03Z</time>
      </trkpt>
      <trkpt lat="48.32001" lon="2.64958">
        <ele>77</ele>
        <time>2009-02-01T09:09:09Z</time>
      </trkpt>
      <trkpt lat="48.32013" lon="2.64961">
        <ele>77</ele>
        <time>2009-02-01T09:09:12Z</time>
      </trkpt>
      <trkpt lat="48.32026" lon="2.64964">
        <ele>77</ele>
        <time>2009-02-01T09:09:16Z</time>
      </trkpt>
      <trkpt lat="48.32036" lon="2.64923">
        <ele>77</ele>
        <time>2009-02-01T09:09:26Z</time>
      </trkpt>
      <trkpt lat="48.32042" lon="2.64857">
        <ele>75</ele>
        <time>2009-02-01T09:09:36Z</time>
      </trkpt>
      <trkpt lat="48.32052" lon="2.64787">
        <ele>75</ele>
        <time>2009-02-01T09:09:47Z</time>
      </trkpt>
      <trkpt lat="48.32064" lon="2.64778">
        <ele>76</ele>
        <time>2009-02-01T09:09:51Z</time>
      </trkpt>
      <trkpt lat="48.3208" lon="2.64786">
        <ele>76</ele>
        <time>2009-02-01T09:09:55Z</time>
      </trkpt>
      <trkpt lat="48.32104" lon="2.64816">
        <ele>77</ele>
        <time>2009-02-01T09:10:02Z</time>
      </trkpt>
      <trkpt lat="48.32164" lon="2.6492">
        <ele>74</ele>
        <time>2009-02-01T09:10:19Z</time>
      </trkpt>
      <trkpt lat="48.32241" lon="2.65036">
        <ele>73</ele>
        <time>2009-02-01T09:10:39Z</time>
      </trkpt>
      <trkpt lat="48.32328" lon="2.65143">
        <ele>77</ele>
        <time>2009-02-01T09:11:00Z</time>
      </trkpt>
      <trkpt lat="48.32386" lon="2.65218">
        <ele>79</ele>
        <time>2009-02-01T09:11:14Z</time>
      </trkpt>
      <trkpt lat="48.32408" lon="2.65248">
        <ele>79</ele>
        <time>2009-02-01T09:11:19Z</time>
      </trkpt>
      <trkpt lat="48.32483" lon="2.65346">
        <ele>79</ele>
        <time>2009-02-01T09:11:36Z</time>
      </trkpt>
      <trkpt lat="48.32543" lon="2.65448">
        <ele>82</ele>
        <time>2009-02-01T09:11:51Z</time>
      </trkpt>
      <trkpt lat="48.32564" lon="2.65482">
        <ele>83</ele>
        <time>2009-02-01T09:11:56Z</time>
      </trkpt>
      <trkpt lat="48.32586" lon="2.65515">
        <ele>83</ele>
        <time>2009-02-01T09:12:02Z</time>
      </trkpt>
      <trkpt lat="48.32631" lon="2.65574">
        <ele>87</ele>
        <time>2009-02-01T09:12:15Z</time>
      </trkpt>
      <trkpt lat="48.32647" lon="2.656">
        <ele>88</ele>
        <time>2009-02-01T09:12:21Z</time>
      </trkpt>
      <trkpt lat="48.3268" lon="2.65648">
        <ele>87</ele>
        <time>2009-02-01T09:12:34Z</time>
      </trkpt>
      <trkpt lat="48.32711" lon="2.65684">
        <ele>90</ele>
        <time>2009-02-01T09:12:46Z</time>
      </trkpt>
      <trkpt lat="48.32737" lon="2.65711">
        <ele>95</ele>
        <time>2009-02-01T09:13:00Z</time>
      </trkpt>
      <trkpt lat="48.3274" lon="2.65714">
        <ele>96</ele>
        <time>2009-02-01T09:13:02Z</time>
      </trkpt>
      <trkpt lat="48.32748" lon="2.65723">
        <ele>97</ele>
        <time>2009-02-01T09:13:09Z</time>
      </trkpt>
      <trkpt lat="48.32755" lon="2.65732">
        <ele>99</ele>
        <time>2009-02-01T09:13:15Z</time>
      </trkpt>
      <trkpt lat="48.3276" lon="2.65739">
        <ele>100</ele>
        <time>2009-02-01T09:13:19Z</time>
      </trkpt>
      <trkpt lat="48.3278" lon="2.65764">
        <ele>103</ele>
        <time>2009-02-01T09:13:36Z</time>
      </trkpt>
      <trkpt lat="48.32787" lon="2.65775">
        <ele>104</ele>
        <time>2009-02-01T09:13:43Z</time>
      </trkpt>
      <trkpt lat="48.32797" lon="2.65784">
        <ele>107</ele>
        <time>2009-02-01T09:13:50Z</time>
      </trkpt>
      <trkpt lat="48.32814" lon="2.65813">
        <ele>109</ele>
        <time>2009-02-01T09:14:06Z</time>
      </trkpt>
      <trkpt lat="48.32829" lon="2.65834">
        <ele>111</ele>
        <time>2009-02-01T09:14:18Z</time>
      </trkpt>
      <trkpt lat="48.3285" lon="2.65868">
        <ele>112</ele>
        <time>2009-02-01T09:14:30Z</time>
      </trkpt>
      <trkpt lat="48.32855" lon="2.65877">
        <ele>112</ele>
        <time>2009-02-01T09:14:32Z</time>
      </trkpt>
      <trkpt lat="48.3286" lon="2.65888">
        <ele>112</ele>
        <time>2009-02-01T09:14:34Z</time>
      </trkpt>
      <trkpt lat="48.32867" lon="2.65897">
        <ele>111</ele>
        <time>2009-02-01T09:14:36Z</time>
      </trkpt>
      <trkpt lat="48.32881" lon="2.65923">
        <ele>111</ele>
        <time>2009-02-01T09:14:41Z</time>
      </trkpt>
      <trkpt lat="48.3292" lon="2.65983">
        <ele>112</ele>
        <time>2009-02-01T09:14:51Z</time>
      </trkpt>
      <trkpt lat="48.3296" lon="2.66039">
        <ele>112</ele>
        <time>2009-02-01T09:15:00Z</time>
      </trkpt>
      <trkpt lat="48.3297" lon="2.66053">
        <ele>111</ele>
        <time>2009-02-01T09:15:02Z</time>
      </trkpt>
      <trkpt lat="48.32985" lon="2.66078">
        <ele>108</ele>
        <time>2009-02-01T09:15:06Z</time>
      </trkpt>
      <trkpt lat="48.32999" lon="2.66093">
        <ele>107</ele>
        <time>2009-02-01T09:15:09Z</time>
      </trkpt>
      <trkpt lat="48.33016" lon="2.66108">
        <ele>104</ele>
        <time>2009-02-01T09:15:12Z</time>
      </trkpt>
      <trkpt lat="48.33025" lon="2.66123">
        <ele>104</ele>
        <time>2009-02-01T09:15:14Z</time>
      </trkpt>
      <trkpt lat="48.33036" lon="2.66157">
        <ele>102</ele>
        <time>2009-02-01T09:15:18Z</time>
      </trkpt>
      <trkpt lat="48.33037" lon="2.66177">
        <ele>102</ele>
        <time>2009-02-01T09:15:20Z</time>
      </trkpt>
      <trkpt lat="48.33044" lon="2.66244">
        <ele>100</ele>
        <time>2009-02-01T09:15:27Z</time>
      </trkpt>
      <trkpt lat="48.33048" lon="2.66292">
        <ele>97</ele>
        <time>2009-02-01T09:15:32Z</time>
      </trkpt>
      <trkpt lat="48.33065" lon="2.66308">
        <ele>94</ele>
        <time>2009-02-01T09:15:36Z</time>
      </trkpt>
      <trkpt lat="48.33094" lon="2.66314">
        <ele>91</ele>
        <time>2009-02-01T09:15:40Z</time>
      </trkpt>
      <trkpt lat="48.33114" lon="2.6635">
        <ele>90</ele>
        <time>2009-02-01T09:15:45Z</time>
      </trkpt>
      <trkpt lat="48.33114" lon="2.66362">
        <ele>90</ele>
        <time>2009-02-01T09:15:46Z</time>
      </trkpt>
      <trkpt lat="48.33112" lon="2.66385">
        <ele>89</ele>
        <time>2009-02-01T09:15:48Z</time>
      </trkpt>
      <trkpt lat="48.33108" lon="2.6651">
        <ele>86</ele>
        <time>2009-02-01T09:15:59Z</time>
      </trkpt>
      <trkpt lat="48.331" lon="2.66558">
        <ele>85</ele>
        <time>2009-02-01T09:16:04Z</time>
      </trkpt>
      <trkpt lat="48.33094" lon="2.66598">
        <ele>84</ele>
        <time>2009-02-01T09:16:09Z</time>
      </trkpt>
      <trkpt lat="48.33108" lon="2.66635">
        <ele>83</ele>
        <time>2009-02-01T09:16:17Z</time>
      </trkpt>
      <trkpt lat="48.33117" lon="2.66621">
        <ele>82</ele>
        <time>2009-02-01T09:16:20Z</time>
      </trkpt>
      <trkpt lat="48.33146" lon="2.66585">
        <ele>81</ele>
        <time>2009-02-01T09:16:26Z</time>
      </trkpt>
      <trkpt lat="48.33155" lon="2.6657">
        <ele>82</ele>
        <time>2009-02-01T09:16:28Z</time>
      </trkpt>
      <trkpt lat="48.33194" lon="2.66474">
        <ele>81</ele>
        <time>2009-02-01T09:16:40Z</time>
      </trkpt>
      <trkpt lat="48.332" lon="2.66446">
        <ele>82</ele>
        <time>2009-02-01T09:16:43Z</time>
      </trkpt>
      <trkpt lat="48.33248" lon="2.66311">
        <ele>84</ele>
        <time>2009-02-01T09:17:00Z</time>
      </trkpt>
      <trkpt lat="48.3328" lon="2.66235">
        <ele>84</ele>
        <time>2009-02-01T09:17:11Z</time>
      </trkpt>
      <trkpt lat="48.33286" lon="2.66207">
        <ele>84</ele>
        <time>2009-02-01T09:17:15Z</time>
      </trkpt>
      <trkpt lat="48.33286" lon="2.66183">
        <ele>84</ele>
        <time>2009-02-01T09:17:18Z</time>
      </trkpt>
      <trkpt lat="48.33296" lon="2.66116">
        <ele>87</ele>
        <time>2009-02-01T09:17:27Z</time>
      </trkpt>
      <trkpt lat="48.33287" lon="2.66012">
        <ele>86</ele>
        <time>2009-02-01T09:17:41Z</time>
      </trkpt>
      <trkpt lat="48.33272" lon="2.65897">
        <ele>86</ele>
        <time>2009-02-01T09:17:55Z</time>
      </trkpt>
      <trkpt lat="48.33247" lon="2.65747">
        <ele>87</ele>
        <time>2009-02-01T09:18:13Z</time>
      </trkpt>
      <trkpt lat="48.33245" lon="2.65732">
        <ele>86</ele>
        <time>2009-02-01T09:18:15Z</time>
      </trkpt>
      <trkpt lat="48.33237" lon="2.657">
        <ele>85</ele>
        <time>2009-02-01T09:18:22Z</time>
      </trkpt>
      <trkpt lat="48.33239" lon="2.65695">
        <ele>85</ele>
        <time>2009-02-01T09:18:23Z</time>
      </trkpt>
      <trkpt lat="48.33243" lon="2.65598">
        <ele>84</ele>
        <time>2009-02-01T09:18:37Z</time>
      </trkpt>
      <trkpt lat="48.33233" lon="2.65453">
        <ele>81</ele>
        <time>2009-02-01T09:18:57Z</time>
      </trkpt>
      <trkpt lat="48.33223" lon="2.6532">
        <ele>84</ele>
        <time>2009-02-01T09:19:16Z</time>
      </trkpt>
      <trkpt lat="48.33199" lon="2.65307">
        <ele>84</ele>
        <time>2009-02-01T09:19:23Z</time>
      </trkpt>
      <trkpt lat="48.33081" lon="2.65319">
        <ele>88</ele>
        <time>2009-02-01T09:19:43Z</time>
      </trkpt>
      <trkpt lat="48.33061" lon="2.65318">
        <ele>89</ele>
        <time>2009-02-01T09:19:47Z</time>
      </trkpt>
      <trkpt lat="48.3303" lon="2.6533">
        <ele>93</ele>
        <time>2009-02-01T09:19:55Z</time>
      </trkpt>
      <trkpt lat="48.33021" lon="2.65332">
        <ele>94</ele>
        <time>2009-02-01T09:19:57Z</time>
      </trkpt>
      <trkpt lat="48.33009" lon="2.65334">
        <ele>95</ele>
        <time>2009-02-01T09:20:00Z</time>
      </trkpt>
      <trkpt lat="48.32969" lon="2.65339">
        <ele>98</ele>
        <time>2009-02-01T09:20:10Z</time>
      </trkpt>
      <trkpt lat="48.3294" lon="2.65334">
        <ele>102</ele>
        <time>2009-02-01T09:20:19Z</time>
      </trkpt>
      <trkpt lat="48.3291" lon="2.65316">
        <ele>104</ele>
        <time>2009-02-01T09:20:31Z</time>
      </trkpt>
      <trkpt lat="48.3288" lon="2.6529">
        <ele>108</ele>
        <time>2009-02-01T09:20:44Z</time>
      </trkpt>
      <trkpt lat="48.32857" lon="2.65269">
        <ele>110</ele>
        <time>2009-02-01T09:20:57Z</time>
      </trkpt>
      <trkpt lat="48.32834" lon="2.65243">
        <ele>113</ele>
        <time>2009-02-01T09:21:11Z</time>
      </trkpt>
      <trkpt lat="48.3281" lon="2.65214">
        <ele>113</ele>
        <time>2009-02-01T09:21:26Z</time>
      </trkpt>
      <trkpt lat="48.32801" lon="2.65205">
        <ele>113</ele>
        <time>2009-02-01T09:21:31Z</time>
      </trkpt>
      <trkpt lat="48.32795" lon="2.65177">
        <ele>113</ele>
        <time>2009-02-01T09:21:38Z</time>
      </trkpt>
      <trkpt lat="48.3278" lon="2.65105">
        <ele>114</ele>
        <time>2009-02-01T09:21:53Z</time>
      </trkpt>
      <trkpt lat="48.32776" lon="2.65011">
        <ele>117</ele>
        <time>2009-02-01T09:22:09Z</time>
      </trkpt>
      <trkpt lat="48.32777" lon="2.64983">
        <ele>117</ele>
        <time>2009-02-01T09:22:13Z</time>
      </trkpt>
      <trkpt lat="48.32779" lon="2.64953">
        <ele>116</ele>
        <time>2009-02-01T09:22:17Z</time>
      </trkpt>
      <trkpt lat="48.32779" lon="2.64923">
        <ele>115</ele>
        <time>2009-02-01T09:22:21Z</time>
      </trkpt>
      <trkpt lat="48.32776" lon="2.64892">
        <ele>116</ele>
        <time>2009-02-01T09:22:25Z</time>
      </trkpt>
      <trkpt lat="48.32772" lon="2.64877">
        <ele>117</ele>
        <time>2009-02-01T09:22:27Z</time>
      </trkpt>
      <trkpt lat="48.32747" lon="2.6477">
        <ele>114</ele>
        <time>2009-02-01T09:22:41Z</time>
      </trkpt>
      <trkpt lat="48.32732" lon="2.64675">
        <ele>115</ele>
        <time>2009-02-01T09:22:53Z</time>
      </trkpt>
      <trkpt lat="48.32724" lon="2.6455">
        <ele>117</ele>
        <time>2009-02-01T09:23:08Z</time>
      </trkpt>
      <trkpt lat="48.32719" lon="2.64511">
        <ele>119</ele>
        <time>2009-02-01T09:23:13Z</time>
      </trkpt>
      <trkpt lat="48.32726" lon="2.64406">
        <ele>122</ele>
        <time>2009-02-01T09:23:25Z</time>
      </trkpt>
      <trkpt lat="48.32731" lon="2.64352">
        <ele>120</ele>
        <time>2009-02-01T09:23:30Z</time>
      </trkpt>
      <trkpt lat="48.3273" lon="2.64309">
        <ele>118</ele>
        <time>2009-02-01T09:23:34Z</time>
      </trkpt>
      <trkpt lat="48.32726" lon="2.64291">
        <ele>117</ele>
        <time>2009-02-01T09:23:36Z</time>
      </trkpt>
      <trkpt lat="48.32706" lon="2.64276">
        <ele>116</ele>
        <time>2009-02-01T09:23:40Z</time>
      </trkpt>
      <trkpt lat="48.32686" lon="2.64275">
        <ele>115</ele>
        <time>2009-02-01T09:23:43Z</time>
      </trkpt>
      <trkpt lat="48.32654" lon="2.64271">
        <ele>111</ele>
        <time>2009-02-01T09:23:52Z</time>
      </trkpt>
      <trkpt lat="48.32648" lon="2.64275">
        <ele>110</ele>
        <time>2009-02-01T09:23:54Z</time>
      </trkpt>
      <trkpt lat="48.32634" lon="2.6429">
        <ele>107</ele>
        <time>2009-02-01T09:23:57Z</time>
      </trkpt>
      <trkpt lat="48.32602" lon="2.64342">
        <ele>102</ele>
        <time>2009-02-01T09:24:02Z</time>
      </trkpt>
      <trkpt lat="48.32522" lon="2.64395">
        <ele>91</ele>
        <time>2009-02-01T09:24:11Z</time>
      </trkpt>
      <trkpt lat="48.32501" lon="2.644">
        <ele>90</ele>
        <time>2009-02-01T09:24:13Z</time>
      </trkpt>
      <trkpt lat="48.32445" lon="2.644">
        <ele>85</ele>
        <time>2009-02-01T09:24:18Z</time>
      </trkpt>
      <trkpt lat="48.32336" lon="2.64386">
        <ele>81</ele>
        <time>2009-02-01T09:24:29Z</time>
      </trkpt>
      <trkpt lat="48.32326" lon="2.64385">
        <ele>81</ele>
        <time>2009-02-01T09:24:30Z</time>
      </trkpt>
      <trkpt lat="48.32221" lon="2.64362">
        <ele>78</ele>
        <time>2009-02-01T09:24:42Z</time>
      </trkpt>
      <trkpt lat="48.32111" lon="2.64367">
        <ele>79</ele>
        <time>2009-02-01T09:24:56Z</time>
      </trkpt>
      <trkpt lat="48.32026" lon="2.6437">
        <ele>77</ele>
        <time>2009-02-01T09:25:09Z</time>
      </trkpt>
      <trkpt lat="48.31929" lon="2.64376">
        <ele>77</ele>
        <time>2009-02-01T09:25:23Z</time>
      </trkpt>
      <trkpt lat="48.31916" lon="2.64403">
        <ele>76</ele>
        <time>2009-02-01T09:25:27Z</time>
      </trkpt>
      <trkpt lat="48.31922" lon="2.64564">
        <ele>78</ele>
        <time>2009-02-01T09:25:43Z</time>
      </trkpt>
      <trkpt lat="48.31923" lon="2.64573">
        <ele>78</ele>
        <time>2009-02-01T09:25:44Z</time>
      </trkpt>
      <trkpt lat="48.31902" lon="2.64599">
        <ele>79</ele>
        <time>2009-02-01T09:25:50Z</time>
      </trkpt>
      <trkpt lat="48.31889" lon="2.64595">
        <ele>79</ele>
        <time>2009-02-01T09:25:52Z</time>
      </trkpt>
      <trkpt lat="48.31776" lon="2.64535">
        <ele>79</ele>
        <time>2009-02-01T09:26:11Z</time>
      </trkpt>
      <trkpt lat="48.31671" lon="2.64468">
        <ele>80</ele>
        <time>2009-02-01T09:26:29Z</time>
      </trkpt>
      <trkpt lat="48.31609" lon="2.64384">
        <ele>84</ele>
        <time>2009-02-01T09:26:43Z</time>
      </trkpt>
      <trkpt lat="48.31565" lon="2.64312">
        <ele>85</ele>
        <time>2009-02-01T09:26:54Z</time>
      </trkpt>
      <trkpt lat="48.31548" lon="2.64286">
        <ele>88</ele>
        <time>2009-02-01T09:26:58Z</time>
      </trkpt>
      <trkpt lat="48.31514" lon="2.64228">
        <ele>92</ele>
        <time>2009-02-01T09:27:07Z</time>
      </trkpt>
      <trkpt lat="48.31504" lon="2.642">
        <ele>90</ele>
        <time>2009-02-01T09:27:11Z</time>
      </trkpt>
      <trkpt lat="48.31501" lon="2.64185">
        <ele>90</ele>
        <time>2009-02-01T09:27:13Z</time>
      </trkpt>
      <trkpt lat="48.31468" lon="2.64138">
        <ele>92</ele>
        <time>2009-02-01T09:27:23Z</time>
      </trkpt>
      <trkpt lat="48.31401" lon="2.6407">
        <ele>96</ele>
        <time>2009-02-01T09:27:41Z</time>
      </trkpt>
      <trkpt lat="48.31366" lon="2.64039">
        <ele>101</ele>
        <time>2009-02-01T09:27:53Z</time>
      </trkpt>
      <trkpt lat="48.31346" lon="2.63996">
        <ele>104</ele>
        <time>2009-02-01T09:28:06Z</time>
      </trkpt>
      <trkpt lat="48.31323" lon="2.63971">
        <ele>104</ele>
        <time>2009-02-01T09:28:17Z</time>
      </trkpt>
      <trkpt lat="48.31287" lon="2.6395">
        <ele>103</ele>
        <time>2009-02-01T09:28:31Z</time>
      </trkpt>
      <trkpt lat="48.31281" lon="2.63947">
        <ele>103</ele>
        <time>2009-02-01T09:28:34Z</time>
      </trkpt>
      <trkpt lat="48.3128" lon="2.63942">
        <ele>103</ele>
        <time>2009-02-01T09:28:39Z</time>
      </trkpt>
      <trkpt lat="48.31233" lon="2.63908">
        <ele>99</ele>
        <time>2009-02-01T09:28:48Z</time>
      </trkpt>
      <trkpt lat="48.31187" lon="2.63818">
        <ele>98</ele>
        <time>2009-02-01T09:29:03Z</time>
      </trkpt>
      <trkpt lat="48.31182" lon="2.63761">
        <ele>99</ele>
        <time>2009-02-01T09:29:10Z</time>
      </trkpt>
      <trkpt lat="48.31206" lon="2.63626">
        <ele>105</ele>
        <time>2009-02-01T09:29:26Z</time>
      </trkpt>
      <trkpt lat="48.3121" lon="2.63589">
        <ele>106</ele>
        <time>2009-02-01T09:29:30Z</time>
      </trkpt>
      <trkpt lat="48.31211" lon="2.63548">
        <ele>104</ele>
        <time>2009-02-01T09:29:34Z</time>
      </trkpt>
      <trkpt lat="48.31215" lon="2.63533">
        <ele>104</ele>
        <time>2009-02-01T09:29:36Z</time>
      </trkpt>
      <trkpt lat="48.31211" lon="2.63501">
        <ele>102</ele>
        <time>2009-02-01T09:29:42Z</time>
      </trkpt>
      <trkpt lat="48.31204" lon="2.63478">
        <ele>101</ele>
        <time>2009-02-01T09:29:45Z</time>
      </trkpt>
      <trkpt lat="48.31197" lon="2.63362">
        <ele>98</ele>
        <time>2009-02-01T09:29:56Z</time>
      </trkpt>
      <trkpt lat="48.31201" lon="2.63318">
        <ele>97</ele>
        <time>2009-02-01T09:30:00Z</time>
      </trkpt>
      <trkpt lat="48.31211" lon="2.63257">
        <ele>97</ele>
        <time>2009-02-01T09:30:06Z</time>
      </trkpt>
      <trkpt lat="48.31215" lon="2.63219">
        <ele>98</ele>
        <time>2009-02-01T09:30:10Z</time>
      </trkpt>
      <trkpt lat="48.3122" lon="2.63182">
        <ele>99</ele>
        <time>2009-02-01T09:30:14Z</time>
      </trkpt>
      <trkpt lat="48.31233" lon="2.63142">
        <ele>99</ele>
        <time>2009-02-01T09:30:19Z</time>
      </trkpt>
      <trkpt lat="48.31241" lon="2.63111">
        <ele>99</ele>
        <time>2009-02-01T09:30:23Z</time>
      </trkpt>
      <trkpt lat="48.31246" lon="2.63081">
        <ele>99</ele>
        <time>2009-02-01T09:30:27Z</time>
      </trkpt>
      <trkpt lat="48.31248" lon="2.63066">
        <ele>99</ele>
        <time>2009-02-01T09:30:29Z</time>
      </trkpt>
      <trkpt lat="48.31246" lon="2.63021">
        <ele>98</ele>
        <time>2009-02-01T09:30:35Z</time>
      </trkpt>
      <trkpt lat="48.31243" lon="2.62943">
        <ele>94</ele>
        <time>2009-02-01T09:30:44Z</time>
      </trkpt>
      <trkpt lat="48.31254" lon="2.62923">
        <ele>94</ele>
        <time>2009-02-01T09:30:47Z</time>
      </trkpt>
      <trkpt lat="48.31263" lon="2.62873">
        <ele>97</ele>
        <time>2009-02-01T09:30:53Z</time>
      </trkpt>
      <trkpt lat="48.31258" lon="2.62812">
        <ele>94</ele>
        <time>2009-02-01T09:30:59Z</time>
      </trkpt>
      <trkpt lat="48.31252" lon="2.62706">
        <ele>92</ele>
        <time>2009-02-01T09:31:09Z</time>
      </trkpt>
      <trkpt lat="48.31243" lon="2.62656">
        <ele>88</ele>
        <time>2009-02-01T09:31:14Z</time>
      </trkpt>
      <trkpt lat="48.31233" lon="2.62583">
        <ele>85</ele>
        <time>2009-02-01T09:31:22Z</time>
      </trkpt>
      <trkpt lat="48.31243" lon="2.62572">
        <ele>86</ele>
        <time>2009-02-01T09:31:29Z</time>
      </trkpt>
      <trkpt lat="48.31291" lon="2.62571">
        <ele>96</ele>
        <time>2009-02-01T09:31:46Z</time>
      </trkpt>
      <trkpt lat="48.31327" lon="2.62567">
        <ele>104</ele>
        <time>2009-02-01T09:31:59Z</time>
      </trkpt>
      <trkpt lat="48.31367" lon="2.6257">
        <ele>110</ele>
        <time>2009-02-01T09:32:12Z</time>
      </trkpt>
      <trkpt lat="48.31394" lon="2.62554">
        <ele>112</ele>
        <time>2009-02-01T09:32:27Z</time>
      </trkpt>
      <trkpt lat="48.31396" lon="2.62547">
        <ele>113</ele>
        <time>2009-02-01T09:32:30Z</time>
      </trkpt>
      <trkpt lat="48.31398" lon="2.62527">
        <ele>115</ele>
        <time>2009-02-01T09:32:39Z</time>
      </trkpt>
      <trkpt lat="48.31398" lon="2.62514">
        <ele>116</ele>
        <time>2009-02-01T09:32:44Z</time>
      </trkpt>
      <trkpt lat="48.31386" lon="2.62499">
        <ele>117</ele>
        <time>2009-02-01T09:32:57Z</time>
      </trkpt>
      <trkpt lat="48.31362" lon="2.62502">
        <ele>115</ele>
        <time>2009-02-01T09:33:10Z</time>
      </trkpt>
      <trkpt lat="48.31348" lon="2.62467">
        <ele>115</ele>
        <time>2009-02-01T09:33:22Z</time>
      </trkpt>
      <trkpt lat="48.31347" lon="2.62452">
        <ele>115</ele>
        <time>2009-02-01T09:33:26Z</time>
      </trkpt>
      <trkpt lat="48.31362" lon="2.62442">
        <ele>119</ele>
        <time>2009-02-01T09:33:35Z</time>
      </trkpt>
      <trkpt lat="48.31369" lon="2.62435">
        <ele>119</ele>
        <time>2009-02-01T09:33:39Z</time>
      </trkpt>
      <trkpt lat="48.31402" lon="2.62415">
        <ele>122</ele>
        <time>2009-02-01T09:33:53Z</time>
      </trkpt>
      <trkpt lat="48.31431" lon="2.62388">
        <ele>122</ele>
        <time>2009-02-01T09:34:06Z</time>
      </trkpt>
      <trkpt lat="48.31451" lon="2.62357">
        <ele>123</ele>
        <time>2009-02-01T09:34:16Z</time>
      </trkpt>
      <trkpt lat="48.31452" lon="2.62339">
        <ele>123</ele>
        <time>2009-02-01T09:34:20Z</time>
      </trkpt>
      <trkpt lat="48.31443" lon="2.62231">
        <ele>127</ele>
        <time>2009-02-01T09:34:36Z</time>
      </trkpt>
      <trkpt lat="48.31441" lon="2.621">
        <ele>128</ele>
        <time>2009-02-01T09:34:51Z</time>
      </trkpt>
      <trkpt lat="48.31446" lon="2.62014">
        <ele>129</ele>
        <time>2009-02-01T09:35:00Z</time>
      </trkpt>
      <trkpt lat="48.3145" lon="2.61972">
        <ele>129</ele>
        <time>2009-02-01T09:35:04Z</time>
      </trkpt>
      <trkpt lat="48.31456" lon="2.61969">
        <ele>129</ele>
        <time>2009-02-01T09:35:05Z</time>
      </trkpt>
      <trkpt lat="48.31483" lon="2.61955">
        <ele>130</ele>
        <time>2009-02-01T09:35:10Z</time>
      </trkpt>
      <trkpt lat="48.31505" lon="2.61897">
        <ele>127</ele>
        <time>2009-02-01T09:35:18Z</time>
      </trkpt>
      <trkpt lat="48.31506" lon="2.61881">
        <ele>127</ele>
        <time>2009-02-01T09:35:20Z</time>
      </trkpt>
      <trkpt lat="48.31495" lon="2.61858">
        <ele>127</ele>
        <time>2009-02-01T09:35:24Z</time>
      </trkpt>
      <trkpt lat="48.31402" lon="2.61775">
        <ele>124</ele>
        <time>2009-02-01T09:35:38Z</time>
      </trkpt>
      <trkpt lat="48.31287" lon="2.61666">
        <ele>120</ele>
        <time>2009-02-01T09:35:56Z</time>
      </trkpt>
      <trkpt lat="48.31251" lon="2.61648">
        <ele>120</ele>
        <time>2009-02-01T09:36:01Z</time>
      </trkpt>
      <trkpt lat="48.31229" lon="2.61648">
        <ele>121</ele>
        <time>2009-02-01T09:36:05Z</time>
      </trkpt>
      <trkpt lat="48.31212" lon="2.61691">
        <ele>122</ele>
        <time>2009-02-01T09:36:12Z</time>
      </trkpt>
      <trkpt lat="48.31216" lon="2.61718">
        <ele>122</ele>
        <time>2009-02-01T09:36:15Z</time>
      </trkpt>
      <trkpt lat="48.31217" lon="2.6176">
        <ele>120</ele>
        <time>2009-02-01T09:36:19Z</time>
      </trkpt>
      <trkpt lat="48.31207" lon="2.61786">
        <ele>118</ele>
        <time>2009-02-01T09:36:22Z</time>
      </trkpt>
      <trkpt lat="48.3119" lon="2.61827">
        <ele>113</ele>
        <time>2009-02-01T09:36:26Z</time>
      </trkpt>
      <trkpt lat="48.31179" lon="2.61874">
        <ele>109</ele>
        <time>2009-02-01T09:36:30Z</time>
      </trkpt>
      <trkpt lat="48.31179" lon="2.6191">
        <ele>108</ele>
        <time>2009-02-01T09:36:33Z</time>
      </trkpt>
      <trkpt lat="48.31209" lon="2.62024">
        <ele>99</ele>
        <time>2009-02-01T09:36:43Z</time>
      </trkpt>
      <trkpt lat="48.31213" lon="2.62113">
        <ele>96</ele>
        <time>2009-02-01T09:36:51Z</time>
      </trkpt>
      <trkpt lat="48.31208" lon="2.62145">
        <ele>95</ele>
        <time>2009-02-01T09:36:54Z</time>
      </trkpt>
      <trkpt lat="48.31205" lon="2.62167">
        <ele>94</ele>
        <time>2009-02-01T09:36:56Z</time>
      </trkpt>
      <trkpt lat="48.31189" lon="2.62205">
        <ele>90</ele>
        <time>2009-02-01T09:37:00Z</time>
      </trkpt>
      <trkpt lat="48.31184" lon="2.62213">
        <ele>89</ele>
        <time>2009-02-01T09:37:01Z</time>
      </trkpt>
      <trkpt lat="48.31167" lon="2.62235">
        <ele>86</ele>
        <time>2009-02-01T09:37:04Z</time>
      </trkpt>
      <trkpt lat="48.31141" lon="2.6229">
        <ele>83</ele>
        <time>2009-02-01T09:37:10Z</time>
      </trkpt>
      <trkpt lat="48.31137" lon="2.62299">
        <ele>82</ele>
        <time>2009-02-01T09:37:11Z</time>
      </trkpt>
      <trkpt lat="48.31123" lon="2.62321">
        <ele>83</ele>
        <time>2009-02-01T09:37:14Z</time>
      </trkpt>
      <trkpt lat="48.31114" lon="2.62338">
        <ele>84</ele>
        <time>2009-02-01T09:37:16Z</time>
      </trkpt>
      <trkpt lat="48.31084" lon="2.62446">
        <ele>81</ele>
        <time>2009-02-01T09:37:27Z</time>
      </trkpt>
      <trkpt lat="48.31084" lon="2.62466">
        <ele>81</ele>
        <time>2009-02-01T09:37:29Z</time>
      </trkpt>
      <trkpt lat="48.31083" lon="2.62475">
        <ele>81</ele>
        <time>2009-02-01T09:37:30Z</time>
      </trkpt>
      <trkpt lat="48.3106" lon="2.62478">
        <ele>83</ele>
        <time>2009-02-01T09:37:36Z</time>
      </trkpt>
      <trkpt lat="48.31052" lon="2.62466">
        <ele>84</ele>
        <time>2009-02-01T09:37:38Z</time>
      </trkpt>
      <trkpt lat="48.31037" lon="2.62418">
        <ele>87</ele>
        <time>2009-02-01T09:37:44Z</time>
      </trkpt>
      <trkpt lat="48.31034" lon="2.62392">
        <ele>89</ele>
        <time>2009-02-01T09:37:47Z</time>
      </trkpt>
      <trkpt lat="48.31025" lon="2.62328">
        <ele>95</ele>
        <time>2009-02-01T09:37:55Z</time>
      </trkpt>
      <trkpt lat="48.31017" lon="2.62305">
        <ele>95</ele>
        <time>2009-02-01T09:37:58Z</time>
      </trkpt>
      <trkpt lat="48.31008" lon="2.62274">
        <ele>96</ele>
        <time>2009-02-01T09:38:02Z</time>
      </trkpt>
      <trkpt lat="48.30974" lon="2.62165">
        <ele>101</ele>
        <time>2009-02-01T09:38:16Z</time>
      </trkpt>
      <trkpt lat="48.30968" lon="2.62144">
        <ele>102</ele>
        <time>2009-02-01T09:38:19Z</time>
      </trkpt>
      <trkpt lat="48.30965" lon="2.6213">
        <ele>103</ele>
        <time>2009-02-01T09:38:21Z</time>
      </trkpt>
      <trkpt lat="48.30956" lon="2.6209">
        <ele>104</ele>
        <time>2009-02-01T09:38:28Z</time>
      </trkpt>
      <trkpt lat="48.30947" lon="2.62086">
        <ele>105</ele>
        <time>2009-02-01T09:38:32Z</time>
      </trkpt>
      <trkpt lat="48.30914" lon="2.62076">
        <ele>106</ele>
        <time>2009-02-01T09:38:43Z</time>
      </trkpt>
      <trkpt lat="48.30901" lon="2.62021">
        <ele>105</ele>
        <time>2009-02-01T09:38:54Z</time>
      </trkpt>
      <trkpt lat="48.30895" lon="2.6197">
        <ele>107</ele>
        <time>2009-02-01T09:39:05Z</time>
      </trkpt>
      <trkpt lat="48.30884" lon="2.61926">
        <ele>112</ele>
        <time>2009-02-01T09:39:17Z</time>
      </trkpt>
      <trkpt lat="48.30874" lon="2.6188">
        <ele>118</ele>
        <time>2009-02-01T09:39:30Z</time>
      </trkpt>
      <trkpt lat="48.30858" lon="2.61842">
        <ele>121</ele>
        <time>2009-02-01T09:39:42Z</time>
      </trkpt>
      <trkpt lat="48.30846" lon="2.61815">
        <ele>122</ele>
        <time>2009-02-01T09:39:51Z</time>
      </trkpt>
      <trkpt lat="48.30829" lon="2.61772">
        <ele>122</ele>
        <time>2009-02-01T09:40:01Z</time>
      </trkpt>
      <trkpt lat="48.30806" lon="2.61734">
        <ele>120</ele>
        <time>2009-02-01T09:40:11Z</time>
      </trkpt>
      <trkpt lat="48.30802" lon="2.61717">
        <ele>119</ele>
        <time>2009-02-01T09:40:14Z</time>
      </trkpt>
      <trkpt lat="48.30799" lon="2.61692">
        <ele>120</ele>
        <time>2009-02-01T09:40:18Z</time>
      </trkpt>
      <trkpt lat="48.30799" lon="2.61616">
        <ele>122</ele>
        <time>2009-02-01T09:40:31Z</time>
      </trkpt>
      <trkpt lat="48.308" lon="2.61599">
        <ele>122</ele>
        <time>2009-02-01T09:40:34Z</time>
      </trkpt>
      <trkpt lat="48.30812" lon="2.61587">
        <ele>122</ele>
        <time>2009-02-01T09:40:38Z</time>
      </trkpt>
      <trkpt lat="48.30823" lon="2.61583">
        <ele>122</ele>
        <time>2009-02-01T09:40:41Z</time>
      </trkpt>
      <trkpt lat="48.30879" lon="2.61577">
        <ele>124</ele>
        <time>2009-02-01T09:40:55Z</time>
      </trkpt>
      <trkpt lat="48.30913" lon="2.61574">
        <ele>125</ele>
        <time>2009-02-01T09:41:04Z</time>
      </trkpt>
      <trkpt lat="48.30948" lon="2.61562">
        <ele>125</ele>
        <time>2009-02-01T09:41:12Z</time>
      </trkpt>
      <trkpt lat="48.30978" lon="2.61565">
        <ele>126</ele>
        <time>2009-02-01T09:41:20Z</time>
      </trkpt>
      <trkpt lat="48.30993" lon="2.61571">
        <ele>126</ele>
        <time>2009-02-01T09:41:24Z</time>
      </trkpt>
      <trkpt lat="48.31039" lon="2.61599">
        <ele>126</ele>
        <time>2009-02-01T09:41:35Z</time>
      </trkpt>
      <trkpt lat="48.31052" lon="2.61596">
        <ele>125</ele>
        <time>2009-02-01T09:41:41Z</time>
      </trkpt>
      <trkpt lat="48.31059" lon="2.61562">
        <ele>124</ele>
        <time>2009-02-01T09:41:53Z</time>
      </trkpt>
      <trkpt lat="48.31063" lon="2.61528">
        <ele>121</ele>
        <time>2009-02-01T09:41:57Z</time>
      </trkpt>
      <trkpt lat="48.31053" lon="2.61501">
        <ele>121</ele>
        <time>2009-02-01T09:42:01Z</time>
      </trkpt>
      <trkpt lat="48.31045" lon="2.61486">
        <ele>120</ele>
        <time>2009-02-01T09:42:03Z</time>
      </trkpt>
      <trkpt lat="48.30995" lon="2.61422">
        <ele>112</ele>
        <time>2009-02-01T09:42:11Z</time>
      </trkpt>
      <trkpt lat="48.30987" lon="2.61409">
        <ele>112</ele>
        <time>2009-02-01T09:42:13Z</time>
      </trkpt>
      <trkpt lat="48.30977" lon="2.61388">
        <ele>110</ele>
        <time>2009-02-01T09:42:18Z</time>
      </trkpt>
      <trkpt lat="48.30975" lon="2.61382">
        <ele>110</ele>
        <time>2009-02-01T09:42:20Z</time>
      </trkpt>
      <trkpt lat="48.30969" lon="2.61359">
        <ele>109</ele>
        <time>2009-02-01T09:42:28Z</time>
      </trkpt>
      <trkpt lat="48.30968" lon="2.61359">
        <ele>109</ele>
        <time>2009-02-01T09:42:29Z</time>
      </trkpt>
      <trkpt lat="48.30956" lon="2.61347">
        <ele>109</ele>
        <time>2009-02-01T09:44:09Z</time>
      </trkpt>
      <trkpt lat="48.3095" lon="2.61336">
        <ele>109</ele>
        <time>2009-02-01T09:44:11Z</time>
      </trkpt>
      <trkpt lat="48.3094" lon="2.61327">
        <ele>109</ele>
        <time>2009-02-01T09:44:14Z</time>
      </trkpt>
      <trkpt lat="48.30924" lon="2.61326">
        <ele>108</ele>
        <time>2009-02-01T09:44:17Z</time>
      </trkpt>
      <trkpt lat="48.3088" lon="2.61325">
        <ele>103</ele>
        <time>2009-02-01T09:44:24Z</time>
      </trkpt>
      <trkpt lat="48.30859" lon="2.61326">
        <ele>102</ele>
        <time>2009-02-01T09:44:27Z</time>
      </trkpt>
      <trkpt lat="48.30844" lon="2.61311">
        <ele>99</ele>
        <time>2009-02-01T09:44:30Z</time>
      </trkpt>
      <trkpt lat="48.30802" lon="2.61246">
        <ele>96</ele>
        <time>2009-02-01T09:44:38Z</time>
      </trkpt>
      <trkpt lat="48.30796" lon="2.61239">
        <ele>95</ele>
        <time>2009-02-01T09:44:39Z</time>
      </trkpt>
      <trkpt lat="48.30777" lon="2.61216">
        <ele>91</ele>
        <time>2009-02-01T09:44:43Z</time>
      </trkpt>
      <trkpt lat="48.30754" lon="2.61215">
        <ele>90</ele>
        <time>2009-02-01T09:44:47Z</time>
      </trkpt>
      <trkpt lat="48.30725" lon="2.61211">
        <ele>89</ele>
        <time>2009-02-01T09:44:51Z</time>
      </trkpt>
      <trkpt lat="48.30712" lon="2.61201">
        <ele>88</ele>
        <time>2009-02-01T09:44:53Z</time>
      </trkpt>
      <trkpt lat="48.30672" lon="2.612">
        <ele>90</ele>
        <time>2009-02-01T09:44:59Z</time>
      </trkpt>
      <trkpt lat="48.30651" lon="2.61185">
        <ele>92</ele>
        <time>2009-02-01T09:45:02Z</time>
      </trkpt>
      <trkpt lat="48.30606" lon="2.61178">
        <ele>91</ele>
        <time>2009-02-01T09:45:08Z</time>
      </trkpt>
      <trkpt lat="48.30573" lon="2.61208">
        <ele>88</ele>
        <time>2009-02-01T09:45:14Z</time>
      </trkpt>
      <trkpt lat="48.30547" lon="2.61226">
        <ele>84</ele>
        <time>2009-02-01T09:45:20Z</time>
      </trkpt>
      <trkpt lat="48.30478" lon="2.6121">
        <ele>81</ele>
        <time>2009-02-01T09:45:30Z</time>
      </trkpt>
      <trkpt lat="48.30459" lon="2.61181">
        <ele>82</ele>
        <time>2009-02-01T09:45:38Z</time>
      </trkpt>
      <trkpt lat="48.30471" lon="2.61168">
        <ele>83</ele>
        <time>2009-02-01T09:45:42Z</time>
      </trkpt>
      <trkpt lat="48.30504" lon="2.61119">
        <ele>88</ele>
        <time>2009-02-01T09:45:56Z</time>
      </trkpt>
      <trkpt lat="48.30514" lon="2.61105">
        <ele>89</ele>
        <time>2009-02-01T09:46:01Z</time>
      </trkpt>
      <trkpt lat="48.30521" lon="2.61097">
        <ele>89</ele>
        <time>2009-02-01T09:46:04Z</time>
      </trkpt>
      <trkpt lat="48.30548" lon="2.61051">
        <ele>95</ele>
        <time>2009-02-01T09:46:18Z</time>
      </trkpt>
      <trkpt lat="48.30561" lon="2.61022">
        <ele>98</ele>
        <time>2009-02-01T09:46:26Z</time>
      </trkpt>
      <trkpt lat="48.30576" lon="2.6097">
        <ele>103</ele>
        <time>2009-02-01T09:46:39Z</time>
      </trkpt>
      <trkpt lat="48.3058" lon="2.60944">
        <ele>105</ele>
        <time>2009-02-01T09:46:46Z</time>
      </trkpt>
      <trkpt lat="48.30583" lon="2.6092">
        <ele>107</ele>
        <time>2009-02-01T09:46:53Z</time>
      </trkpt>
      <trkpt lat="48.30582" lon="2.60873">
        <ele>110</ele>
        <time>2009-02-01T09:47:06Z</time>
      </trkpt>
      <trkpt lat="48.3058" lon="2.60823">
        <ele>111</ele>
        <time>2009-02-01T09:47:18Z</time>
      </trkpt>
      <trkpt lat="48.30579" lon="2.60817">
        <ele>111</ele>
        <time>2009-02-01T09:47:20Z</time>
      </trkpt>
      <trkpt lat="48.3058" lon="2.60818">
        <ele>111</ele>
        <time>2009-02-01T09:47:24Z</time>
      </trkpt>
      <trkpt lat="48.30595" lon="2.60811">
        <ele>112</ele>
        <time>2009-02-01T09:48:30Z</time>
      </trkpt>
      <trkpt lat="48.3063" lon="2.6079">
        <ele>115</ele>
        <time>2009-02-01T09:48:41Z</time>
      </trkpt>
      <trkpt lat="48.30671" lon="2.6077">
        <ele>118</ele>
        <time>2009-02-01T09:48:53Z</time>
      </trkpt>
      <trkpt lat="48.30703" lon="2.60747">
        <ele>119</ele>
        <time>2009-02-01T09:49:03Z</time>
      </trkpt>
      <trkpt lat="48.30708" lon="2.60725">
        <ele>119</ele>
        <time>2009-02-01T09:49:07Z</time>
      </trkpt>
      <trkpt lat="48.30702" lon="2.60655">
        <ele>122</ele>
        <time>2009-02-01T09:49:20Z</time>
      </trkpt>
      <trkpt lat="48.30705" lon="2.60621">
        <ele>123</ele>
        <time>2009-02-01T09:49:27Z</time>
      </trkpt>
      <trkpt lat="48.30717" lon="2.60613">
        <ele>123</ele>
        <time>2009-02-01T09:49:31Z</time>
      </trkpt>
      <trkpt lat="48.30766" lon="2.60581">
        <ele>121</ele>
        <time>2009-02-01T09:49:46Z</time>
      </trkpt>
      <trkpt lat="48.3079" lon="2.60563">
        <ele>121</ele>
        <time>2009-02-01T09:49:53Z</time>
      </trkpt>
      <trkpt lat="48.30817" lon="2.60536">
        <ele>123</ele>
        <time>2009-02-01T09:50:01Z</time>
      </trkpt>
      <trkpt lat="48.30809" lon="2.60493">
        <ele>122</ele>
        <time>2009-02-01T09:50:10Z</time>
      </trkpt>
      <trkpt lat="48.30787" lon="2.60464">
        <ele>122</ele>
        <time>2009-02-01T09:50:17Z</time>
      </trkpt>
      <trkpt lat="48.30778" lon="2.60453">
        <ele>122</ele>
        <time>2009-02-01T09:50:19Z</time>
      </trkpt>
      <trkpt lat="48.30756" lon="2.60417">
        <ele>120</ele>
        <time>2009-02-01T09:50:25Z</time>
      </trkpt>
      <trkpt lat="48.30747" lon="2.60397">
        <ele>119</ele>
        <time>2009-02-01T09:50:28Z</time>
      </trkpt>
      <trkpt lat="48.30737" lon="2.60364">
        <ele>116</ele>
        <time>2009-02-01T09:50:32Z</time>
      </trkpt>
      <trkpt lat="48.3073" lon="2.60314">
        <ele>112</ele>
        <time>2009-02-01T09:50:37Z</time>
      </trkpt>
      <trkpt lat="48.30728" lon="2.60281">
        <ele>110</ele>
        <time>2009-02-01T09:50:40Z</time>
      </trkpt>
      <trkpt lat="48.30728" lon="2.6026">
        <ele>110</ele>
        <time>2009-02-01T09:50:42Z</time>
      </trkpt>
      <trkpt lat="48.30723" lon="2.60215">
        <ele>107</ele>
        <time>2009-02-01T09:50:46Z</time>
      </trkpt>
      <trkpt lat="48.30717" lon="2.60191">
        <ele>107</ele>
        <time>2009-02-01T09:50:49Z</time>
      </trkpt>
      <trkpt lat="48.30712" lon="2.60177">
        <ele>106</ele>
        <time>2009-02-01T09:50:51Z</time>
      </trkpt>
      <trkpt lat="48.30697" lon="2.60146">
        <ele>105</ele>
        <time>2009-02-01T09:51:00Z</time>
      </trkpt>
      <trkpt lat="48.30686" lon="2.6013">
        <ele>104</ele>
        <time>2009-02-01T09:51:05Z</time>
      </trkpt>
      <trkpt lat="48.30655" lon="2.60095">
        <ele>102</ele>
        <time>2009-02-01T09:51:17Z</time>
      </trkpt>
      <trkpt lat="48.30633" lon="2.60088">
        <ele>102</ele>
        <time>2009-02-01T09:51:25Z</time>
      </trkpt>
      <trkpt lat="48.30611" lon="2.60076">
        <ele>102</ele>
        <time>2009-02-01T09:51:37Z</time>
      </trkpt>
      <trkpt lat="48.30592" lon="2.60062">
        <ele>100</ele>
        <time>2009-02-01T09:51:44Z</time>
      </trkpt>
      <trkpt lat="48.30562" lon="2.60037">
        <ele>97</ele>
        <time>2009-02-01T09:51:53Z</time>
      </trkpt>
      <trkpt lat="48.30542" lon="2.60028">
        <ele>97</ele>
        <time>2009-02-01T09:51:59Z</time>
      </trkpt>
      <trkpt lat="48.3052" lon="2.60027">
        <ele>96</ele>
        <time>2009-02-01T09:52:08Z</time>
      </trkpt>
      <trkpt lat="48.30508" lon="2.60029">
        <ele>94</ele>
        <time>2009-02-01T09:52:14Z</time>
      </trkpt>
      <trkpt lat="48.30498" lon="2.60039">
        <ele>94</ele>
        <time>2009-02-01T09:52:20Z</time>
      </trkpt>
      <trkpt lat="48.30489" lon="2.6004">
        <ele>93</ele>
        <time>2009-02-01T09:52:24Z</time>
      </trkpt>
      <trkpt lat="48.30487" lon="2.60043">
        <ele>93</ele>
        <time>2009-02-01T09:52:26Z</time>
      </trkpt>
      <trkpt lat="48.30478" lon="2.60042">
        <ele>91</ele>
        <time>2009-02-01T09:52:30Z</time>
      </trkpt>
      <trkpt lat="48.30472" lon="2.6003">
        <ele>90</ele>
        <time>2009-02-01T09:52:34Z</time>
      </trkpt>
      <trkpt lat="48.30478" lon="2.60007">
        <ele>89</ele>
        <time>2009-02-01T09:52:42Z</time>
      </trkpt>
      <trkpt lat="48.3048" lon="2.59996">
        <ele>88</ele>
        <time>2009-02-01T09:52:45Z</time>
      </trkpt>
      <trkpt lat="48.30477" lon="2.59984">
        <ele>87</ele>
        <time>2009-02-01T09:52:50Z</time>
      </trkpt>
      <trkpt lat="48.30473" lon="2.59963">
        <ele>85</ele>
        <time>2009-02-01T09:52:57Z</time>
      </trkpt>
      <trkpt lat="48.30472" lon="2.59957">
        <ele>84</ele>
        <time>2009-02-01T09:52:58Z</time>
      </trkpt>
      <trkpt lat="48.30456" lon="2.59919">
        <ele>84</ele>
        <time>2009-02-01T09:53:09Z</time>
      </trkpt>
      <trkpt lat="48.30455" lon="2.59918">
        <ele>84</ele>
        <time>2009-02-01T10:01:18Z</time>
      </trkpt>
      <trkpt lat="48.30482" lon="2.59904">
        <ele>84</ele>
        <time>2009-02-01T10:01:31Z</time>
      </trkpt>
      <trkpt lat="48.30526" lon="2.5988">
        <ele>85</ele>
        <time>2009-02-01T10:01:45Z</time>
      </trkpt>
      <trkpt lat="48.30555" lon="2.59853">
        <ele>86</ele>
        <time>2009-02-01T10:01:57Z</time>
      </trkpt>
      <trkpt lat="48.30573" lon="2.59814">
        <ele>89</ele>
        <time>2009-02-01T10:02:09Z</time>
      </trkpt>
      <trkpt lat="48.30587" lon="2.59764">
        <ele>94</ele>
        <time>2009-02-01T10:02:23Z</time>
      </trkpt>
      <trkpt lat="48.30589" lon="2.59753">
        <ele>95</ele>
        <time>2009-02-01T10:02:27Z</time>
      </trkpt>
      <trkpt lat="48.30593" lon="2.59736">
        <ele>97</ele>
        <time>2009-02-01T10:02:33Z</time>
      </trkpt>
      <trkpt lat="48.30598" lon="2.59702">
        <ele>99</ele>
        <time>2009-02-01T10:02:44Z</time>
      </trkpt>
      <trkpt lat="48.30602" lon="2.5967">
        <ele>101</ele>
        <time>2009-02-01T10:02:53Z</time>
      </trkpt>
      <trkpt lat="48.30609" lon="2.59614">
        <ele>102</ele>
        <time>2009-02-01T10:03:06Z</time>
      </trkpt>
      <trkpt lat="48.30621" lon="2.59593">
        <ele>101</ele>
        <time>2009-02-01T10:03:15Z</time>
      </trkpt>
      <trkpt lat="48.30638" lon="2.59557">
        <ele>104</ele>
        <time>2009-02-01T10:03:28Z</time>
      </trkpt>
      <trkpt lat="48.30653" lon="2.59507">
        <ele>110</ele>
        <time>2009-02-01T10:03:45Z</time>
      </trkpt>
      <trkpt lat="48.30669" lon="2.59462">
        <ele>114</ele>
        <time>2009-02-01T10:04:03Z</time>
      </trkpt>
      <trkpt lat="48.3068" lon="2.59446">
        <ele>116</ele>
        <time>2009-02-01T10:04:14Z</time>
      </trkpt>
      <trkpt lat="48.30684" lon="2.59442">
        <ele>117</ele>
        <time>2009-02-01T10:04:19Z</time>
      </trkpt>
      <trkpt lat="48.30683" lon="2.59439">
        <ele>117</ele>
        <time>2009-02-01T10:04:22Z</time>
      </trkpt>
      <trkpt lat="48.30684" lon="2.59435">
        <ele>118</ele>
        <time>2009-02-01T10:04:27Z</time>
      </trkpt>
      <trkpt lat="48.30685" lon="2.59431">
        <ele>118</ele>
        <time>2009-02-01T10:04:32Z</time>
      </trkpt>
      <trkpt lat="48.30688" lon="2.5941">
        <ele>120</ele>
        <time>2009-02-01T10:04:40Z</time>
      </trkpt>
      <trkpt lat="48.30684" lon="2.59363">
        <ele>120</ele>
        <time>2009-02-01T10:04:50Z</time>
      </trkpt>
      <trkpt lat="48.30672" lon="2.59348">
        <ele>119</ele>
        <time>2009-02-01T10:04:54Z</time>
      </trkpt>
      <trkpt lat="48.30664" lon="2.59346">
        <ele>119</ele>
        <time>2009-02-01T10:04:56Z</time>
      </trkpt>
      <trkpt lat="48.30629" lon="2.59344">
        <ele>115</ele>
        <time>2009-02-01T10:05:04Z</time>
      </trkpt>
      <trkpt lat="48.30619" lon="2.59317">
        <ele>115</ele>
        <time>2009-02-01T10:05:10Z</time>
      </trkpt>
      <trkpt lat="48.30612" lon="2.59265">
        <ele>116</ele>
        <time>2009-02-01T10:05:20Z</time>
      </trkpt>
      <trkpt lat="48.30611" lon="2.59254">
        <ele>116</ele>
        <time>2009-02-01T10:05:22Z</time>
      </trkpt>
      <trkpt lat="48.30601" lon="2.5922">
        <ele>116</ele>
        <time>2009-02-01T10:05:29Z</time>
      </trkpt>
      <trkpt lat="48.30595" lon="2.59198">
        <ele>116</ele>
        <time>2009-02-01T10:05:33Z</time>
      </trkpt>
      <trkpt lat="48.30586" lon="2.59156">
        <ele>116</ele>
        <time>2009-02-01T10:05:41Z</time>
      </trkpt>
      <trkpt lat="48.30589" lon="2.59126">
        <ele>116</ele>
        <time>2009-02-01T10:05:47Z</time>
      </trkpt>
      <trkpt lat="48.30616" lon="2.5909">
        <ele>117</ele>
        <time>2009-02-01T10:05:57Z</time>
      </trkpt>
      <trkpt lat="48.30633" lon="2.59048">
        <ele>117</ele>
        <time>2009-02-01T10:06:07Z</time>
      </trkpt>
      <trkpt lat="48.3064" lon="2.5903">
        <ele>117</ele>
        <time>2009-02-01T10:06:12Z</time>
      </trkpt>
      <trkpt lat="48.30639" lon="2.59026">
        <ele>116</ele>
        <time>2009-02-01T10:06:13Z</time>
      </trkpt>
      <trkpt lat="48.30625" lon="2.59004">
        <ele>111</ele>
        <time>2009-02-01T10:06:19Z</time>
      </trkpt>
      <trkpt lat="48.306" lon="2.58999">
        <ele>109</ele>
        <time>2009-02-01T10:06:26Z</time>
      </trkpt>
      <trkpt lat="48.30593" lon="2.59002">
        <ele>108</ele>
        <time>2009-02-01T10:06:28Z</time>
      </trkpt>
      <trkpt lat="48.30582" lon="2.58987">
        <ele>107</ele>
        <time>2009-02-01T10:06:32Z</time>
      </trkpt>
      <trkpt lat="48.30563" lon="2.58961">
        <ele>105</ele>
        <time>2009-02-01T10:06:37Z</time>
      </trkpt>
      <trkpt lat="48.30542" lon="2.58935">
        <ele>101</ele>
        <time>2009-02-01T10:06:42Z</time>
      </trkpt>
      <trkpt lat="48.30522" lon="2.58903">
        <ele>98</ele>
        <time>2009-02-01T10:06:49Z</time>
      </trkpt>
      <trkpt lat="48.30511" lon="2.58881">
        <ele>97</ele>
        <time>2009-02-01T10:06:55Z</time>
      </trkpt>
      <trkpt lat="48.30486" lon="2.58856">
        <ele>94</ele>
        <time>2009-02-01T10:07:03Z</time>
      </trkpt>
      <trkpt lat="48.30489" lon="2.58833">
        <ele>94</ele>
        <time>2009-02-01T10:07:07Z</time>
      </trkpt>
      <trkpt lat="48.30503" lon="2.58753">
        <ele>95</ele>
        <time>2009-02-01T10:07:21Z</time>
      </trkpt>
      <trkpt lat="48.30509" lon="2.58728">
        <ele>95</ele>
        <time>2009-02-01T10:07:25Z</time>
      </trkpt>
      <trkpt lat="48.30494" lon="2.58712">
        <ele>94</ele>
        <time>2009-02-01T10:07:30Z</time>
      </trkpt>
      <trkpt lat="48.30477" lon="2.587">
        <ele>94</ele>
        <time>2009-02-01T10:07:40Z</time>
      </trkpt>
      <trkpt lat="48.3048" lon="2.58693">
        <ele>94</ele>
        <time>2009-02-01T10:07:42Z</time>
      </trkpt>
      <trkpt lat="48.30491" lon="2.58664">
        <ele>95</ele>
        <time>2009-02-01T10:07:50Z</time>
      </trkpt>
      <trkpt lat="48.30486" lon="2.58627">
        <ele>98</ele>
        <time>2009-02-01T10:07:59Z</time>
      </trkpt>
      <trkpt lat="48.30505" lon="2.58588">
        <ele>102</ele>
        <time>2009-02-01T10:08:12Z</time>
      </trkpt>
      <trkpt lat="48.30512" lon="2.58583">
        <ele>102</ele>
        <time>2009-02-01T10:08:16Z</time>
      </trkpt>
      <trkpt lat="48.30526" lon="2.58586">
        <ele>103</ele>
        <time>2009-02-01T10:08:22Z</time>
      </trkpt>
      <trkpt lat="48.30535" lon="2.58571">
        <ele>104</ele>
        <time>2009-02-01T10:08:28Z</time>
      </trkpt>
      <trkpt lat="48.30548" lon="2.58553">
        <ele>106</ele>
        <time>2009-02-01T10:08:37Z</time>
      </trkpt>
      <trkpt lat="48.30561" lon="2.58526">
        <ele>107</ele>
        <time>2009-02-01T10:08:47Z</time>
      </trkpt>
      <trkpt lat="48.30567" lon="2.58511">
        <ele>108</ele>
        <time>2009-02-01T10:08:54Z</time>
      </trkpt>
      <trkpt lat="48.30575" lon="2.58499">
        <ele>108</ele>
        <time>2009-02-01T10:09:01Z</time>
      </trkpt>
      <trkpt lat="48.30576" lon="2.58479">
        <ele>109</ele>
        <time>2009-02-01T10:09:09Z</time>
      </trkpt>
      <trkpt lat="48.30578" lon="2.58464">
        <ele>110</ele>
        <time>2009-02-01T10:09:14Z</time>
      </trkpt>
      <trkpt lat="48.30577" lon="2.58459">
        <ele>110</ele>
        <time>2009-02-01T10:09:16Z</time>
      </trkpt>
      <trkpt lat="48.30563" lon="2.58456">
        <ele>111</ele>
        <time>2009-02-01T10:09:23Z</time>
      </trkpt>
      <trkpt lat="48.3055" lon="2.58451">
        <ele>111</ele>
        <time>2009-02-01T10:09:32Z</time>
      </trkpt>
      <trkpt lat="48.30539" lon="2.58489">
        <ele>109</ele>
        <time>2009-02-01T10:09:41Z</time>
      </trkpt>
      <trkpt lat="48.3052" lon="2.58517">
        <ele>107</ele>
        <time>2009-02-01T10:09:50Z</time>
      </trkpt>
      <trkpt lat="48.30507" lon="2.58524">
        <ele>106</ele>
        <time>2009-02-01T10:09:56Z</time>
      </trkpt>
      <trkpt lat="48.30489" lon="2.5855">
        <ele>104</ele>
        <time>2009-02-01T10:10:07Z</time>
      </trkpt>
      <trkpt lat="48.30481" lon="2.58565">
        <ele>102</ele>
        <time>2009-02-01T10:10:15Z</time>
      </trkpt>
      <trkpt lat="48.3048" lon="2.58569">
        <ele>102</ele>
        <time>2009-02-01T10:10:19Z</time>
      </trkpt>
      <trkpt lat="48.3048" lon="2.5857">
        <ele>102</ele>
        <time>2009-02-01T10:10:20Z</time>
      </trkpt>
      <trkpt lat="48.30468" lon="2.58576">
        <ele>101</ele>
        <time>2009-02-01T10:10:28Z</time>
      </trkpt>
      <trkpt lat="48.30465" lon="2.58579">
        <ele>100</ele>
        <time>2009-02-01T10:10:33Z</time>
      </trkpt>
      <trkpt lat="48.30453" lon="2.58605">
        <ele>97</ele>
        <time>2009-02-01T10:10:41Z</time>
      </trkpt>
      <trkpt lat="48.30434" lon="2.58613">
        <ele>94</ele>
        <time>2009-02-01T10:10:47Z</time>
      </trkpt>
      <trkpt lat="48.30416" lon="2.58637">
        <ele>91</ele>
        <time>2009-02-01T10:10:53Z</time>
      </trkpt>
      <trkpt lat="48.30414" lon="2.58645">
        <ele>91</ele>
        <time>2009-02-01T10:10:56Z</time>
      </trkpt>
      <trkpt lat="48.30399" lon="2.58685">
        <ele>89</ele>
        <time>2009-02-01T10:11:08Z</time>
      </trkpt>
      <trkpt lat="48.30396" lon="2.58692">
        <ele>88</ele>
        <time>2009-02-01T10:11:09Z</time>
      </trkpt>
      <trkpt lat="48.30385" lon="2.58707">
        <ele>87</ele>
        <time>2009-02-01T10:11:13Z</time>
      </trkpt>
      <trkpt lat="48.30379" lon="2.58706">
        <ele>87</ele>
        <time>2009-02-01T10:11:15Z</time>
      </trkpt>
      <trkpt lat="48.30371" lon="2.587">
        <ele>87</ele>
        <time>2009-02-01T10:11:17Z</time>
      </trkpt>
      <trkpt lat="48.30354" lon="2.58654">
        <ele>88</ele>
        <time>2009-02-01T10:11:25Z</time>
      </trkpt>
      <trkpt lat="48.30352" lon="2.58648">
        <ele>88</ele>
        <time>2009-02-01T10:11:26Z</time>
      </trkpt>
      <trkpt lat="48.30336" lon="2.58582">
        <ele>89</ele>
        <time>2009-02-01T10:11:37Z</time>
      </trkpt>
      <trkpt lat="48.30327" lon="2.58547">
        <ele>89</ele>
        <time>2009-02-01T10:11:44Z</time>
      </trkpt>
      <trkpt lat="48.30307" lon="2.5851">
        <ele>90</ele>
        <time>2009-02-01T10:11:51Z</time>
      </trkpt>
      <trkpt lat="48.30304" lon="2.58497">
        <ele>91</ele>
        <time>2009-02-01T10:11:54Z</time>
      </trkpt>
      <trkpt lat="48.30297" lon="2.58478">
        <ele>91</ele>
        <time>2009-02-01T10:12:00Z</time>
      </trkpt>
      <trkpt lat="48.30288" lon="2.58462">
        <ele>91</ele>
        <time>2009-02-01T10:12:05Z</time>
      </trkpt>
      <trkpt lat="48.30252" lon="2.58434">
        <ele>89</ele>
        <time>2009-02-01T10:12:16Z</time>
      </trkpt>
      <trkpt lat="48.30245" lon="2.58431">
        <ele>89</ele>
        <time>2009-02-01T10:12:18Z</time>
      </trkpt>
      <trkpt lat="48.30236" lon="2.58446">
        <ele>87</ele>
        <time>2009-02-01T10:12:24Z</time>
      </trkpt>
      <trkpt lat="48.30217" lon="2.5847">
        <ele>84</ele>
        <time>2009-02-01T10:12:29Z</time>
      </trkpt>
      <trkpt lat="48.30207" lon="2.58475">
        <ele>83</ele>
        <time>2009-02-01T10:12:31Z</time>
      </trkpt>
      <trkpt lat="48.3019" lon="2.58488">
        <ele>82</ele>
        <time>2009-02-01T10:12:37Z</time>
      </trkpt>
      <trkpt lat="48.30167" lon="2.58472">
        <ele>82</ele>
        <time>2009-02-01T10:12:43Z</time>
      </trkpt>
      <trkpt lat="48.30153" lon="2.58454">
        <ele>82</ele>
        <time>2009-02-01T10:12:47Z</time>
      </trkpt>
      <trkpt lat="48.30132" lon="2.58413">
        <ele>83</ele>
        <time>2009-02-01T10:12:55Z</time>
      </trkpt>
      <trkpt lat="48.30092" lon="2.58399">
        <ele>81</ele>
        <time>2009-02-01T10:13:05Z</time>
      </trkpt>
      <trkpt lat="48.30054" lon="2.58416">
        <ele>77</ele>
        <time>2009-02-01T10:13:13Z</time>
      </trkpt>
      <trkpt lat="48.30044" lon="2.58419">
        <ele>77</ele>
        <time>2009-02-01T10:13:15Z</time>
      </trkpt>
      <trkpt lat="48.29966" lon="2.58386">
        <ele>77</ele>
        <time>2009-02-01T10:13:31Z</time>
      </trkpt>
      <trkpt lat="48.29941" lon="2.58346">
        <ele>78</ele>
        <time>2009-02-01T10:13:39Z</time>
      </trkpt>
      <trkpt lat="48.29932" lon="2.5827">
        <ele>82</ele>
        <time>2009-02-01T10:13:54Z</time>
      </trkpt>
      <trkpt lat="48.29933" lon="2.58218">
        <ele>84</ele>
        <time>2009-02-01T10:14:08Z</time>
      </trkpt>
      <trkpt lat="48.2995" lon="2.58155">
        <ele>89</ele>
        <time>2009-02-01T10:14:22Z</time>
      </trkpt>
      <trkpt lat="48.29989" lon="2.58105">
        <ele>90</ele>
        <time>2009-02-01T10:14:36Z</time>
      </trkpt>
      <trkpt lat="48.30024" lon="2.58032">
        <ele>88</ele>
        <time>2009-02-01T10:14:51Z</time>
      </trkpt>
      <trkpt lat="48.30021" lon="2.58001">
        <ele>85</ele>
        <time>2009-02-01T10:14:57Z</time>
      </trkpt>
      <trkpt lat="48.30011" lon="2.57943">
        <ele>86</ele>
        <time>2009-02-01T10:15:11Z</time>
      </trkpt>
      <trkpt lat="48.29988" lon="2.57889">
        <ele>91</ele>
        <time>2009-02-01T10:15:26Z</time>
      </trkpt>
      <trkpt lat="48.29948" lon="2.57839">
        <ele>95</ele>
        <time>2009-02-01T10:15:46Z</time>
      </trkpt>
      <trkpt lat="48.2993" lon="2.5785">
        <ele>101</ele>
        <time>2009-02-01T10:15:57Z</time>
      </trkpt>
      <trkpt lat="48.29917" lon="2.57898">
        <ele>104</ele>
        <time>2009-02-01T10:16:13Z</time>
      </trkpt>
      <trkpt lat="48.29909" lon="2.57918">
        <ele>103</ele>
        <time>2009-02-01T10:16:20Z</time>
      </trkpt>
      <trkpt lat="48.29893" lon="2.57918">
        <ele>103</ele>
        <time>2009-02-01T10:16:30Z</time>
      </trkpt>
      <trkpt lat="48.29905" lon="2.57868">
        <ele>106</ele>
        <time>2009-02-01T10:16:46Z</time>
      </trkpt>
      <trkpt lat="48.29902" lon="2.57814">
        <ele>105</ele>
        <time>2009-02-01T10:17:03Z</time>
      </trkpt>
      <trkpt lat="48.29876" lon="2.57793">
        <ele>109</ele>
        <time>2009-02-01T10:17:15Z</time>
      </trkpt>
      <trkpt lat="48.29859" lon="2.57785">
        <ele>110</ele>
        <time>2009-02-01T10:17:19Z</time>
      </trkpt>
      <trkpt lat="48.29837" lon="2.57784">
        <ele>114</ele>
        <time>2009-02-01T10:17:25Z</time>
      </trkpt>
      <trkpt lat="48.29834" lon="2.57785">
        <ele>114</ele>
        <time>2009-02-01T10:17:26Z</time>
      </trkpt>
      <trkpt lat="48.29832" lon="2.57789">
        <ele>115</ele>
        <time>2009-02-01T10:17:28Z</time>
      </trkpt>
      <trkpt lat="48.29835" lon="2.578">
        <ele>114</ele>
        <time>2009-02-01T10:17:31Z</time>
      </trkpt>
      <trkpt lat="48.29836" lon="2.57816">
        <ele>114</ele>
        <time>2009-02-01T10:17:34Z</time>
      </trkpt>
      <trkpt lat="48.29838" lon="2.57865">
        <ele>107</ele>
        <time>2009-02-01T10:17:44Z</time>
      </trkpt>
      <trkpt lat="48.29832" lon="2.57892">
        <ele>102</ele>
        <time>2009-02-01T10:17:49Z</time>
      </trkpt>
      <trkpt lat="48.29827" lon="2.57905">
        <ele>100</ele>
        <time>2009-02-01T10:17:51Z</time>
      </trkpt>
      <trkpt lat="48.2982" lon="2.57947">
        <ele>94</ele>
        <time>2009-02-01T10:17:55Z</time>
      </trkpt>
      <trkpt lat="48.29802" lon="2.57989">
        <ele>91</ele>
        <time>2009-02-01T10:18:02Z</time>
      </trkpt>
      <trkpt lat="48.29787" lon="2.57994">
        <ele>90</ele>
        <time>2009-02-01T10:18:06Z</time>
      </trkpt>
      <trkpt lat="48.29765" lon="2.58007">
        <ele>91</ele>
        <time>2009-02-01T10:18:11Z</time>
      </trkpt>
      <trkpt lat="48.29745" lon="2.58026">
        <ele>91</ele>
        <time>2009-02-01T10:18:19Z</time>
      </trkpt>
      <trkpt lat="48.29734" lon="2.58018">
        <ele>92</ele>
        <time>2009-02-01T10:18:22Z</time>
      </trkpt>
      <trkpt lat="48.2969" lon="2.58019">
        <ele>88</ele>
        <time>2009-02-01T10:18:30Z</time>
      </trkpt>
      <trkpt lat="48.29678" lon="2.58057">
        <ele>87</ele>
        <time>2009-02-01T10:18:35Z</time>
      </trkpt>
      <trkpt lat="48.29693" lon="2.58132">
        <ele>86</ele>
        <time>2009-02-01T10:18:45Z</time>
      </trkpt>
      <trkpt lat="48.29698" lon="2.58153">
        <ele>86</ele>
        <time>2009-02-01T10:18:48Z</time>
      </trkpt>
      <trkpt lat="48.29696" lon="2.58222">
        <ele>83</ele>
        <time>2009-02-01T10:18:58Z</time>
      </trkpt>
      <trkpt lat="48.29681" lon="2.58229">
        <ele>83</ele>
        <time>2009-02-01T10:19:01Z</time>
      </trkpt>
      <trkpt lat="48.29653" lon="2.58239">
        <ele>81</ele>
        <time>2009-02-01T10:19:06Z</time>
      </trkpt>
      <trkpt lat="48.29631" lon="2.5827">
        <ele>79</ele>
        <time>2009-02-01T10:19:11Z</time>
      </trkpt>
      <trkpt lat="48.29619" lon="2.58312">
        <ele>79</ele>
        <time>2009-02-01T10:19:16Z</time>
      </trkpt>
      <trkpt lat="48.29604" lon="2.58414">
        <ele>78</ele>
        <time>2009-02-01T10:19:28Z</time>
      </trkpt>
      <trkpt lat="48.29605" lon="2.58438">
        <ele>78</ele>
        <time>2009-02-01T10:19:31Z</time>
      </trkpt>
      <trkpt lat="48.29611" lon="2.5847">
        <ele>77</ele>
        <time>2009-02-01T10:19:35Z</time>
      </trkpt>
      <trkpt lat="48.29598" lon="2.58504">
        <ele>77</ele>
        <time>2009-02-01T10:19:43Z</time>
      </trkpt>
      <trkpt lat="48.29583" lon="2.58456">
        <ele>76</ele>
        <time>2009-02-01T10:19:51Z</time>
      </trkpt>
      <trkpt lat="48.29539" lon="2.58363">
        <ele>78</ele>
        <time>2009-02-01T10:20:07Z</time>
      </trkpt>
      <trkpt lat="48.2951" lon="2.58301">
        <ele>83</ele>
        <time>2009-02-01T10:20:20Z</time>
      </trkpt>
      <trkpt lat="48.29473" lon="2.58246">
        <ele>87</ele>
        <time>2009-02-01T10:20:33Z</time>
      </trkpt>
      <trkpt lat="48.29433" lon="2.58232">
        <ele>85</ele>
        <time>2009-02-01T10:20:43Z</time>
      </trkpt>
      <trkpt lat="48.29349" lon="2.58219">
        <ele>86</ele>
        <time>2009-02-01T10:21:02Z</time>
      </trkpt>
      <trkpt lat="48.29299" lon="2.5822">
        <ele>89</ele>
        <time>2009-02-01T10:21:16Z</time>
      </trkpt>
      <trkpt lat="48.29263" lon="2.58243">
        <ele>89</ele>
        <time>2009-02-01T10:21:28Z</time>
      </trkpt>
      <trkpt lat="48.29235" lon="2.58248">
        <ele>91</ele>
        <time>2009-02-01T10:21:39Z</time>
      </trkpt>
      <trkpt lat="48.29214" lon="2.58213">
        <ele>94</ele>
        <time>2009-02-01T10:21:52Z</time>
      </trkpt>
      <trkpt lat="48.29201" lon="2.58177">
        <ele>97</ele>
        <time>2009-02-01T10:22:04Z</time>
      </trkpt>
      <trkpt lat="48.29201" lon="2.58166">
        <ele>97</ele>
        <time>2009-02-01T10:22:07Z</time>
      </trkpt>
      <trkpt lat="48.29187" lon="2.58152">
        <ele>100</ele>
        <time>2009-02-01T10:22:14Z</time>
      </trkpt>
      <trkpt lat="48.29162" lon="2.58178">
        <ele>102</ele>
        <time>2009-02-01T10:22:27Z</time>
      </trkpt>
      <trkpt lat="48.29164" lon="2.5822">
        <ele>101</ele>
        <time>2009-02-01T10:22:36Z</time>
      </trkpt>
      <trkpt lat="48.29167" lon="2.5825">
        <ele>98</ele>
        <time>2009-02-01T10:22:40Z</time>
      </trkpt>
      <trkpt lat="48.29169" lon="2.58292">
        <ele>97</ele>
        <time>2009-02-01T10:22:46Z</time>
      </trkpt>
      <trkpt lat="48.29158" lon="2.58326">
        <ele>96</ele>
        <time>2009-02-01T10:22:51Z</time>
      </trkpt>
      <trkpt lat="48.29135" lon="2.58355">
        <ele>97</ele>
        <time>2009-02-01T10:22:56Z</time>
      </trkpt>
      <trkpt lat="48.29115" lon="2.5837">
        <ele>99</ele>
        <time>2009-02-01T10:23:00Z</time>
      </trkpt>
      <trkpt lat="48.29093" lon="2.5838">
        <ele>101</ele>
        <time>2009-02-01T10:23:05Z</time>
      </trkpt>
      <trkpt lat="48.2905" lon="2.58369">
        <ele>106</ele>
        <time>2009-02-01T10:23:17Z</time>
      </trkpt>
      <trkpt lat="48.29047" lon="2.58367">
        <ele>106</ele>
        <time>2009-02-01T10:23:18Z</time>
      </trkpt>
      <trkpt lat="48.29038" lon="2.58361">
        <ele>107</ele>
        <time>2009-02-01T10:23:21Z</time>
      </trkpt>
      <trkpt lat="48.2901" lon="2.58344">
        <ele>110</ele>
        <time>2009-02-01T10:23:30Z</time>
      </trkpt>
      <trkpt lat="48.28971" lon="2.58344">
        <ele>113</ele>
        <time>2009-02-01T10:23:42Z</time>
      </trkpt>
      <trkpt lat="48.28961" lon="2.58345">
        <ele>114</ele>
        <time>2009-02-01T10:23:46Z</time>
      </trkpt>
      <trkpt lat="48.28955" lon="2.58346">
        <ele>115</ele>
        <time>2009-02-01T10:23:49Z</time>
      </trkpt>
      <trkpt lat="48.28914" lon="2.58345">
        <ele>118</ele>
        <time>2009-02-01T10:24:06Z</time>
      </trkpt>
      <trkpt lat="48.28905" lon="2.58333">
        <ele>118</ele>
        <time>2009-02-01T10:24:12Z</time>
      </trkpt>
      <trkpt lat="48.28893" lon="2.58317">
        <ele>118</ele>
        <time>2009-02-01T10:24:20Z</time>
      </trkpt>
      <trkpt lat="48.28892" lon="2.58321">
        <ele>118</ele>
        <time>2009-02-01T10:24:28Z</time>
      </trkpt>
      <trkpt lat="48.28893" lon="2.58368">
        <ele>119</ele>
        <time>2009-02-01T10:24:59Z</time>
      </trkpt>
      <trkpt lat="48.28894" lon="2.58442">
        <ele>118</ele>
        <time>2009-02-01T10:25:15Z</time>
      </trkpt>
      <trkpt lat="48.28933" lon="2.58471">
        <ele>115</ele>
        <time>2009-02-01T10:25:28Z</time>
      </trkpt>
      <trkpt lat="48.28969" lon="2.58505">
        <ele>117</ele>
        <time>2009-02-01T10:25:39Z</time>
      </trkpt>
      <trkpt lat="48.28991" lon="2.58529">
        <ele>118</ele>
        <time>2009-02-01T10:25:46Z</time>
      </trkpt>
      <trkpt lat="48.29004" lon="2.5854">
        <ele>119</ele>
        <time>2009-02-01T10:25:51Z</time>
      </trkpt>
      <trkpt lat="48.29027" lon="2.58568">
        <ele>121</ele>
        <time>2009-02-01T10:26:01Z</time>
      </trkpt>
      <trkpt lat="48.29038" lon="2.58611">
        <ele>120</ele>
        <time>2009-02-01T10:26:11Z</time>
      </trkpt>
      <trkpt lat="48.2904" lon="2.58631">
        <ele>119</ele>
        <time>2009-02-01T10:26:16Z</time>
      </trkpt>
      <trkpt lat="48.29064" lon="2.58646">
        <ele>117</ele>
        <time>2009-02-01T10:26:25Z</time>
      </trkpt>
      <trkpt lat="48.29098" lon="2.58652">
        <ele>115</ele>
        <time>2009-02-01T10:26:34Z</time>
      </trkpt>
      <trkpt lat="48.29105" lon="2.58653">
        <ele>114</ele>
        <time>2009-02-01T10:26:36Z</time>
      </trkpt>
      <trkpt lat="48.29111" lon="2.58692">
        <ele>117</ele>
        <time>2009-02-01T10:26:46Z</time>
      </trkpt>
      <trkpt lat="48.29108" lon="2.587">
        <ele>117</ele>
        <time>2009-02-01T10:26:48Z</time>
      </trkpt>
      <trkpt lat="48.29122" lon="2.58729">
        <ele>115</ele>
        <time>2009-02-01T10:26:56Z</time>
      </trkpt>
      <trkpt lat="48.29134" lon="2.58748">
        <ele>112</ele>
        <time>2009-02-01T10:27:00Z</time>
      </trkpt>
      <trkpt lat="48.29146" lon="2.58762">
        <ele>109</ele>
        <time>2009-02-01T10:27:04Z</time>
      </trkpt>
      <trkpt lat="48.29149" lon="2.5877">
        <ele>108</ele>
        <time>2009-02-01T10:27:08Z</time>
      </trkpt>
      <trkpt lat="48.29152" lon="2.58771">
        <ele>108</ele>
        <time>2009-02-01T10:27:16Z</time>
      </trkpt>
      <trkpt lat="48.29157" lon="2.58765">
        <ele>107</ele>
        <time>2009-02-01T10:27:19Z</time>
      </trkpt>
      <trkpt lat="48.29167" lon="2.58774">
        <ele>105</ele>
        <time>2009-02-01T10:27:23Z</time>
      </trkpt>
      <trkpt lat="48.29174" lon="2.58794">
        <ele>102</ele>
        <time>2009-02-01T10:27:27Z</time>
      </trkpt>
      <trkpt lat="48.29177" lon="2.58814">
        <ele>99</ele>
        <time>2009-02-01T10:27:37Z</time>
      </trkpt>
      <trkpt lat="48.2918" lon="2.58817">
        <ele>98</ele>
        <time>2009-02-01T10:27:39Z</time>
      </trkpt>
      <trkpt lat="48.29182" lon="2.58819">
        <ele>98</ele>
        <time>2009-02-01T10:27:40Z</time>
      </trkpt>
      <trkpt lat="48.29191" lon="2.58832">
        <ele>94</ele>
        <time>2009-02-01T10:27:43Z</time>
      </trkpt>
      <trkpt lat="48.29212" lon="2.5886">
        <ele>91</ele>
        <time>2009-02-01T10:27:51Z</time>
      </trkpt>
      <trkpt lat="48.29222" lon="2.58861">
        <ele>91</ele>
        <time>2009-02-01T10:27:56Z</time>
      </trkpt>
      <trkpt lat="48.29225" lon="2.58865">
        <ele>90</ele>
        <time>2009-02-01T10:27:58Z</time>
      </trkpt>
      <trkpt lat="48.29225" lon="2.58914">
        <ele>89</ele>
        <time>2009-02-01T10:28:08Z</time>
      </trkpt>
      <trkpt lat="48.29223" lon="2.5893">
        <ele>89</ele>
        <time>2009-02-01T10:28:11Z</time>
      </trkpt>
      <trkpt lat="48.29214" lon="2.58943">
        <ele>89</ele>
        <time>2009-02-01T10:28:15Z</time>
      </trkpt>
      <trkpt lat="48.29204" lon="2.58951">
        <ele>91</ele>
        <time>2009-02-01T10:28:19Z</time>
      </trkpt>
      <trkpt lat="48.29198" lon="2.58937">
        <ele>91</ele>
        <time>2009-02-01T10:28:28Z</time>
      </trkpt>
      <trkpt lat="48.29192" lon="2.5892">
        <ele>92</ele>
        <time>2009-02-01T10:28:33Z</time>
      </trkpt>
      <trkpt lat="48.29177" lon="2.58888">
        <ele>94</ele>
        <time>2009-02-01T10:28:44Z</time>
      </trkpt>
      <trkpt lat="48.29174" lon="2.58882">
        <ele>95</ele>
        <time>2009-02-01T10:28:46Z</time>
      </trkpt>
      <trkpt lat="48.29167" lon="2.58853">
        <ele>97</ele>
        <time>2009-02-01T10:28:55Z</time>
      </trkpt>
      <trkpt lat="48.29157" lon="2.58848">
        <ele>100</ele>
        <time>2009-02-01T10:29:02Z</time>
      </trkpt>
      <trkpt lat="48.29151" lon="2.5884">
        <ele>101</ele>
        <time>2009-02-01T10:29:06Z</time>
      </trkpt>
      <trkpt lat="48.29146" lon="2.58831">
        <ele>103</ele>
        <time>2009-02-01T10:29:12Z</time>
      </trkpt>
      <trkpt lat="48.2914" lon="2.58815">
        <ele>106</ele>
        <time>2009-02-01T10:29:22Z</time>
      </trkpt>
      <trkpt lat="48.29125" lon="2.58806">
        <ele>109</ele>
        <time>2009-02-01T10:29:34Z</time>
      </trkpt>
      <trkpt lat="48.29114" lon="2.58787">
        <ele>112</ele>
        <time>2009-02-01T10:29:46Z</time>
      </trkpt>
      <trkpt lat="48.29099" lon="2.58781">
        <ele>113</ele>
        <time>2009-02-01T10:29:56Z</time>
      </trkpt>
      <trkpt lat="48.29082" lon="2.58764">
        <ele>115</ele>
        <time>2009-02-01T10:30:08Z</time>
      </trkpt>
      <trkpt lat="48.2908" lon="2.5876">
        <ele>115</ele>
        <time>2009-02-01T10:30:10Z</time>
      </trkpt>
      <trkpt lat="48.29077" lon="2.5875">
        <ele>116</ele>
        <time>2009-02-01T10:30:16Z</time>
      </trkpt>
      <trkpt lat="48.29057" lon="2.58739">
        <ele>117</ele>
        <time>2009-02-01T10:30:29Z</time>
      </trkpt>
      <trkpt lat="48.2905" lon="2.58737">
        <ele>117</ele>
        <time>2009-02-01T10:30:34Z</time>
      </trkpt>
      <trkpt lat="48.29031" lon="2.58725">
        <ele>117</ele>
        <time>2009-02-01T10:30:45Z</time>
      </trkpt>
      <trkpt lat="48.2902" lon="2.5873">
        <ele>117</ele>
        <time>2009-02-01T10:30:51Z</time>
      </trkpt>
      <trkpt lat="48.29001" lon="2.58764">
        <ele>117</ele>
        <time>2009-02-01T10:31:05Z</time>
      </trkpt>
      <trkpt lat="48.2897" lon="2.58837">
        <ele>119</ele>
        <time>2009-02-01T10:31:26Z</time>
      </trkpt>
      <trkpt lat="48.28954" lon="2.58881">
        <ele>121</ele>
        <time>2009-02-01T10:31:38Z</time>
      </trkpt>
      <trkpt lat="48.28954" lon="2.58884">
        <ele>121</ele>
        <time>2009-02-01T10:31:39Z</time>
      </trkpt>
      <trkpt lat="48.2898" lon="2.58903">
        <ele>121</ele>
        <time>2009-02-01T10:31:48Z</time>
      </trkpt>
      <trkpt lat="48.28987" lon="2.58906">
        <ele>121</ele>
        <time>2009-02-01T10:31:50Z</time>
      </trkpt>
      <trkpt lat="48.29013" lon="2.58909">
        <ele>120</ele>
        <time>2009-02-01T10:31:58Z</time>
      </trkpt>
      <trkpt lat="48.29011" lon="2.58952">
        <ele>121</ele>
        <time>2009-02-01T10:32:06Z</time>
      </trkpt>
      <trkpt lat="48.29015" lon="2.58964">
        <ele>121</ele>
        <time>2009-02-01T10:32:08Z</time>
      </trkpt>
      <trkpt lat="48.29012" lon="2.58991">
        <ele>120</ele>
        <time>2009-02-01T10:32:13Z</time>
      </trkpt>
      <trkpt lat="48.29001" lon="2.59002">
        <ele>119</ele>
        <time>2009-02-01T10:32:16Z</time>
      </trkpt>
      <trkpt lat="48.28978" lon="2.59025">
        <ele>118</ele>
        <time>2009-02-01T10:32:23Z</time>
      </trkpt>
      <trkpt lat="48.2897" lon="2.59092">
        <ele>117</ele>
        <time>2009-02-01T10:32:32Z</time>
      </trkpt>
      <trkpt lat="48.28966" lon="2.59116">
        <ele>118</ele>
        <time>2009-02-01T10:32:36Z</time>
      </trkpt>
      <trkpt lat="48.28984" lon="2.5915">
        <ele>119</ele>
        <time>2009-02-01T10:32:43Z</time>
      </trkpt>
      <trkpt lat="48.28998" lon="2.59182">
        <ele>119</ele>
        <time>2009-02-01T10:32:49Z</time>
      </trkpt>
      <trkpt lat="48.29003" lon="2.59214">
        <ele>119</ele>
        <time>2009-02-01T10:32:54Z</time>
      </trkpt>
      <trkpt lat="48.29005" lon="2.59228">
        <ele>118</ele>
        <time>2009-02-01T10:32:56Z</time>
      </trkpt>
      <trkpt lat="48.29004" lon="2.59241">
        <ele>118</ele>
        <time>2009-02-01T10:32:58Z</time>
      </trkpt>
      <trkpt lat="48.29022" lon="2.59283">
        <ele>118</ele>
        <time>2009-02-01T10:33:06Z</time>
      </trkpt>
      <trkpt lat="48.29027" lon="2.59308">
        <ele>118</ele>
        <time>2009-02-01T10:33:11Z</time>
      </trkpt>
      <trkpt lat="48.29034" lon="2.59337">
        <ele>117</ele>
        <time>2009-02-01T10:33:17Z</time>
      </trkpt>
      <trkpt lat="48.29039" lon="2.5934">
        <ele>117</ele>
        <time>2009-02-01T10:33:19Z</time>
      </trkpt>
      <trkpt lat="48.29049" lon="2.59352">
        <ele>117</ele>
        <time>2009-02-01T10:33:22Z</time>
      </trkpt>
      <trkpt lat="48.29056" lon="2.59365">
        <ele>116</ele>
        <time>2009-02-01T10:33:24Z</time>
      </trkpt>
      <trkpt lat="48.29066" lon="2.59384">
        <ele>115</ele>
        <time>2009-02-01T10:33:27Z</time>
      </trkpt>
      <trkpt lat="48.29071" lon="2.59414">
        <ele>114</ele>
        <time>2009-02-01T10:33:32Z</time>
      </trkpt>
      <trkpt lat="48.29076" lon="2.59475">
        <ele>111</ele>
        <time>2009-02-01T10:33:43Z</time>
      </trkpt>
      <trkpt lat="48.29076" lon="2.59479">
        <ele>111</ele>
        <time>2009-02-01T10:33:44Z</time>
      </trkpt>
      <trkpt lat="48.29084" lon="2.59498">
        <ele>109</ele>
        <time>2009-02-01T10:33:50Z</time>
      </trkpt>
      <trkpt lat="48.2909" lon="2.59507">
        <ele>109</ele>
        <time>2009-02-01T10:33:55Z</time>
      </trkpt>
      <trkpt lat="48.29109" lon="2.59536">
        <ele>105</ele>
        <time>2009-02-01T10:34:04Z</time>
      </trkpt>
      <trkpt lat="48.29125" lon="2.59562">
        <ele>100</ele>
        <time>2009-02-01T10:34:10Z</time>
      </trkpt>
      <trkpt lat="48.29129" lon="2.59566">
        <ele>98</ele>
        <time>2009-02-01T10:34:11Z</time>
      </trkpt>
      <trkpt lat="48.29135" lon="2.59569">
        <ele>97</ele>
        <time>2009-02-01T10:34:13Z</time>
      </trkpt>
      <trkpt lat="48.29142" lon="2.59604">
        <ele>90</ele>
        <time>2009-02-01T10:34:20Z</time>
      </trkpt>
      <trkpt lat="48.29127" lon="2.59647">
        <ele>85</ele>
        <time>2009-02-01T10:34:28Z</time>
      </trkpt>
      <trkpt lat="48.29102" lon="2.59677">
        <ele>84</ele>
        <time>2009-02-01T10:34:38Z</time>
      </trkpt>
      <trkpt lat="48.29095" lon="2.59679">
        <ele>84</ele>
        <time>2009-02-01T10:34:40Z</time>
      </trkpt>
      <trkpt lat="48.29082" lon="2.59688">
        <ele>83</ele>
        <time>2009-02-01T10:34:51Z</time>
      </trkpt>
      <trkpt lat="48.29075" lon="2.59687">
        <ele>83</ele>
        <time>2009-02-01T10:34:54Z</time>
      </trkpt>
      <trkpt lat="48.29055" lon="2.59681">
        <ele>85</ele>
        <time>2009-02-01T10:35:04Z</time>
      </trkpt>
      <trkpt lat="48.29052" lon="2.59678">
        <ele>86</ele>
        <time>2009-02-01T10:35:08Z</time>
      </trkpt>
      <trkpt lat="48.29051" lon="2.59676">
        <ele>87</ele>
        <time>2009-02-01T10:35:14Z</time>
      </trkpt>
      <trkpt lat="48.29046" lon="2.59673">
        <ele>87</ele>
        <time>2009-02-01T10:35:24Z</time>
      </trkpt>
      <trkpt lat="48.29042" lon="2.59669">
        <ele>88</ele>
        <time>2009-02-01T10:35:31Z</time>
      </trkpt>
      <trkpt lat="48.29036" lon="2.59665">
        <ele>89</ele>
        <time>2009-02-01T10:35:36Z</time>
      </trkpt>
      <trkpt lat="48.29029" lon="2.59659">
        <ele>90</ele>
        <time>2009-02-01T10:35:44Z</time>
      </trkpt>
      <trkpt lat="48.29027" lon="2.59657">
        <ele>91</ele>
        <time>2009-02-01T10:35:47Z</time>
      </trkpt>
      <trkpt lat="48.28999" lon="2.59651">
        <ele>91</ele>
        <time>2009-02-01T10:36:00Z</time>
      </trkpt>
      <trkpt lat="48.28984" lon="2.59639">
        <ele>91</ele>
        <time>2009-02-01T10:36:06Z</time>
      </trkpt>
      <trkpt lat="48.28981" lon="2.59631">
        <ele>92</ele>
        <time>2009-02-01T10:36:10Z</time>
      </trkpt>
      <trkpt lat="48.28971" lon="2.59628">
        <ele>90</ele>
        <time>2009-02-01T10:36:18Z</time>
      </trkpt>
      <trkpt lat="48.28968" lon="2.59626">
        <ele>90</ele>
        <time>2009-02-01T10:36:25Z</time>
      </trkpt>
      <trkpt lat="48.28965" lon="2.59615">
        <ele>91</ele>
        <time>2009-02-01T10:36:34Z</time>
      </trkpt>
      <trkpt lat="48.28963" lon="2.59616">
        <ele>90</ele>
        <time>2009-02-01T10:36:38Z</time>
      </trkpt>
      <trkpt lat="48.28963" lon="2.59616">
        <ele>90</ele>
        <time>2009-02-01T10:36:39Z</time>
      </trkpt>
      <trkpt lat="48.28959" lon="2.59618">
        <ele>89</ele>
        <time>2009-02-01T10:38:57Z</time>
      </trkpt>
      <trkpt lat="48.28959" lon="2.59618">
        <ele>89</ele>
        <time>2009-02-01T10:38:58Z</time>
      </trkpt>
      <trkpt lat="48.28955" lon="2.59607">
        <ele>90</ele>
        <time>2009-02-01T10:39:12Z</time>
      </trkpt>
      <trkpt lat="48.28954" lon="2.59594">
        <ele>92</ele>
        <time>2009-02-01T10:39:19Z</time>
      </trkpt>
      <trkpt lat="48.28944" lon="2.59567">
        <ele>93</ele>
        <time>2009-02-01T10:39:28Z</time>
      </trkpt>
      <trkpt lat="48.28945" lon="2.59564">
        <ele>94</ele>
        <time>2009-02-01T10:39:30Z</time>
      </trkpt>
      <trkpt lat="48.28953" lon="2.59559">
        <ele>96</ele>
        <time>2009-02-01T10:39:36Z</time>
      </trkpt>
      <trkpt lat="48.28963" lon="2.59556">
        <ele>98</ele>
        <time>2009-02-01T10:39:43Z</time>
      </trkpt>
      <trkpt lat="48.28968" lon="2.5955">
        <ele>99</ele>
        <time>2009-02-01T10:39:49Z</time>
      </trkpt>
      <trkpt lat="48.28972" lon="2.59524">
        <ele>101</ele>
        <time>2009-02-01T10:40:50Z</time>
      </trkpt>
      <trkpt lat="48.28977" lon="2.59508">
        <ele>104</ele>
        <time>2009-02-01T10:40:56Z</time>
      </trkpt>
      <trkpt lat="48.28991" lon="2.59496">
        <ele>107</ele>
        <time>2009-02-01T10:41:05Z</time>
      </trkpt>
      <trkpt lat="48.28993" lon="2.5949">
        <ele>108</ele>
        <time>2009-02-01T10:41:08Z</time>
      </trkpt>
      <trkpt lat="48.28995" lon="2.59478">
        <ele>109</ele>
        <time>2009-02-01T10:41:13Z</time>
      </trkpt>
      <trkpt lat="48.28995" lon="2.59467">
        <ele>110</ele>
        <time>2009-02-01T10:41:17Z</time>
      </trkpt>
      <trkpt lat="48.28989" lon="2.59436">
        <ele>111</ele>
        <time>2009-02-01T10:41:30Z</time>
      </trkpt>
      <trkpt lat="48.28987" lon="2.59419">
        <ele>112</ele>
        <time>2009-02-01T10:41:37Z</time>
      </trkpt>
      <trkpt lat="48.28986" lon="2.59404">
        <ele>113</ele>
        <time>2009-02-01T10:41:44Z</time>
      </trkpt>
      <trkpt lat="48.28987" lon="2.59393">
        <ele>114</ele>
        <time>2009-02-01T10:41:48Z</time>
      </trkpt>
      <trkpt lat="48.28988" lon="2.59385">
        <ele>115</ele>
        <time>2009-02-01T10:41:51Z</time>
      </trkpt>
      <trkpt lat="48.2899" lon="2.59378">
        <ele>115</ele>
        <time>2009-02-01T10:41:55Z</time>
      </trkpt>
      <trkpt lat="48.28995" lon="2.59367">
        <ele>116</ele>
        <time>2009-02-01T10:42:02Z</time>
      </trkpt>
      <trkpt lat="48.28995" lon="2.59356">
        <ele>117</ele>
        <time>2009-02-01T10:42:07Z</time>
      </trkpt>
      <trkpt lat="48.28995" lon="2.59352">
        <ele>117</ele>
        <time>2009-02-01T10:42:09Z</time>
      </trkpt>
      <trkpt lat="48.28998" lon="2.59339">
        <ele>117</ele>
        <time>2009-02-01T10:42:16Z</time>
      </trkpt>
      <trkpt lat="48.28991" lon="2.5932">
        <ele>118</ele>
        <time>2009-02-01T10:42:23Z</time>
      </trkpt>
      <trkpt lat="48.28983" lon="2.59287">
        <ele>118</ele>
        <time>2009-02-01T10:42:34Z</time>
      </trkpt>
      <trkpt lat="48.28977" lon="2.59272">
        <ele>118</ele>
        <time>2009-02-01T10:42:39Z</time>
      </trkpt>
      <trkpt lat="48.28971" lon="2.59266">
        <ele>117</ele>
        <time>2009-02-01T10:42:42Z</time>
      </trkpt>
      <trkpt lat="48.28958" lon="2.59272">
        <ele>117</ele>
        <time>2009-02-01T10:42:47Z</time>
      </trkpt>
      <trkpt lat="48.28948" lon="2.59315">
        <ele>118</ele>
        <time>2009-02-01T10:42:57Z</time>
      </trkpt>
      <trkpt lat="48.28935" lon="2.59328">
        <ele>116</ele>
        <time>2009-02-01T10:43:01Z</time>
      </trkpt>
      <trkpt lat="48.28914" lon="2.59341">
        <ele>113</ele>
        <time>2009-02-01T10:43:07Z</time>
      </trkpt>
      <trkpt lat="48.28899" lon="2.59346">
        <ele>111</ele>
        <time>2009-02-01T10:43:11Z</time>
      </trkpt>
      <trkpt lat="48.28888" lon="2.59346">
        <ele>109</ele>
        <time>2009-02-01T10:43:15Z</time>
      </trkpt>
      <trkpt lat="48.28884" lon="2.59348">
        <ele>109</ele>
        <time>2009-02-01T10:43:17Z</time>
      </trkpt>
      <trkpt lat="48.28878" lon="2.59347">
        <ele>107</ele>
        <time>2009-02-01T10:43:19Z</time>
      </trkpt>
      <trkpt lat="48.2886" lon="2.59345">
        <ele>104</ele>
        <time>2009-02-01T10:43:25Z</time>
      </trkpt>
      <trkpt lat="48.28841" lon="2.59341">
        <ele>100</ele>
        <time>2009-02-01T10:43:30Z</time>
      </trkpt>
      <trkpt lat="48.28823" lon="2.59345">
        <ele>94</ele>
        <time>2009-02-01T10:43:39Z</time>
      </trkpt>
      <trkpt lat="48.28823" lon="2.59351">
        <ele>94</ele>
        <time>2009-02-01T10:43:45Z</time>
      </trkpt>
      <trkpt lat="48.28823" lon="2.59361">
        <ele>93</ele>
        <time>2009-02-01T10:45:27Z</time>
      </trkpt>
      <trkpt lat="48.28826" lon="2.59371">
        <ele>93</ele>
        <time>2009-02-01T10:45:30Z</time>
      </trkpt>
      <trkpt lat="48.28827" lon="2.59382">
        <ele>92</ele>
        <time>2009-02-01T10:45:34Z</time>
      </trkpt>
      <trkpt lat="48.28832" lon="2.59394">
        <ele>92</ele>
        <time>2009-02-01T10:45:39Z</time>
      </trkpt>
      <trkpt lat="48.28839" lon="2.59416">
        <ele>93</ele>
        <time>2009-02-01T10:45:49Z</time>
      </trkpt>
      <trkpt lat="48.28848" lon="2.59449">
        <ele>92</ele>
        <time>2009-02-01T10:45:58Z</time>
      </trkpt>
      <trkpt lat="48.28858" lon="2.59473">
        <ele>90</ele>
        <time>2009-02-01T10:46:04Z</time>
      </trkpt>
      <trkpt lat="48.28865" lon="2.59486">
        <ele>88</ele>
        <time>2009-02-01T10:46:10Z</time>
      </trkpt>
      <trkpt lat="48.28856" lon="2.59504">
        <ele>84</ele>
        <time>2009-02-01T10:46:15Z</time>
      </trkpt>
      <trkpt lat="48.28812" lon="2.59542">
        <ele>76</ele>
        <time>2009-02-01T10:46:23Z</time>
      </trkpt>
      <trkpt lat="48.28769" lon="2.59574">
        <ele>73</ele>
        <time>2009-02-01T10:46:33Z</time>
      </trkpt>
      <trkpt lat="48.28762" lon="2.59564">
        <ele>73</ele>
        <time>2009-02-01T10:46:37Z</time>
      </trkpt>
      <trkpt lat="48.28749" lon="2.59475">
        <ele>75</ele>
        <time>2009-02-01T10:46:53Z</time>
      </trkpt>
      <trkpt lat="48.28717" lon="2.59369">
        <ele>77</ele>
        <time>2009-02-01T10:47:13Z</time>
      </trkpt>
      <trkpt lat="48.28673" lon="2.59254">
        <ele>78</ele>
        <time>2009-02-01T10:47:34Z</time>
      </trkpt>
      <trkpt lat="48.28658" lon="2.59221">
        <ele>78</ele>
        <time>2009-02-01T10:47:40Z</time>
      </trkpt>
      <trkpt lat="48.28645" lon="2.59205">
        <ele>79</ele>
        <time>2009-02-01T10:47:44Z</time>
      </trkpt>
      <trkpt lat="48.28613" lon="2.59143">
        <ele>79</ele>
        <time>2009-02-01T10:47:57Z</time>
      </trkpt>
      <trkpt lat="48.2857" lon="2.59054">
        <ele>85</ele>
        <time>2009-02-01T10:48:16Z</time>
      </trkpt>
      <trkpt lat="48.28544" lon="2.59004">
        <ele>91</ele>
        <time>2009-02-01T10:48:29Z</time>
      </trkpt>
      <trkpt lat="48.28534" lon="2.58958">
        <ele>96</ele>
        <time>2009-02-01T10:48:41Z</time>
      </trkpt>
      <trkpt lat="48.28544" lon="2.58917">
        <ele>100</ele>
        <time>2009-02-01T10:48:51Z</time>
      </trkpt>
      <trkpt lat="48.28561" lon="2.58867">
        <ele>105</ele>
        <time>2009-02-01T10:49:04Z</time>
      </trkpt>
      <trkpt lat="48.28565" lon="2.58846">
        <ele>106</ele>
        <time>2009-02-01T10:49:10Z</time>
      </trkpt>
      <trkpt lat="48.28564" lon="2.58815">
        <ele>109</ele>
        <time>2009-02-01T10:49:21Z</time>
      </trkpt>
      <trkpt lat="48.28563" lon="2.58795">
        <ele>111</ele>
        <time>2009-02-01T10:49:28Z</time>
      </trkpt>
      <trkpt lat="48.28558" lon="2.58754">
        <ele>114</ele>
        <time>2009-02-01T10:49:42Z</time>
      </trkpt>
      <trkpt lat="48.28557" lon="2.58711">
        <ele>118</ele>
        <time>2009-02-01T10:50:02Z</time>
      </trkpt>
      <trkpt lat="48.2854" lon="2.58702">
        <ele>119</ele>
        <time>2009-02-01T10:50:16Z</time>
      </trkpt>
      <trkpt lat="48.28526" lon="2.58687">
        <ele>120</ele>
        <time>2009-02-01T10:50:27Z</time>
      </trkpt>
      <trkpt lat="48.28523" lon="2.58654">
        <ele>120</ele>
        <time>2009-02-01T10:50:37Z</time>
      </trkpt>
      <trkpt lat="48.28523" lon="2.58651">
        <ele>120</ele>
        <time>2009-02-01T10:50:47Z</time>
      </trkpt>
      <trkpt lat="48.28524" lon="2.58657">
        <ele>120</ele>
        <time>2009-02-01T10:50:48Z</time>
      </trkpt>
      <trkpt lat="48.28531" lon="2.58699">
        <ele>120</ele>
        <time>2009-02-01T10:50:57Z</time>
      </trkpt>
      <trkpt lat="48.28531" lon="2.58706">
        <ele>119</ele>
        <time>2009-02-01T10:50:59Z</time>
      </trkpt>
      <trkpt lat="48.28531" lon="2.58724">
        <ele>117</ele>
        <time>2009-02-01T10:51:03Z</time>
      </trkpt>
      <trkpt lat="48.28513" lon="2.58738">
        <ele>115</ele>
        <time>2009-02-01T10:51:13Z</time>
      </trkpt>
      <trkpt lat="48.28512" lon="2.58738">
        <ele>115</ele>
        <time>2009-02-01T10:51:16Z</time>
      </trkpt>
      <trkpt lat="48.28509" lon="2.58737">
        <ele>114</ele>
        <time>2009-02-01T10:51:22Z</time>
      </trkpt>
      <trkpt lat="48.28503" lon="2.5875">
        <ele>114</ele>
        <time>2009-02-01T10:51:27Z</time>
      </trkpt>
      <trkpt lat="48.28489" lon="2.58796">
        <ele>113</ele>
        <time>2009-02-01T10:51:34Z</time>
      </trkpt>
      <trkpt lat="48.28486" lon="2.58814">
        <ele>111</ele>
        <time>2009-02-01T10:51:38Z</time>
      </trkpt>
      <trkpt lat="48.28494" lon="2.58839">
        <ele>108</ele>
        <time>2009-02-01T10:51:44Z</time>
      </trkpt>
      <trkpt lat="48.28496" lon="2.58882">
        <ele>101</ele>
        <time>2009-02-01T10:51:49Z</time>
      </trkpt>
      <trkpt lat="48.28492" lon="2.58897">
        <ele>99</ele>
        <time>2009-02-01T10:51:53Z</time>
      </trkpt>
      <trkpt lat="48.28475" lon="2.58911">
        <ele>95</ele>
        <time>2009-02-01T10:52:00Z</time>
      </trkpt>
      <trkpt lat="48.28474" lon="2.58908">
        <ele>95</ele>
        <time>2009-02-01T10:52:01Z</time>
      </trkpt>
      <trkpt lat="48.28455" lon="2.58874">
        <ele>99</ele>
        <time>2009-02-01T10:52:13Z</time>
      </trkpt>
      <trkpt lat="48.28447" lon="2.58859">
        <ele>101</ele>
        <time>2009-02-01T10:52:18Z</time>
      </trkpt>
      <trkpt lat="48.28421" lon="2.58886">
        <ele>95</ele>
        <time>2009-02-01T10:52:26Z</time>
      </trkpt>
      <trkpt lat="48.28407" lon="2.58903">
        <ele>93</ele>
        <time>2009-02-01T10:52:29Z</time>
      </trkpt>
      <trkpt lat="48.28393" lon="2.58924">
        <ele>90</ele>
        <time>2009-02-01T10:52:32Z</time>
      </trkpt>
      <trkpt lat="48.28326" lon="2.59026">
        <ele>86</ele>
        <time>2009-02-01T10:52:48Z</time>
      </trkpt>
      <trkpt lat="48.28277" lon="2.59098">
        <ele>86</ele>
        <time>2009-02-01T10:53:05Z</time>
      </trkpt>
      <trkpt lat="48.28252" lon="2.59135">
        <ele>86</ele>
        <time>2009-02-01T10:53:15Z</time>
      </trkpt>
      <trkpt lat="48.28214" lon="2.59193">
        <ele>90</ele>
        <time>2009-02-01T10:53:33Z</time>
      </trkpt>
      <trkpt lat="48.28192" lon="2.59157">
        <ele>95</ele>
        <time>2009-02-01T10:53:44Z</time>
      </trkpt>
      <trkpt lat="48.28162" lon="2.59107">
        <ele>103</ele>
        <time>2009-02-01T10:53:58Z</time>
      </trkpt>
      <trkpt lat="48.28152" lon="2.5909">
        <ele>105</ele>
        <time>2009-02-01T10:54:03Z</time>
      </trkpt>
      <trkpt lat="48.28133" lon="2.59042">
        <ele>110</ele>
        <time>2009-02-01T10:54:16Z</time>
      </trkpt>
      <trkpt lat="48.28122" lon="2.59004">
        <ele>113</ele>
        <time>2009-02-01T10:54:28Z</time>
      </trkpt>
      <trkpt lat="48.28118" lon="2.59001">
        <ele>114</ele>
        <time>2009-02-01T10:54:31Z</time>
      </trkpt>
      <trkpt lat="48.28119" lon="2.59017">
        <ele>113</ele>
        <time>2009-02-01T10:54:39Z</time>
      </trkpt>
      <trkpt lat="48.2812" lon="2.59019">
        <ele>113</ele>
        <time>2009-02-01T10:54:43Z</time>
      </trkpt>
      <trkpt lat="48.2812" lon="2.59022">
        <ele>112</ele>
        <time>2009-02-01T10:55:25Z</time>
      </trkpt>
      <trkpt lat="48.28116" lon="2.59049">
        <ele>111</ele>
        <time>2009-02-01T10:55:32Z</time>
      </trkpt>
      <trkpt lat="48.28115" lon="2.59095">
        <ele>109</ele>
        <time>2009-02-01T10:55:37Z</time>
      </trkpt>
      <trkpt lat="48.28103" lon="2.59168">
        <ele>110</ele>
        <time>2009-02-01T10:55:44Z</time>
      </trkpt>
      <trkpt lat="48.28105" lon="2.59206">
        <ele>110</ele>
        <time>2009-02-01T10:55:48Z</time>
      </trkpt>
      <trkpt lat="48.28109" lon="2.59223">
        <ele>110</ele>
        <time>2009-02-01T10:55:50Z</time>
      </trkpt>
      <trkpt lat="48.28095" lon="2.5928">
        <ele>112</ele>
        <time>2009-02-01T10:55:58Z</time>
      </trkpt>
      <trkpt lat="48.28091" lon="2.59286">
        <ele>113</ele>
        <time>2009-02-01T10:55:59Z</time>
      </trkpt>
      <trkpt lat="48.28082" lon="2.59297">
        <ele>115</ele>
        <time>2009-02-01T10:56:01Z</time>
      </trkpt>
      <trkpt lat="48.28061" lon="2.59338">
        <ele>117</ele>
        <time>2009-02-01T10:56:08Z</time>
      </trkpt>
      <trkpt lat="48.28029" lon="2.59368">
        <ele>118</ele>
        <time>2009-02-01T10:56:16Z</time>
      </trkpt>
      <trkpt lat="48.27983" lon="2.59388">
        <ele>118</ele>
        <time>2009-02-01T10:56:29Z</time>
      </trkpt>
      <trkpt lat="48.27985" lon="2.59407">
        <ele>118</ele>
        <time>2009-02-01T10:56:34Z</time>
      </trkpt>
      <trkpt lat="48.28" lon="2.59482">
        <ele>117</ele>
        <time>2009-02-01T10:56:48Z</time>
      </trkpt>
      <trkpt lat="48.28003" lon="2.59525">
        <ele>116</ele>
        <time>2009-02-01T10:56:55Z</time>
      </trkpt>
      <trkpt lat="48.28011" lon="2.59545">
        <ele>117</ele>
        <time>2009-02-01T10:56:59Z</time>
      </trkpt>
      <trkpt lat="48.28015" lon="2.59552">
        <ele>117</ele>
        <time>2009-02-01T10:57:04Z</time>
      </trkpt>
      <trkpt lat="48.28029" lon="2.59596">
        <ele>115</ele>
        <time>2009-02-01T10:57:53Z</time>
      </trkpt>
      <trkpt lat="48.28035" lon="2.59601">
        <ele>114</ele>
        <time>2009-02-01T10:57:54Z</time>
      </trkpt>
      <trkpt lat="48.28047" lon="2.59609">
        <ele>113</ele>
        <time>2009-02-01T10:57:56Z</time>
      </trkpt>
      <trkpt lat="48.28059" lon="2.59618">
        <ele>111</ele>
        <time>2009-02-01T10:57:58Z</time>
      </trkpt>
      <trkpt lat="48.28075" lon="2.59636">
        <ele>107</ele>
        <time>2009-02-01T10:58:01Z</time>
      </trkpt>
      <trkpt lat="48.28102" lon="2.59654">
        <ele>100</ele>
        <time>2009-02-01T10:58:05Z</time>
      </trkpt>
      <trkpt lat="48.28131" lon="2.59658">
        <ele>95</ele>
        <time>2009-02-01T10:58:10Z</time>
      </trkpt>
      <trkpt lat="48.28138" lon="2.59645">
        <ele>93</ele>
        <time>2009-02-01T10:58:14Z</time>
      </trkpt>
      <trkpt lat="48.28147" lon="2.59572">
        <ele>91</ele>
        <time>2009-02-01T10:58:25Z</time>
      </trkpt>
      <trkpt lat="48.28165" lon="2.59556">
        <ele>89</ele>
        <time>2009-02-01T10:58:33Z</time>
      </trkpt>
      <trkpt lat="48.2819" lon="2.59584">
        <ele>87</ele>
        <time>2009-02-01T10:59:20Z</time>
      </trkpt>
      <trkpt lat="48.2821" lon="2.59612">
        <ele>82</ele>
        <time>2009-02-01T10:59:25Z</time>
      </trkpt>
      <trkpt lat="48.28249" lon="2.59657">
        <ele>80</ele>
        <time>2009-02-01T10:59:33Z</time>
      </trkpt>
      <trkpt lat="48.28309" lon="2.59725">
        <ele>77</ele>
        <time>2009-02-01T10:59:47Z</time>
      </trkpt>
      <trkpt lat="48.2832" lon="2.59742">
        <ele>77</ele>
        <time>2009-02-01T10:59:50Z</time>
      </trkpt>
      <trkpt lat="48.28333" lon="2.59784">
        <ele>75</ele>
        <time>2009-02-01T10:59:58Z</time>
      </trkpt>
    </trkseg>
  </trk>
</gpx>